<?xml version='1.0' encoding='UTF-8'?><gpx version="1.1" creator="JPX - https://github.com/jenetics/jpx" xmlns="http://www.topografix.com/GPX/1/1"><trk><trkseg><trkpt lat="45.37928538223867" lon="9.219083484100999"><ele>99.0</ele><time>2026-05-03T14:46:07Z</time></trkpt><trkpt lat="45.3792603361074" lon="9.218981464445656"><ele>99.0</ele><time>2026-05-03T14:46:10.001Z</time></trkpt><trkpt lat="45.37918892305846" lon="9.21895087999646"><ele>99.0</ele><time>2026-05-03T14:46:13.001Z</time></trkpt><trkpt lat="45.37916991701689" lon="9.219043753645733"><ele>99.0</ele><time>2026-05-03T14:46:16.001Z</time></trkpt><trkpt lat="45.379218388211804" lon="9.219153965368946"><ele>99.0</ele><time>2026-05-03T14:46:18.001Z</time></trkpt><trkpt lat="45.3792397977717" lon="9.21926772033555"><ele>99.0</ele><time>2026-05-03T14:46:20.001Z</time></trkpt><trkpt lat="45.3792525190681" lon="9.219360925830232"><ele>99.0</ele><time>2026-05-03T14:46:22.001Z</time></trkpt><trkpt lat="45.379275417750144" lon="9.219452595169093"><ele>99.0</ele><time>2026-05-03T14:46:24.001Z</time></trkpt><trkpt lat="45.37929073659926" lon="9.21955156326418"><ele>99.0</ele><time>2026-05-03T14:46:26.001Z</time></trkpt><trkpt lat="45.379297942982504" lon="9.219652431009585"><ele>99.0</ele><time>2026-05-03T14:46:28.001Z</time></trkpt><trkpt lat="45.37931555505163" lon="9.21974708961042"><ele>99.0</ele><time>2026-05-03T14:46:30.001Z</time></trkpt><trkpt lat="45.37932749316139" lon="9.219836564984208"><ele>99.0</ele><time>2026-05-03T14:46:32.001Z</time></trkpt><trkpt lat="45.379328536836" lon="9.219962166615435"><ele>99.0</ele><time>2026-05-03T14:46:35.001Z</time></trkpt><trkpt lat="45.37930167579707" lon="9.220073723408987"><ele>98.83333333333333</ele><time>2026-05-03T14:46:38.001Z</time></trkpt><trkpt lat="45.37930195310098" lon="9.220184534093102"><ele>98.66666666666666</ele><time>2026-05-03T14:46:41.001Z</time></trkpt><trkpt lat="45.37936903375876" lon="9.22026784358106"><ele>98.5</ele><time>2026-05-03T14:46:44.001Z</time></trkpt><trkpt lat="45.37938242408395" lon="9.22038651445154"><ele>98.33333333333333</ele><time>2026-05-03T14:46:47.001Z</time></trkpt><trkpt lat="45.37942901738935" lon="9.22050732558884"><ele>98.16666666666666</ele><time>2026-05-03T14:46:50.001Z</time></trkpt><trkpt lat="45.37948089148701" lon="9.220558265888702"><ele>98.0</ele><time>2026-05-03T14:46:52.001Z</time></trkpt><trkpt lat="45.37954224762413" lon="9.220630028576954"><ele>98.16666666666666</ele><time>2026-05-03T14:46:55.001Z</time></trkpt><trkpt lat="45.37959627480422" lon="9.220690276947877"><ele>98.33333333333333</ele><time>2026-05-03T14:46:57.001Z</time></trkpt><trkpt lat="45.37965967566184" lon="9.22074561368102"><ele>98.5</ele><time>2026-05-03T14:46:59.001Z</time></trkpt><trkpt lat="45.379727962575906" lon="9.220778980515048"><ele>98.66666666666666</ele><time>2026-05-03T14:47:01.001Z</time></trkpt><trkpt lat="45.379793558498655" lon="9.220831511098883"><ele>98.83333333333333</ele><time>2026-05-03T14:47:03.001Z</time></trkpt><trkpt lat="45.37983634212123" lon="9.22091528369276"><ele>99.0</ele><time>2026-05-03T14:47:06.001Z</time></trkpt><trkpt lat="45.37992125184035" lon="9.220952048736192"><ele>99.0</ele><time>2026-05-03T14:47:09.001Z</time></trkpt><trkpt lat="45.3799761037445" lon="9.220998140948332"><ele>99.0</ele><time>2026-05-03T14:47:11.001Z</time></trkpt><trkpt lat="45.380028716571665" lon="9.22105424656416"><ele>99.0</ele><time>2026-05-03T14:47:13.001Z</time></trkpt><trkpt lat="45.38008631437001" lon="9.221099290274658"><ele>99.0</ele><time>2026-05-03T14:47:15.001Z</time></trkpt><trkpt lat="45.38015039077706" lon="9.221157969897963"><ele>99.0</ele><time>2026-05-03T14:47:17.001Z</time></trkpt><trkpt lat="45.380232588553255" lon="9.221205641099813"><ele>99.0</ele><time>2026-05-03T14:47:19.001Z</time></trkpt><trkpt lat="45.38031635676866" lon="9.221269193212159"><ele>99.0</ele><time>2026-05-03T14:47:21.001Z</time></trkpt><trkpt lat="45.38039113231427" lon="9.22135317346099"><ele>99.0</ele><time>2026-05-03T14:47:23.001Z</time></trkpt><trkpt lat="45.380455963155775" lon="9.221453259868133"><ele>99.0</ele><time>2026-05-03T14:47:25.001Z</time></trkpt><trkpt lat="45.380518171907205" lon="9.22155157514096"><ele>99.0</ele><time>2026-05-03T14:47:27.002Z</time></trkpt><trkpt lat="45.38058795448899" lon="9.22163933614047"><ele>99.0</ele><time>2026-05-03T14:47:29.002Z</time></trkpt><trkpt lat="45.38064888205339" lon="9.221731508028851"><ele>98.83333333333333</ele><time>2026-05-03T14:47:31.002Z</time></trkpt><trkpt lat="45.38069845196737" lon="9.221830011939415"><ele>98.66666666666666</ele><time>2026-05-03T14:47:33.002Z</time></trkpt><trkpt lat="45.38072116203088" lon="9.221947582801668"><ele>98.5</ele><time>2026-05-03T14:47:35.002Z</time></trkpt><trkpt lat="45.38075753173335" lon="9.222055663451094"><ele>98.33333333333333</ele><time>2026-05-03T14:47:37.002Z</time></trkpt><trkpt lat="45.38076784203891" lon="9.222175192189598"><ele>98.16666666666666</ele><time>2026-05-03T14:47:39.001Z</time></trkpt><trkpt lat="45.38080601840697" lon="9.222292797311528"><ele>98.0</ele><time>2026-05-03T14:47:41.001Z</time></trkpt><trkpt lat="45.3808338758255" lon="9.222411711998468"><ele>97.99999999999999</ele><time>2026-05-03T14:47:43.001Z</time></trkpt><trkpt lat="45.38085265513681" lon="9.222531208539504"><ele>98.0</ele><time>2026-05-03T14:47:45.001Z</time></trkpt><trkpt lat="45.38087229429213" lon="9.222639479140708"><ele>98.0</ele><time>2026-05-03T14:47:47.001Z</time></trkpt><trkpt lat="45.380900287376036" lon="9.222748903056505"><ele>98.0</ele><time>2026-05-03T14:47:49.001Z</time></trkpt><trkpt lat="45.38091830572288" lon="9.22284311142622"><ele>97.99999999999999</ele><time>2026-05-03T14:47:51.001Z</time></trkpt><trkpt lat="45.38094136932972" lon="9.222931967590103"><ele>98.0</ele><time>2026-05-03T14:47:53Z</time></trkpt><trkpt lat="45.380995165057044" lon="9.223092865910798"><ele>98.33333333333333</ele><time>2026-05-03T14:47:56Z</time></trkpt><trkpt lat="45.3810094882999" lon="9.22320828929133"><ele>98.66666666666666</ele><time>2026-05-03T14:47:57Z</time></trkpt><trkpt lat="45.38103359140878" lon="9.223328359618506"><ele>99.0</ele><time>2026-05-03T14:47:59Z</time></trkpt><trkpt lat="45.381050908620814" lon="9.223452971523269"><ele>99.33333333333334</ele><time>2026-05-03T14:48:01Z</time></trkpt><trkpt lat="45.381078162376824" lon="9.223574664342163"><ele>99.66666666666667</ele><time>2026-05-03T14:48:03Z</time></trkpt><trkpt lat="45.38110858366747" lon="9.223699203793187"><ele>100.0</ele><time>2026-05-03T14:48:05Z</time></trkpt><trkpt lat="45.38113747918751" lon="9.223824235880889"><ele>100.00000000000001</ele><time>2026-05-03T14:48:07Z</time></trkpt><trkpt lat="45.38116969778464" lon="9.223934888865841"><ele>100.0</ele><time>2026-05-03T14:48:09Z</time></trkpt><trkpt lat="45.381230452712735" lon="9.224020040184516"><ele>100.0</ele><time>2026-05-03T14:48:11Z</time></trkpt><trkpt lat="45.38131857748889" lon="9.224048884642725"><ele>100.0</ele><time>2026-05-03T14:48:13Z</time></trkpt><trkpt lat="45.38140727754558" lon="9.224048884074897"><ele>100.00000000000001</ele><time>2026-05-03T14:48:15Z</time></trkpt><trkpt lat="45.38149617265629" lon="9.224053776640883"><ele>100.0</ele><time>2026-05-03T14:48:17Z</time></trkpt><trkpt lat="45.38158234794748" lon="9.22407089279906"><ele>99.83333333333334</ele><time>2026-05-03T14:48:19Z</time></trkpt><trkpt lat="45.38165225656732" lon="9.224142483500687"><ele>99.66666666666667</ele><time>2026-05-03T14:48:21Z</time></trkpt><trkpt lat="45.38167100950995" lon="9.224271597266476"><ele>99.5</ele><time>2026-05-03T14:48:23Z</time></trkpt><trkpt lat="45.38167804404656" lon="9.224399425414747"><ele>99.33333333333334</ele><time>2026-05-03T14:48:25Z</time></trkpt><trkpt lat="45.38169096512173" lon="9.224520229800929"><ele>99.16666666666667</ele><time>2026-05-03T14:48:27.001Z</time></trkpt><trkpt lat="45.3817024520683" lon="9.224634415689684"><ele>99.0</ele><time>2026-05-03T14:48:29.001Z</time></trkpt><trkpt lat="45.381714538456485" lon="9.22474633829068"><ele>98.80000000000001</ele><time>2026-05-03T14:48:31.001Z</time></trkpt><trkpt lat="45.3817276708748" lon="9.224867377458295"><ele>98.60000000000001</ele><time>2026-05-03T14:48:33.001Z</time></trkpt><trkpt lat="45.381741662718284" lon="9.224996914385981"><ele>98.4</ele><time>2026-05-03T14:48:35.001Z</time></trkpt><trkpt lat="45.381759127058835" lon="9.22513544614031"><ele>98.2</ele><time>2026-05-03T14:48:37.001Z</time></trkpt><trkpt lat="45.38177558935955" lon="9.225294752746414"><ele>98.0</ele><time>2026-05-03T14:48:39.001Z</time></trkpt><trkpt lat="45.38179906647708" lon="9.225454253204859"><ele>98.0</ele><time>2026-05-03T14:48:41.001Z</time></trkpt><trkpt lat="45.38188668209117" lon="9.225556663855718"><ele>98.0</ele><time>2026-05-03T14:48:43.001Z</time></trkpt><trkpt lat="45.38200907662156" lon="9.225520591444567"><ele>98.0</ele><time>2026-05-03T14:48:45.001Z</time></trkpt><trkpt lat="45.382111219575684" lon="9.225522554066373"><ele>98.0</ele><time>2026-05-03T14:48:47.001Z</time></trkpt><trkpt lat="45.38222000785728" lon="9.225522574916113"><ele>98.0</ele><time>2026-05-03T14:48:49.001Z</time></trkpt><trkpt lat="45.382329146139114" lon="9.22552709623002"><ele>97.99999999999999</ele><time>2026-05-03T14:48:51.001Z</time></trkpt><trkpt lat="45.3824472597454" lon="9.225530074220742"><ele>98.0</ele><time>2026-05-03T14:48:53.001Z</time></trkpt><trkpt lat="45.382511333214644" lon="9.225515376924106"><ele>98.0</ele><time>2026-05-03T14:48:54.001Z</time></trkpt><trkpt lat="45.38257723630531" lon="9.225487564735259"><ele>98.0</ele><time>2026-05-03T14:48:55.001Z</time></trkpt><trkpt lat="45.38264465602777" lon="9.225456622805622"><ele>97.99999999999999</ele><time>2026-05-03T14:48:56.001Z</time></trkpt><trkpt lat="45.382714290781564" lon="9.225424130215758"><ele>98.0</ele><time>2026-05-03T14:48:57.001Z</time></trkpt><trkpt lat="45.38278398763053" lon="9.225385050001357"><ele>98.0</ele><time>2026-05-03T14:48:58.001Z</time></trkpt><trkpt lat="45.38285392420965" lon="9.225350985748282"><ele>98.0</ele><time>2026-05-03T14:48:59.001Z</time></trkpt><trkpt lat="45.38292625452469" lon="9.225317296588498"><ele>98.0</ele><time>2026-05-03T14:49:00.001Z</time></trkpt><trkpt lat="45.382998586869924" lon="9.225285045593337"><ele>98.0</ele><time>2026-05-03T14:49:01.001Z</time></trkpt><trkpt lat="45.38306952812826" lon="9.225253455928142"><ele>98.0</ele><time>2026-05-03T14:49:02.001Z</time></trkpt><trkpt lat="45.38313976935839" lon="9.225222754063198"><ele>98.0</ele><time>2026-05-03T14:49:03.001Z</time></trkpt><trkpt lat="45.38320962854248" lon="9.225193193510336"><ele>98.0</ele><time>2026-05-03T14:49:04.001Z</time></trkpt><trkpt lat="45.38327565971989" lon="9.225165693184302"><ele>98.16666666666666</ele><time>2026-05-03T14:49:05.001Z</time></trkpt><trkpt lat="45.383336826505825" lon="9.225143938851113"><ele>98.33333333333333</ele><time>2026-05-03T14:49:06.001Z</time></trkpt><trkpt lat="45.38342784949244" lon="9.225096397004103"><ele>98.5</ele><time>2026-05-03T14:49:08.001Z</time></trkpt><trkpt lat="45.38349946805708" lon="9.22506537011687"><ele>98.66666666666666</ele><time>2026-05-03T14:49:10.001Z</time></trkpt><trkpt lat="45.3835684634702" lon="9.225032472362555"><ele>98.83333333333333</ele><time>2026-05-03T14:49:12.001Z</time></trkpt><trkpt lat="45.38363723985393" lon="9.224994187768928"><ele>99.0</ele><time>2026-05-03T14:49:14.001Z</time></trkpt><trkpt lat="45.38370632625732" lon="9.224956979783968"><ele>99.0</ele><time>2026-05-03T14:49:16.001Z</time></trkpt><trkpt lat="45.383779432598864" lon="9.224924680389844"><ele>99.0</ele><time>2026-05-03T14:49:18.001Z</time></trkpt><trkpt lat="45.38385371286194" lon="9.224889126015832"><ele>99.0</ele><time>2026-05-03T14:49:20.001Z</time></trkpt><trkpt lat="45.3839250687388" lon="9.224849726098647"><ele>99.0</ele><time>2026-05-03T14:49:22.001Z</time></trkpt><trkpt lat="45.38399254582231" lon="9.22480755649042"><ele>99.0</ele><time>2026-05-03T14:49:24.001Z</time></trkpt><trkpt lat="45.38406359385713" lon="9.224764044603493"><ele>99.0</ele><time>2026-05-03T14:49:26.001Z</time></trkpt><trkpt lat="45.384127664246556" lon="9.224713379324136"><ele>98.71428571428572</ele><time>2026-05-03T14:49:28.001Z</time></trkpt><trkpt lat="45.38418754324843" lon="9.224658893764634"><ele>98.42857142857142</ele><time>2026-05-03T14:49:30.001Z</time></trkpt><trkpt lat="45.384250536238824" lon="9.224602614232651"><ele>98.14285714285714</ele><time>2026-05-03T14:49:32.001Z</time></trkpt><trkpt lat="45.38431074433773" lon="9.224554849792868"><ele>97.85714285714286</ele><time>2026-05-03T14:49:34.001Z</time></trkpt><trkpt lat="45.38436730924483" lon="9.22451215248261"><ele>97.57142857142858</ele><time>2026-05-03T14:49:36.001Z</time></trkpt><trkpt lat="45.384427152263726" lon="9.224463569707929"><ele>97.28571428571428</ele><time>2026-05-03T14:49:38.001Z</time></trkpt><trkpt lat="45.38448884551615" lon="9.224407858480967"><ele>97.0</ele><time>2026-05-03T14:49:40.001Z</time></trkpt><trkpt lat="45.38455501840548" lon="9.224351069458814"><ele>97.00000000000001</ele><time>2026-05-03T14:49:42.001Z</time></trkpt><trkpt lat="45.38462204840483" lon="9.22429611488387"><ele>97.0</ele><time>2026-05-03T14:49:44Z</time></trkpt><trkpt lat="45.38468949763579" lon="9.224236144529709"><ele>97.0</ele><time>2026-05-03T14:49:46Z</time></trkpt><trkpt lat="45.384760037444984" lon="9.22417627275451"><ele>97.0</ele><time>2026-05-03T14:49:48Z</time></trkpt><trkpt lat="45.38482817569471" lon="9.224111555351334"><ele>97.00000000000001</ele><time>2026-05-03T14:49:50Z</time></trkpt><trkpt lat="45.38490047936194" lon="9.224050847921449"><ele>97.0</ele><time>2026-05-03T14:49:52Z</time></trkpt><trkpt lat="45.384971504884476" lon="9.223992026180339"><ele>97.00000000000001</ele><time>2026-05-03T14:49:54Z</time></trkpt><trkpt lat="45.38504226988227" lon="9.22392884809964"><ele>97.0</ele><time>2026-05-03T14:49:56Z</time></trkpt><trkpt lat="45.38511480528382" lon="9.22386568019387"><ele>97.0</ele><time>2026-05-03T14:49:58Z</time></trkpt><trkpt lat="45.38518516005422" lon="9.223802517015667"><ele>97.0</ele><time>2026-05-03T14:50:00Z</time></trkpt><trkpt lat="45.38525787590124" lon="9.223742870918956"><ele>97.00000000000001</ele><time>2026-05-03T14:50:02Z</time></trkpt><trkpt lat="45.385330302036714" lon="9.223689566524937"><ele>97.0</ele><time>2026-05-03T14:50:04Z</time></trkpt><trkpt lat="45.38540121504924" lon="9.223629089344465"><ele>97.00000000000001</ele><time>2026-05-03T14:50:06Z</time></trkpt><trkpt lat="45.38547055584885" lon="9.223565387115269"><ele>97.0</ele><time>2026-05-03T14:50:08Z</time></trkpt><trkpt lat="45.38554227598297" lon="9.223505784863095"><ele>97.0</ele><time>2026-05-03T14:50:10Z</time></trkpt><trkpt lat="45.385615147345625" lon="9.22344331070409"><ele>97.0</ele><time>2026-05-03T14:50:12Z</time></trkpt><trkpt lat="45.38568728082665" lon="9.223380826515243"><ele>97.00000000000001</ele><time>2026-05-03T14:50:14Z</time></trkpt><trkpt lat="45.38576026515756" lon="9.223319636871825"><ele>97.0</ele><time>2026-05-03T14:50:16Z</time></trkpt><trkpt lat="45.38583143211724" lon="9.223261870985427"><ele>97.16666666666667</ele><time>2026-05-03T14:50:18Z</time></trkpt><trkpt lat="45.38590304888152" lon="9.223206995431394"><ele>97.33333333333334</ele><time>2026-05-03T14:50:20Z</time></trkpt><trkpt lat="45.3859740973233" lon="9.22314740218594"><ele>97.5</ele><time>2026-05-03T14:50:22Z</time></trkpt><trkpt lat="45.38604357698483" lon="9.223086728891102"><ele>97.66666666666666</ele><time>2026-05-03T14:50:24Z</time></trkpt><trkpt lat="45.38611577229806" lon="9.223030776408672"><ele>97.83333333333333</ele><time>2026-05-03T14:50:26Z</time></trkpt><trkpt lat="45.38618497694242" lon="9.222973997732641"><ele>98.0</ele><time>2026-05-03T14:50:28Z</time></trkpt><trkpt lat="45.38625946923189" lon="9.222912148058478"><ele>98.16666666666666</ele><time>2026-05-03T14:50:30Z</time></trkpt><trkpt lat="45.38633326814063" lon="9.222849517241837"><ele>98.33333333333333</ele><time>2026-05-03T14:50:32Z</time></trkpt><trkpt lat="45.3864055145036" lon="9.222793172869487"><ele>98.5</ele><time>2026-05-03T14:50:34Z</time></trkpt><trkpt lat="45.38647678511932" lon="9.222734356255586"><ele>98.66666666666666</ele><time>2026-05-03T14:50:36Z</time></trkpt><trkpt lat="45.386543771498125" lon="9.222677370863794"><ele>98.83333333333333</ele><time>2026-05-03T14:50:38Z</time></trkpt><trkpt lat="45.3866196018692" lon="9.222619227916438"><ele>99.0</ele><time>2026-05-03T14:50:40Z</time></trkpt><trkpt lat="45.38669411206047" lon="9.222554240239909"><ele>99.0</ele><time>2026-05-03T14:50:42Z</time></trkpt><trkpt lat="45.38676385430656" lon="9.222490018647548"><ele>99.0</ele><time>2026-05-03T14:50:44Z</time></trkpt><trkpt lat="45.386833650058634" lon="9.22243241278183"><ele>99.0</ele><time>2026-05-03T14:50:46Z</time></trkpt><trkpt lat="45.386905165218835" lon="9.22237344600196"><ele>99.0</ele><time>2026-05-03T14:50:48Z</time></trkpt><trkpt lat="45.386977274318994" lon="9.222315397085104"><ele>99.0</ele><time>2026-05-03T14:50:50Z</time></trkpt><trkpt lat="45.38704896570388" lon="9.222250387819757"><ele>99.0</ele><time>2026-05-03T14:50:52Z</time></trkpt><trkpt lat="45.38712190229621" lon="9.222185437058307"><ele>99.0</ele><time>2026-05-03T14:50:54.001Z</time></trkpt><trkpt lat="45.38719425843671" lon="9.222120281757496"><ele>99.0</ele><time>2026-05-03T14:50:56.001Z</time></trkpt><trkpt lat="45.387266333063145" lon="9.22206286093369"><ele>99.0</ele><time>2026-05-03T14:50:58.001Z</time></trkpt><trkpt lat="45.38733880770801" lon="9.22200742248319"><ele>99.0</ele><time>2026-05-03T14:51:00.001Z</time></trkpt><trkpt lat="45.3874118317225" lon="9.221950745171732"><ele>99.0</ele><time>2026-05-03T14:51:02.001Z</time></trkpt><trkpt lat="45.387481242428585" lon="9.221890152451353"><ele>99.0</ele><time>2026-05-03T14:51:04.001Z</time></trkpt><trkpt lat="45.387551300879124" lon="9.221821266746069"><ele>99.0</ele><time>2026-05-03T14:51:06.001Z</time></trkpt><trkpt lat="45.38762144093308" lon="9.22175576054133"><ele>99.0</ele><time>2026-05-03T14:51:08.001Z</time></trkpt><trkpt lat="45.38769577352703" lon="9.221693922636502"><ele>99.0</ele><time>2026-05-03T14:51:10.001Z</time></trkpt><trkpt lat="45.38777138689146" lon="9.221641133141025"><ele>99.0</ele><time>2026-05-03T14:51:12.001Z</time></trkpt><trkpt lat="45.387849595751355" lon="9.221578502272498"><ele>99.0</ele><time>2026-05-03T14:51:14.001Z</time></trkpt><trkpt lat="45.38792613228446" lon="9.22151746137215"><ele>99.0</ele><time>2026-05-03T14:51:16.001Z</time></trkpt><trkpt lat="45.38800603279091" lon="9.221474841049824"><ele>99.33333333333333</ele><time>2026-05-03T14:51:18.001Z</time></trkpt><trkpt lat="45.38806796111975" lon="9.221391894106238"><ele>99.66666666666666</ele><time>2026-05-03T14:51:20.001Z</time></trkpt><trkpt lat="45.38809510553322" lon="9.221279734940115"><ele>100.0</ele><time>2026-05-03T14:51:22.001Z</time></trkpt><trkpt lat="45.38812710366753" lon="9.221170733276292"><ele>100.33333333333333</ele><time>2026-05-03T14:51:24.001Z</time></trkpt><trkpt lat="45.38815949777502" lon="9.22106407256533"><ele>100.66666666666666</ele><time>2026-05-03T14:51:26.001Z</time></trkpt><trkpt lat="45.38819136213825" lon="9.220958261722181"><ele>101.0</ele><time>2026-05-03T14:51:28.001Z</time></trkpt><trkpt lat="45.38821877084871" lon="9.220857828202702"><ele>100.99999999999999</ele><time>2026-05-03T14:51:30.001Z</time></trkpt><trkpt lat="45.388245121033684" lon="9.22075571906297"><ele>101.0</ele><time>2026-05-03T14:51:32.001Z</time></trkpt><trkpt lat="45.38827035390183" lon="9.22065213120665"><ele>101.0</ele><time>2026-05-03T14:51:34.001Z</time></trkpt><trkpt lat="45.388293715081744" lon="9.220545823108063"><ele>101.0</ele><time>2026-05-03T14:51:36.001Z</time></trkpt><trkpt lat="45.38831783478938" lon="9.22044275078559"><ele>100.99999999999999</ele><time>2026-05-03T14:51:38.001Z</time></trkpt><trkpt lat="45.388345231432886" lon="9.220344873968711"><ele>101.0</ele><time>2026-05-03T14:51:40.001Z</time></trkpt><trkpt lat="45.3883699101778" lon="9.220243500884227"><ele>100.99999999999999</ele><time>2026-05-03T14:51:42.001Z</time></trkpt><trkpt lat="45.3883958644128" lon="9.220145944200004"><ele>101.0</ele><time>2026-05-03T14:51:44.001Z</time></trkpt><trkpt lat="45.38841417467413" lon="9.220049625431349"><ele>101.0</ele><time>2026-05-03T14:51:46.001Z</time></trkpt><trkpt lat="45.38843719591526" lon="9.219950078290791"><ele>101.0</ele><time>2026-05-03T14:51:48.001Z</time></trkpt><trkpt lat="45.3884650375698" lon="9.21984205714954"><ele>100.99999999999999</ele><time>2026-05-03T14:51:50Z</time></trkpt><trkpt lat="45.38849250973085" lon="9.219731138036792"><ele>101.0</ele><time>2026-05-03T14:51:52Z</time></trkpt><trkpt lat="45.388521440412234" lon="9.219616895355605"><ele>100.99999999999999</ele><time>2026-05-03T14:51:54Z</time></trkpt><trkpt lat="45.388552034546336" lon="9.21950101335293"><ele>101.0</ele><time>2026-05-03T14:51:56Z</time></trkpt><trkpt lat="45.38858987307893" lon="9.21939035674252"><ele>101.0</ele><time>2026-05-03T14:51:58Z</time></trkpt><trkpt lat="45.38861528591172" lon="9.219281331502131"><ele>101.0</ele><time>2026-05-03T14:52:00Z</time></trkpt><trkpt lat="45.38864864086636" lon="9.219183892770554"><ele>100.99999999999999</ele><time>2026-05-03T14:52:02Z</time></trkpt><trkpt lat="45.3886766994707" lon="9.219091510716941"><ele>101.0</ele><time>2026-05-03T14:52:04Z</time></trkpt><trkpt lat="45.38870914310381" lon="9.2189890359543"><ele>100.83333333333333</ele><time>2026-05-03T14:52:06Z</time></trkpt><trkpt lat="45.38873388606121" lon="9.218880048372972"><ele>100.66666666666666</ele><time>2026-05-03T14:52:08Z</time></trkpt><trkpt lat="45.38876467502965" lon="9.218790170950223"><ele>100.5</ele><time>2026-05-03T14:52:10Z</time></trkpt><trkpt lat="45.38879433218827" lon="9.218687955655335"><ele>100.33333333333334</ele><time>2026-05-03T14:52:12Z</time></trkpt><trkpt lat="45.388817050255476" lon="9.218573635880333"><ele>100.16666666666667</ele><time>2026-05-03T14:52:14Z</time></trkpt><trkpt lat="45.3888469559127" lon="9.21846432900873"><ele>100.0</ele><time>2026-05-03T14:52:16Z</time></trkpt><trkpt lat="45.3888593446739" lon="9.21835217099971"><ele>100.28571428571429</ele><time>2026-05-03T14:52:18Z</time></trkpt><trkpt lat="45.38886862629746" lon="9.218249499728756"><ele>100.57142857142857</ele><time>2026-05-03T14:52:20Z</time></trkpt><trkpt lat="45.3888905824254" lon="9.218159927149967"><ele>100.85714285714286</ele><time>2026-05-03T14:52:22Z</time></trkpt><trkpt lat="45.38891469797142" lon="9.218069557858959"><ele>101.14285714285714</ele><time>2026-05-03T14:52:24Z</time></trkpt><trkpt lat="45.38893738683383" lon="9.217973363437165"><ele>101.42857142857143</ele><time>2026-05-03T14:52:26Z</time></trkpt><trkpt lat="45.38896354743466" lon="9.217881158293658"><ele>101.71428571428572</ele><time>2026-05-03T14:52:28Z</time></trkpt><trkpt lat="45.38898316893797" lon="9.217778293652485"><ele>102.0</ele><time>2026-05-03T14:52:30Z</time></trkpt><trkpt lat="45.389003586569636" lon="9.217671162283605"><ele>102.0</ele><time>2026-05-03T14:52:32Z</time></trkpt><trkpt lat="45.389023577898705" lon="9.21755463725389"><ele>102.0</ele><time>2026-05-03T14:52:34Z</time></trkpt><trkpt lat="45.38904302831552" lon="9.217439550930754"><ele>102.0</ele><time>2026-05-03T14:52:36Z</time></trkpt><trkpt lat="45.38905783955175" lon="9.217323772109921"><ele>102.0</ele><time>2026-05-03T14:52:38Z</time></trkpt><trkpt lat="45.38907056502104" lon="9.21720507617202"><ele>102.0</ele><time>2026-05-03T14:52:40Z</time></trkpt><trkpt lat="45.38908217304547" lon="9.217083973293432"><ele>102.0</ele><time>2026-05-03T14:52:42Z</time></trkpt><trkpt lat="45.38909951634993" lon="9.216966277711704"><ele>101.5</ele><time>2026-05-03T14:52:44Z</time></trkpt><trkpt lat="45.38911884885387" lon="9.216849201428458"><ele>101.0</ele><time>2026-05-03T14:52:46Z</time></trkpt><trkpt lat="45.389139028313586" lon="9.216732531048844"><ele>100.5</ele><time>2026-05-03T14:52:48Z</time></trkpt><trkpt lat="45.3891561869478" lon="9.216615136019989"><ele>100.0</ele><time>2026-05-03T14:52:50Z</time></trkpt><trkpt lat="45.38917465958915" lon="9.216500856543659"><ele>99.5</ele><time>2026-05-03T14:52:52Z</time></trkpt><trkpt lat="45.38919589947049" lon="9.216386787190395"><ele>99.0</ele><time>2026-05-03T14:52:54Z</time></trkpt><trkpt lat="45.389215594646686" lon="9.2162704196846"><ele>99.0</ele><time>2026-05-03T14:52:56Z</time></trkpt><trkpt lat="45.38923437142738" lon="9.216156064262984"><ele>99.0</ele><time>2026-05-03T14:52:58Z</time></trkpt><trkpt lat="45.38925967544908" lon="9.216042421179933"><ele>99.0</ele><time>2026-05-03T14:53:00Z</time></trkpt><trkpt lat="45.389282899697086" lon="9.215930404933518"><ele>99.0</ele><time>2026-05-03T14:53:02Z</time></trkpt><trkpt lat="45.38930017938929" lon="9.21582403910023"><ele>99.0</ele><time>2026-05-03T14:53:04Z</time></trkpt><trkpt lat="45.38932451279549" lon="9.215709008858877"><ele>99.0</ele><time>2026-05-03T14:53:07Z</time></trkpt><trkpt lat="45.38935193933814" lon="9.215605015896031"><ele>99.14285714285715</ele><time>2026-05-03T14:53:10Z</time></trkpt><trkpt lat="45.389403330945356" lon="9.215529927575135"><ele>99.28571428571428</ele><time>2026-05-03T14:53:14.001Z</time></trkpt><trkpt lat="45.38947497068175" lon="9.215557842600647"><ele>99.42857142857143</ele><time>2026-05-03T14:53:17.001Z</time></trkpt><trkpt lat="45.389562307249" lon="9.21559825626966"><ele>99.57142857142858</ele><time>2026-05-03T14:53:20.001Z</time></trkpt><trkpt lat="45.389626969457254" lon="9.215618114377556"><ele>99.71428571428572</ele><time>2026-05-03T14:53:22.001Z</time></trkpt><trkpt lat="45.38969249812419" lon="9.21564918031312"><ele>99.85714285714286</ele><time>2026-05-03T14:53:24.001Z</time></trkpt><trkpt lat="45.389759476616824" lon="9.21567199796892"><ele>100.0</ele><time>2026-05-03T14:53:26.001Z</time></trkpt><trkpt lat="45.38984539202578" lon="9.2157063085294"><ele>100.50000000000001</ele><time>2026-05-03T14:53:29.001Z</time></trkpt><trkpt lat="45.38991523774616" lon="9.21576931934518"><ele>101.0</ele><time>2026-05-03T14:53:31.001Z</time></trkpt><trkpt lat="45.39000672887069" lon="9.21578451453545"><ele>101.5</ele><time>2026-05-03T14:53:33.001Z</time></trkpt><trkpt lat="45.390067577771426" lon="9.21575131753241"><ele>102.0</ele><time>2026-05-03T14:53:34.001Z</time></trkpt><trkpt lat="45.39012257952127" lon="9.215664668457947"><ele>102.50000000000001</ele><time>2026-05-03T14:53:36.001Z</time></trkpt><trkpt lat="45.39016216305858" lon="9.215559666870831"><ele>103.0</ele><time>2026-05-03T14:53:38.001Z</time></trkpt><trkpt lat="45.390199164467134" lon="9.21545659784946"><ele>103.00000000000001</ele><time>2026-05-03T14:53:40.001Z</time></trkpt><trkpt lat="45.39022241866587" lon="9.215353840334869"><ele>103.0</ele><time>2026-05-03T14:53:42.001Z</time></trkpt><trkpt lat="45.390236067637936" lon="9.21525027628882"><ele>103.0</ele><time>2026-05-03T14:53:44.001Z</time></trkpt><trkpt lat="45.39024830865603" lon="9.215145557088054"><ele>103.0</ele><time>2026-05-03T14:53:46.001Z</time></trkpt><trkpt lat="45.390272499788225" lon="9.215045040705908"><ele>103.00000000000001</ele><time>2026-05-03T14:53:48.001Z</time></trkpt><trkpt lat="45.39030020530544" lon="9.21493940425605"><ele>103.0</ele><time>2026-05-03T14:53:50.001Z</time></trkpt><trkpt lat="45.39032780897269" lon="9.214834911059464"><ele>103.00000000000001</ele><time>2026-05-03T14:53:52.001Z</time></trkpt><trkpt lat="45.39036032809172" lon="9.21472595072869"><ele>103.0</ele><time>2026-05-03T14:53:54.001Z</time></trkpt><trkpt lat="45.390404769659305" lon="9.214637819174955"><ele>103.0</ele><time>2026-05-03T14:53:56Z</time></trkpt><trkpt lat="45.39045772544121" lon="9.214557832869314"><ele>103.0</ele><time>2026-05-03T14:53:58Z</time></trkpt><trkpt lat="45.39050403097131" lon="9.214467287855463"><ele>103.00000000000001</ele><time>2026-05-03T14:54:00Z</time></trkpt><trkpt lat="45.3905498038073" lon="9.2143791975869"><ele>103.0</ele><time>2026-05-03T14:54:02Z</time></trkpt><trkpt lat="45.39059661597849" lon="9.214287197867765"><ele>103.00000000000001</ele><time>2026-05-03T14:54:04Z</time></trkpt><trkpt lat="45.39064205832792" lon="9.214193061115669"><ele>103.0</ele><time>2026-05-03T14:54:06Z</time></trkpt><trkpt lat="45.39069518123113" lon="9.214102644391177"><ele>103.0</ele><time>2026-05-03T14:54:08Z</time></trkpt><trkpt lat="45.390740423292634" lon="9.214004796917294"><ele>103.0</ele><time>2026-05-03T14:54:10Z</time></trkpt><trkpt lat="45.39076917579708" lon="9.21389374737357"><ele>103.00000000000001</ele><time>2026-05-03T14:54:12Z</time></trkpt><trkpt lat="45.39079883095012" lon="9.213787156988799"><ele>103.0</ele><time>2026-05-03T14:54:14Z</time></trkpt><trkpt lat="45.390840597527685" lon="9.213683283680423"><ele>103.33333333333334</ele><time>2026-05-03T14:54:16Z</time></trkpt><trkpt lat="45.390880878357216" lon="9.21357729290721"><ele>103.66666666666667</ele><time>2026-05-03T14:54:18Z</time></trkpt><trkpt lat="45.39092619597695" lon="9.213471879426105"><ele>104.0</ele><time>2026-05-03T14:54:20Z</time></trkpt><trkpt lat="45.39097524300878" lon="9.213372530478479"><ele>104.33333333333334</ele><time>2026-05-03T14:54:22Z</time></trkpt><trkpt lat="45.3910211325601" lon="9.213273961402404"><ele>104.66666666666667</ele><time>2026-05-03T14:54:24Z</time></trkpt><trkpt lat="45.39107142214144" lon="9.213175761977235"><ele>105.0</ele><time>2026-05-03T14:54:26Z</time></trkpt><trkpt lat="45.391117387687366" lon="9.213076257276203"><ele>105.0</ele><time>2026-05-03T14:54:28Z</time></trkpt><trkpt lat="45.39116497846743" lon="9.212976741606429"><ele>105.0</ele><time>2026-05-03T14:54:30Z</time></trkpt><trkpt lat="45.39120883731683" lon="9.212877397835124"><ele>105.0</ele><time>2026-05-03T14:54:32Z</time></trkpt><trkpt lat="45.391253713342614" lon="9.212779283940758"><ele>105.0</ele><time>2026-05-03T14:54:34Z</time></trkpt><trkpt lat="45.39130174582313" lon="9.212683339621389"><ele>105.0</ele><time>2026-05-03T14:54:36Z</time></trkpt><trkpt lat="45.39135140284883" lon="9.212587838136322"><ele>105.0</ele><time>2026-05-03T14:54:38Z</time></trkpt><trkpt lat="45.391402352073534" lon="9.212500147214344"><ele>104.5</ele><time>2026-05-03T14:54:40Z</time></trkpt><trkpt lat="45.39146240835642" lon="9.212416992125352"><ele>104.0</ele><time>2026-05-03T14:54:42Z</time></trkpt><trkpt lat="45.391524190205075" lon="9.212338557875164"><ele>103.5</ele><time>2026-05-03T14:54:44Z</time></trkpt><trkpt lat="45.39158468062537" lon="9.212271064995207"><ele>103.0</ele><time>2026-05-03T14:54:46Z</time></trkpt><trkpt lat="45.39164839777478" lon="9.212203679540274"><ele>102.5</ele><time>2026-05-03T14:54:48Z</time></trkpt><trkpt lat="45.391714952045355" lon="9.212139889260465"><ele>102.0</ele><time>2026-05-03T14:54:50Z</time></trkpt><trkpt lat="45.39178647365439" lon="9.212082921487827"><ele>102.0</ele><time>2026-05-03T14:54:52Z</time></trkpt><trkpt lat="45.39185641170207" lon="9.212025585687014"><ele>102.0</ele><time>2026-05-03T14:54:54Z</time></trkpt><trkpt lat="45.39193166445258" lon="9.211982607150057"><ele>102.0</ele><time>2026-05-03T14:54:56Z</time></trkpt><trkpt lat="45.392008893354806" lon="9.211949786984665"><ele>102.0</ele><time>2026-05-03T14:54:58Z</time></trkpt><trkpt lat="45.392084800400944" lon="9.211920148591634"><ele>102.0</ele><time>2026-05-03T14:55:00Z</time></trkpt><trkpt lat="45.392167467704866" lon="9.211892351898443"><ele>102.0</ele><time>2026-05-03T14:55:02Z</time></trkpt><trkpt lat="45.39224739211713" lon="9.211863417687557"><ele>102.0</ele><time>2026-05-03T14:55:04Z</time></trkpt><trkpt lat="45.39233023632858" lon="9.211835496829579"><ele>102.0</ele><time>2026-05-03T14:55:06Z</time></trkpt><trkpt lat="45.39241201758628" lon="9.211811240939062"><ele>102.0</ele><time>2026-05-03T14:55:08Z</time></trkpt><trkpt lat="45.392494164986125" lon="9.211784255745796"><ele>102.0</ele><time>2026-05-03T14:55:10Z</time></trkpt><trkpt lat="45.39257472693857" lon="9.211765065777543"><ele>102.0</ele><time>2026-05-03T14:55:12Z</time></trkpt><trkpt lat="45.3926377257642" lon="9.211721062601214"><ele>102.0</ele><time>2026-05-03T14:55:14Z</time></trkpt><trkpt lat="45.39270741764511" lon="9.211705649176018"><ele>102.0</ele><time>2026-05-03T14:55:16Z</time></trkpt><trkpt lat="45.39277918255358" lon="9.21168853059771"><ele>102.0</ele><time>2026-05-03T14:55:18Z</time></trkpt><trkpt lat="45.392853743158796" lon="9.211665776911607"><ele>102.0</ele><time>2026-05-03T14:55:20Z</time></trkpt><trkpt lat="45.39292972868583" lon="9.211649445710952"><ele>102.0</ele><time>2026-05-03T14:55:22Z</time></trkpt><trkpt lat="45.393009348868794" lon="9.211624638113342"><ele>102.0</ele><time>2026-05-03T14:55:24Z</time></trkpt><trkpt lat="45.393088511743066" lon="9.211593977039616"><ele>102.0</ele><time>2026-05-03T14:55:26Z</time></trkpt><trkpt lat="45.39316874248016" lon="9.21156724702688"><ele>102.16666666666667</ele><time>2026-05-03T14:55:28Z</time></trkpt><trkpt lat="45.393249991847895" lon="9.211548932579944"><ele>102.33333333333334</ele><time>2026-05-03T14:55:30Z</time></trkpt><trkpt lat="45.39332880484083" lon="9.211526264308032"><ele>102.5</ele><time>2026-05-03T14:55:32Z</time></trkpt><trkpt lat="45.39340442690749" lon="9.211506995066175"><ele>102.66666666666667</ele><time>2026-05-03T14:55:34Z</time></trkpt><trkpt lat="45.393472999801915" lon="9.211492232607585"><ele>102.83333333333334</ele><time>2026-05-03T14:55:36Z</time></trkpt><trkpt lat="45.39354568607864" lon="9.211473051539063"><ele>103.0</ele><time>2026-05-03T14:55:38Z</time></trkpt><trkpt lat="45.39361738619938" lon="9.211459737538185"><ele>102.99999999999999</ele><time>2026-05-03T14:55:40.001Z</time></trkpt><trkpt lat="45.393688402605456" lon="9.211482571774555"><ele>103.0</ele><time>2026-05-03T14:55:42.001Z</time></trkpt><trkpt lat="45.39374439989692" lon="9.211528104109018"><ele>103.0</ele><time>2026-05-03T14:55:44.001Z</time></trkpt><trkpt lat="45.3937877410742" lon="9.211600068309908"><ele>103.0</ele><time>2026-05-03T14:55:46.001Z</time></trkpt><trkpt lat="45.39381216607123" lon="9.211700038169752"><ele>103.0</ele><time>2026-05-03T14:55:48.001Z</time></trkpt><trkpt lat="45.39382357902518" lon="9.21180812826429"><ele>102.99999999999999</ele><time>2026-05-03T14:55:50.001Z</time></trkpt><trkpt lat="45.393836461583135" lon="9.211920344492714"><ele>103.0</ele><time>2026-05-03T14:55:52.001Z</time></trkpt><trkpt lat="45.39385027580798" lon="9.212030829894815"><ele>102.71428571428571</ele><time>2026-05-03T14:55:54.001Z</time></trkpt><trkpt lat="45.393855806922616" lon="9.212139133124467"><ele>102.42857142857143</ele><time>2026-05-03T14:55:56.001Z</time></trkpt><trkpt lat="45.39386901955759" lon="9.212245921839417"><ele>102.14285714285714</ele><time>2026-05-03T14:55:58.001Z</time></trkpt><trkpt lat="45.39390262388125" lon="9.212339908559036"><ele>101.85714285714286</ele><time>2026-05-03T14:56:00.001Z</time></trkpt><trkpt lat="45.39396629161195" lon="9.212373970720995"><ele>101.57142857142857</ele><time>2026-05-03T14:56:02Z</time></trkpt><trkpt lat="45.39404147092797" lon="9.212359038920727"><ele>101.28571428571428</ele><time>2026-05-03T14:56:12Z</time></trkpt><trkpt lat="45.394104186364174" lon="9.212350475500278"><ele>101.0</ele><time>2026-05-03T14:56:19Z</time></trkpt><trkpt lat="45.394179436145535" lon="9.212346433021514"><ele>101.0</ele><time>2026-05-03T14:56:26Z</time></trkpt><trkpt lat="45.394248533707476" lon="9.2123225868819"><ele>101.0</ele><time>2026-05-03T14:56:30Z</time></trkpt><trkpt lat="45.39433026465627" lon="9.212306445035177"><ele>101.0</ele><time>2026-05-03T14:56:33Z</time></trkpt><trkpt lat="45.394406927232815" lon="9.212294585143985"><ele>101.0</ele><time>2026-05-03T14:56:36Z</time></trkpt><trkpt lat="45.39447311166865" lon="9.21233740641996"><ele>101.0</ele><time>2026-05-03T14:56:38Z</time></trkpt><trkpt lat="45.39454376241078" lon="9.212337395559704"><ele>101.0</ele><time>2026-05-03T14:56:40Z</time></trkpt><trkpt lat="45.394615182534636" lon="9.212337580174292"><ele>101.0</ele><time>2026-05-03T14:56:42Z</time></trkpt><trkpt lat="45.39468970473078" lon="9.21231969166203"><ele>101.33333333333333</ele><time>2026-05-03T14:56:44Z</time></trkpt><trkpt lat="45.394770426477294" lon="9.212308922984977"><ele>101.66666666666666</ele><time>2026-05-03T14:56:46Z</time></trkpt><trkpt lat="45.39485367630463" lon="9.212292599935866"><ele>102.0</ele><time>2026-05-03T14:56:48Z</time></trkpt><trkpt lat="45.394934485335654" lon="9.212266775680247"><ele>102.33333333333334</ele><time>2026-05-03T14:56:50Z</time></trkpt><trkpt lat="45.39500353808831" lon="9.212252510315638"><ele>102.66666666666667</ele><time>2026-05-03T14:56:52Z</time></trkpt><trkpt lat="45.39508313688298" lon="9.212222092729736"><ele>103.0</ele><time>2026-05-03T14:56:54Z</time></trkpt><trkpt lat="45.39516110623985" lon="9.212203055012422"><ele>103.00000000000001</ele><time>2026-05-03T14:56:56Z</time></trkpt><trkpt lat="45.395239633991274" lon="9.212185321893449"><ele>103.0</ele><time>2026-05-03T14:56:58Z</time></trkpt><trkpt lat="45.395315061170926" lon="9.212165526664524"><ele>103.0</ele><time>2026-05-03T14:57:00Z</time></trkpt><trkpt lat="45.39539386426498" lon="9.212146996365679"><ele>103.0</ele><time>2026-05-03T14:57:02Z</time></trkpt><trkpt lat="45.39547204993693" lon="9.212119399964898"><ele>103.00000000000001</ele><time>2026-05-03T14:57:04Z</time></trkpt><trkpt lat="45.39553016626976" lon="9.212040255803092"><ele>103.0</ele><time>2026-05-03T14:57:06Z</time></trkpt><trkpt lat="45.39555837623676" lon="9.211928719870423"><ele>103.66666666666667</ele><time>2026-05-03T14:57:08Z</time></trkpt><trkpt lat="45.3955643978696" lon="9.211808493494916"><ele>104.33333333333334</ele><time>2026-05-03T14:57:10Z</time></trkpt><trkpt lat="45.39556787693481" lon="9.211689543413387"><ele>105.0</ele><time>2026-05-03T14:57:12Z</time></trkpt><trkpt lat="45.39556427043814" lon="9.21157013102617"><ele>105.66666666666666</ele><time>2026-05-03T14:57:14Z</time></trkpt><trkpt lat="45.39555100679577" lon="9.211461071369653"><ele>106.33333333333333</ele><time>2026-05-03T14:57:16Z</time></trkpt><trkpt lat="45.39553381984359" lon="9.2113514407736"><ele>107.0</ele><time>2026-05-03T14:57:18Z</time></trkpt><trkpt lat="45.39552321644297" lon="9.211243456791209"><ele>106.99999999999999</ele><time>2026-05-03T14:57:20Z</time></trkpt><trkpt lat="45.39552764716022" lon="9.211133611240164"><ele>107.0</ele><time>2026-05-03T14:57:22Z</time></trkpt><trkpt lat="45.39558387271217" lon="9.21105593258161"><ele>107.0</ele><time>2026-05-03T14:57:24Z</time></trkpt><trkpt lat="45.39564865697127" lon="9.211012368554416"><ele>107.0</ele><time>2026-05-03T14:57:26Z</time></trkpt><trkpt lat="45.3957197039039" lon="9.210987099901727"><ele>106.99999999999999</ele><time>2026-05-03T14:57:28Z</time></trkpt><trkpt lat="45.395798847361284" lon="9.21097258561213"><ele>107.0</ele><time>2026-05-03T14:57:30Z</time></trkpt><trkpt lat="45.395878059618184" lon="9.210949191149064"><ele>106.99999999999999</ele><time>2026-05-03T14:57:32Z</time></trkpt><trkpt lat="45.395953427638815" lon="9.210931856699117"><ele>107.0</ele><time>2026-05-03T14:57:34Z</time></trkpt><trkpt lat="45.39602876522894" lon="9.210911140822732"><ele>107.0</ele><time>2026-05-03T14:57:36Z</time></trkpt><trkpt lat="45.39610360469828" lon="9.210886571215468"><ele>107.0</ele><time>2026-05-03T14:57:38Z</time></trkpt><trkpt lat="45.39617943991878" lon="9.210869880512266"><ele>106.99999999999999</ele><time>2026-05-03T14:57:40Z</time></trkpt><trkpt lat="45.39625219378009" lon="9.210847205692133"><ele>107.0</ele><time>2026-05-03T14:57:42Z</time></trkpt><trkpt lat="45.39632072114865" lon="9.210792895067053"><ele>106.66666666666666</ele><time>2026-05-03T14:57:44Z</time></trkpt><trkpt lat="45.39641965347541" lon="9.210752852834256"><ele>106.33333333333333</ele><time>2026-05-03T14:57:47Z</time></trkpt><trkpt lat="45.396500933931215" lon="9.210744343201354"><ele>106.0</ele><time>2026-05-03T14:57:49Z</time></trkpt><trkpt lat="45.3966035887936" lon="9.210703724411022"><ele>105.66666666666666</ele><time>2026-05-03T14:57:52.001Z</time></trkpt><trkpt lat="45.39667564691445" lon="9.21068281168408"><ele>105.33333333333333</ele><time>2026-05-03T14:57:54.001Z</time></trkpt><trkpt lat="45.39675235896616" lon="9.21066785245199"><ele>105.0</ele><time>2026-05-03T14:57:56.001Z</time></trkpt><trkpt lat="45.3968319209783" lon="9.21065770152768"><ele>105.0</ele><time>2026-05-03T14:57:58.001Z</time></trkpt><trkpt lat="45.39691012781892" lon="9.210669562854589"><ele>105.0</ele><time>2026-05-03T14:58:00.001Z</time></trkpt><trkpt lat="45.39698730142231" lon="9.210662709336574"><ele>105.0</ele><time>2026-05-03T14:58:02.001Z</time></trkpt><trkpt lat="45.39706508755583" lon="9.210656996151027"><ele>105.0</ele><time>2026-05-03T14:58:04.001Z</time></trkpt><trkpt lat="45.3971374315157" lon="9.210653048175852"><ele>105.0</ele><time>2026-05-03T14:58:06.001Z</time></trkpt><trkpt lat="45.39721890252461" lon="9.21065045215433"><ele>105.0</ele><time>2026-05-03T14:58:08Z</time></trkpt><trkpt lat="45.39729968712076" lon="9.210653097522114"><ele>104.5</ele><time>2026-05-03T14:58:10Z</time></trkpt><trkpt lat="45.397376917432034" lon="9.210651392111725"><ele>104.0</ele><time>2026-05-03T14:58:12Z</time></trkpt><trkpt lat="45.39745577095258" lon="9.210640268785665"><ele>103.5</ele><time>2026-05-03T14:58:14Z</time></trkpt><trkpt lat="45.397530866077496" lon="9.21063686433924"><ele>103.0</ele><time>2026-05-03T14:58:16Z</time></trkpt><trkpt lat="45.39760914149272" lon="9.21063100294889"><ele>102.5</ele><time>2026-05-03T14:58:18Z</time></trkpt><trkpt lat="45.39768840104544" lon="9.210612544639451"><ele>102.0</ele><time>2026-05-03T14:58:20Z</time></trkpt><trkpt lat="45.397770512608794" lon="9.21059985858461"><ele>102.0</ele><time>2026-05-03T14:58:22Z</time></trkpt><trkpt lat="45.39785323919071" lon="9.210574285821957"><ele>102.0</ele><time>2026-05-03T14:58:24Z</time></trkpt><trkpt lat="45.397934187729525" lon="9.210545730743592"><ele>102.0</ele><time>2026-05-03T14:58:26Z</time></trkpt><trkpt lat="45.39800839783974" lon="9.21052709480619"><ele>102.0</ele><time>2026-05-03T14:58:28Z</time></trkpt><trkpt lat="45.398086367475514" lon="9.210504192772285"><ele>102.0</ele><time>2026-05-03T14:58:30Z</time></trkpt><trkpt lat="45.398169661461644" lon="9.21048513067194"><ele>102.0</ele><time>2026-05-03T14:58:32Z</time></trkpt><trkpt lat="45.3982566017063" lon="9.210462840488438"><ele>101.83333333333333</ele><time>2026-05-03T14:58:34Z</time></trkpt><trkpt lat="45.39834415181933" lon="9.210438023572355"><ele>101.66666666666666</ele><time>2026-05-03T14:58:36Z</time></trkpt><trkpt lat="45.39842968009087" lon="9.210420958092005"><ele>101.5</ele><time>2026-05-03T14:58:38Z</time></trkpt><trkpt lat="45.39851295734391" lon="9.210400631949824"><ele>101.33333333333333</ele><time>2026-05-03T14:58:40Z</time></trkpt><trkpt lat="45.398595713704474" lon="9.210380435853121"><ele>101.16666666666666</ele><time>2026-05-03T14:58:42Z</time></trkpt><trkpt lat="45.39867830107524" lon="9.210355719270382"><ele>101.0</ele><time>2026-05-03T14:58:44Z</time></trkpt><trkpt lat="45.3987607843593" lon="9.21032966738722"><ele>101.16666666666666</ele><time>2026-05-03T14:58:46Z</time></trkpt><trkpt lat="45.39884453085876" lon="9.210306495826655"><ele>101.33333333333333</ele><time>2026-05-03T14:58:48Z</time></trkpt><trkpt lat="45.39892794899106" lon="9.210278238950936"><ele>101.5</ele><time>2026-05-03T14:58:50Z</time></trkpt><trkpt lat="45.39900959625404" lon="9.210246856760907"><ele>101.66666666666666</ele><time>2026-05-03T14:58:52Z</time></trkpt><trkpt lat="45.399089818146834" lon="9.210220268355693"><ele>101.83333333333333</ele><time>2026-05-03T14:58:54Z</time></trkpt><trkpt lat="45.39917138687392" lon="9.210189526685523"><ele>102.0</ele><time>2026-05-03T14:58:56Z</time></trkpt><trkpt lat="45.39925254257178" lon="9.210156513141232"><ele>102.0</ele><time>2026-05-03T14:58:58Z</time></trkpt><trkpt lat="45.39933628951082" lon="9.210131644272574"><ele>102.0</ele><time>2026-05-03T14:59:00Z</time></trkpt><trkpt lat="45.399417572368094" lon="9.210097193410537"><ele>102.0</ele><time>2026-05-03T14:59:02Z</time></trkpt><trkpt lat="45.39949947939939" lon="9.21006388719443"><ele>102.0</ele><time>2026-05-03T14:59:04Z</time></trkpt><trkpt lat="45.399581143860914" lon="9.210025764534961"><ele>102.0</ele><time>2026-05-03T14:59:06Z</time></trkpt><trkpt lat="45.39966064993952" lon="9.209994195779663"><ele>102.0</ele><time>2026-05-03T14:59:08Z</time></trkpt><trkpt lat="45.399740341187844" lon="9.20996109421226"><ele>102.33333333333333</ele><time>2026-05-03T14:59:10Z</time></trkpt><trkpt lat="45.399822766124245" lon="9.209925421856203"><ele>102.66666666666666</ele><time>2026-05-03T14:59:12Z</time></trkpt><trkpt lat="45.39990289565358" lon="9.209890391045565"><ele>103.0</ele><time>2026-05-03T14:59:14Z</time></trkpt><trkpt lat="45.39998369320748" lon="9.20985968981857"><ele>103.33333333333333</ele><time>2026-05-03T14:59:16Z</time></trkpt><trkpt lat="45.400063134578204" lon="9.209837167117623"><ele>103.66666666666666</ele><time>2026-05-03T14:59:18Z</time></trkpt><trkpt lat="45.40013869567121" lon="9.20985960256994"><ele>104.0</ele><time>2026-05-03T14:59:20Z</time></trkpt><trkpt lat="45.40020976036456" lon="9.209886186211508"><ele>103.99999999999999</ele><time>2026-05-03T14:59:22Z</time></trkpt><trkpt lat="45.40027970805491" lon="9.20986947308208"><ele>104.0</ele><time>2026-05-03T14:59:24Z</time></trkpt><trkpt lat="45.40034543300014" lon="9.209805722640322"><ele>104.0</ele><time>2026-05-03T14:59:26Z</time></trkpt><trkpt lat="45.400402825497416" lon="9.209735730122395"><ele>104.0</ele><time>2026-05-03T14:59:28Z</time></trkpt><trkpt lat="45.40046436042415" lon="9.209674814962332"><ele>103.99999999999999</ele><time>2026-05-03T14:59:30Z</time></trkpt><trkpt lat="45.40054219883223" lon="9.209648712616714"><ele>104.0</ele><time>2026-05-03T14:59:32Z</time></trkpt><trkpt lat="45.4006193569051" lon="9.209627312559796"><ele>103.66666666666666</ele><time>2026-05-03T14:59:34Z</time></trkpt><trkpt lat="45.40070305086797" lon="9.20959730619337"><ele>103.33333333333333</ele><time>2026-05-03T14:59:36Z</time></trkpt><trkpt lat="45.40078533225381" lon="9.209568275114814"><ele>103.0</ele><time>2026-05-03T14:59:38Z</time></trkpt><trkpt lat="45.40086477972165" lon="9.20954449758366"><ele>102.66666666666666</ele><time>2026-05-03T14:59:40Z</time></trkpt><trkpt lat="45.40094944738786" lon="9.209520996081437"><ele>102.33333333333333</ele><time>2026-05-03T14:59:42Z</time></trkpt><trkpt lat="45.40103040378905" lon="9.209492654519288"><ele>102.0</ele><time>2026-05-03T14:59:44Z</time></trkpt><trkpt lat="45.40111585004916" lon="9.209474185424419"><ele>102.0</ele><time>2026-05-03T14:59:46Z</time></trkpt><trkpt lat="45.40119840606898" lon="9.209449778277625"><ele>102.0</ele><time>2026-05-03T14:59:48Z</time></trkpt><trkpt lat="45.40128396030325" lon="9.209435659594533"><ele>102.0</ele><time>2026-05-03T14:59:50Z</time></trkpt><trkpt lat="45.40136578441568" lon="9.209409504798202"><ele>102.0</ele><time>2026-05-03T14:59:52Z</time></trkpt><trkpt lat="45.40144974618397" lon="9.209388734436919"><ele>102.0</ele><time>2026-05-03T14:59:54Z</time></trkpt><trkpt lat="45.401534504943456" lon="9.20937104181184"><ele>102.0</ele><time>2026-05-03T14:59:56Z</time></trkpt><trkpt lat="45.401612140095786" lon="9.20935091014437"><ele>102.0</ele><time>2026-05-03T14:59:58Z</time></trkpt><trkpt lat="45.401688990582436" lon="9.209326301540218"><ele>102.0</ele><time>2026-05-03T15:00:00Z</time></trkpt><trkpt lat="45.40177323321515" lon="9.20931106521648"><ele>102.0</ele><time>2026-05-03T15:00:02Z</time></trkpt><trkpt lat="45.40185343666427" lon="9.209290183256503"><ele>102.0</ele><time>2026-05-03T15:00:04Z</time></trkpt><trkpt lat="45.40193717914809" lon="9.209269492645097"><ele>102.0</ele><time>2026-05-03T15:00:06Z</time></trkpt><trkpt lat="45.40201823398443" lon="9.209247115565054"><ele>102.0</ele><time>2026-05-03T15:00:08Z</time></trkpt><trkpt lat="45.402099941044526" lon="9.209227421189677"><ele>102.16666666666667</ele><time>2026-05-03T15:00:10Z</time></trkpt><trkpt lat="45.40218191421321" lon="9.209213512519062"><ele>102.33333333333334</ele><time>2026-05-03T15:00:12Z</time></trkpt><trkpt lat="45.40226102857471" lon="9.209193112986686"><ele>102.5</ele><time>2026-05-03T15:00:14Z</time></trkpt><trkpt lat="45.402341727470365" lon="9.209178797000439"><ele>102.66666666666667</ele><time>2026-05-03T15:00:16Z</time></trkpt><trkpt lat="45.40242450011653" lon="9.209169255709313"><ele>102.83333333333334</ele><time>2026-05-03T15:00:18Z</time></trkpt><trkpt lat="45.402506310500236" lon="9.20916526692545"><ele>103.0</ele><time>2026-05-03T15:00:20Z</time></trkpt><trkpt lat="45.402588357172604" lon="9.20916419815596"><ele>103.00000000000001</ele><time>2026-05-03T15:00:22Z</time></trkpt><trkpt lat="45.40267112755074" lon="9.209152912077426"><ele>103.0</ele><time>2026-05-03T15:00:24Z</time></trkpt><trkpt lat="45.40275448012252" lon="9.209152856836488"><ele>103.0</ele><time>2026-05-03T15:00:26Z</time></trkpt><trkpt lat="45.402839347117244" lon="9.20915795711148"><ele>103.0</ele><time>2026-05-03T15:00:28Z</time></trkpt><trkpt lat="45.40292000628969" lon="9.209164489619395"><ele>103.00000000000001</ele><time>2026-05-03T15:00:30Z</time></trkpt><trkpt lat="45.40300586312252" lon="9.209162976385002"><ele>103.0</ele><time>2026-05-03T15:00:32Z</time></trkpt><trkpt lat="45.4030894186854" lon="9.209161374153203"><ele>102.83333333333334</ele><time>2026-05-03T15:00:34Z</time></trkpt><trkpt lat="45.403170419406116" lon="9.209161125718095"><ele>102.66666666666667</ele><time>2026-05-03T15:00:36Z</time></trkpt><trkpt lat="45.40325236823512" lon="9.209167676588276"><ele>102.5</ele><time>2026-05-03T15:00:38Z</time></trkpt><trkpt lat="45.40332761022946" lon="9.209217216753125"><ele>102.33333333333334</ele><time>2026-05-03T15:00:40Z</time></trkpt><trkpt lat="45.40340003462385" lon="9.209276416238263"><ele>102.16666666666667</ele><time>2026-05-03T15:00:42Z</time></trkpt><trkpt lat="45.40348577840804" lon="9.209294129432568"><ele>102.0</ele><time>2026-05-03T15:00:44Z</time></trkpt><trkpt lat="45.40356740888016" lon="9.209251009930476"><ele>102.0</ele><time>2026-05-03T15:00:46Z</time></trkpt><trkpt lat="45.40363727987262" lon="9.20918223846183"><ele>102.0</ele><time>2026-05-03T15:00:48Z</time></trkpt><trkpt lat="45.40370922692687" lon="9.209118126049754"><ele>102.0</ele><time>2026-05-03T15:00:50Z</time></trkpt><trkpt lat="45.403792237848165" lon="9.209086819361131"><ele>102.0</ele><time>2026-05-03T15:00:52Z</time></trkpt><trkpt lat="45.403877568442404" lon="9.209063684556526"><ele>102.0</ele><time>2026-05-03T15:00:54Z</time></trkpt><trkpt lat="45.40396435224903" lon="9.209045000623199"><ele>102.0</ele><time>2026-05-03T15:00:56Z</time></trkpt><trkpt lat="45.40405137702183" lon="9.20901972041636"><ele>102.33333333333333</ele><time>2026-05-03T15:00:58Z</time></trkpt><trkpt lat="45.404135919497264" lon="9.209005781057456"><ele>102.66666666666666</ele><time>2026-05-03T15:01:00Z</time></trkpt><trkpt lat="45.40421706272961" lon="9.208997643019751"><ele>103.0</ele><time>2026-05-03T15:01:02Z</time></trkpt><trkpt lat="45.404302392732376" lon="9.209001417190192"><ele>103.33333333333333</ele><time>2026-05-03T15:01:04Z</time></trkpt><trkpt lat="45.40438662128989" lon="9.208988764762756"><ele>103.66666666666666</ele><time>2026-05-03T15:01:06Z</time></trkpt><trkpt lat="45.404467082913925" lon="9.208961474850181"><ele>104.0</ele><time>2026-05-03T15:01:08Z</time></trkpt><trkpt lat="45.40454129359847" lon="9.208923825073803"><ele>103.99999999999999</ele><time>2026-05-03T15:01:10Z</time></trkpt><trkpt lat="45.40461818941286" lon="9.208895138428003"><ele>104.0</ele><time>2026-05-03T15:01:12Z</time></trkpt><trkpt lat="45.40469366945464" lon="9.208865722758041"><ele>104.0</ele><time>2026-05-03T15:01:14Z</time></trkpt><trkpt lat="45.40476905320733" lon="9.208836526917064"><ele>104.0</ele><time>2026-05-03T15:01:16Z</time></trkpt><trkpt lat="45.4048450233659" lon="9.20881965884515"><ele>103.99999999999999</ele><time>2026-05-03T15:01:18Z</time></trkpt><trkpt lat="45.404923633326675" lon="9.2088008172277"><ele>104.0</ele><time>2026-05-03T15:01:20Z</time></trkpt><trkpt lat="45.40500591157499" lon="9.208788451716824"><ele>103.99999999999999</ele><time>2026-05-03T15:01:22Z</time></trkpt><trkpt lat="45.40508850344027" lon="9.208762237275268"><ele>104.0</ele><time>2026-05-03T15:01:24Z</time></trkpt><trkpt lat="45.40516913152725" lon="9.208736622712886"><ele>104.0</ele><time>2026-05-03T15:01:26Z</time></trkpt><trkpt lat="45.405251729409436" lon="9.20871777545117"><ele>104.0</ele><time>2026-05-03T15:01:28Z</time></trkpt><trkpt lat="45.40533557772309" lon="9.208696705827547"><ele>103.99999999999999</ele><time>2026-05-03T15:01:30Z</time></trkpt><trkpt lat="45.40542164529407" lon="9.208678443701974"><ele>104.0</ele><time>2026-05-03T15:01:32Z</time></trkpt><trkpt lat="45.405504010644194" lon="9.208653184976722"><ele>103.83333333333333</ele><time>2026-05-03T15:01:34Z</time></trkpt><trkpt lat="45.405589947452874" lon="9.208638033181366"><ele>103.66666666666666</ele><time>2026-05-03T15:01:36Z</time></trkpt><trkpt lat="45.405674191927844" lon="9.208612574911257"><ele>103.5</ele><time>2026-05-03T15:01:38Z</time></trkpt><trkpt lat="45.40575976681886" lon="9.208580279280113"><ele>103.33333333333334</ele><time>2026-05-03T15:01:40Z</time></trkpt><trkpt lat="45.40584563443485" lon="9.208566137287322"><ele>103.16666666666667</ele><time>2026-05-03T15:01:42Z</time></trkpt><trkpt lat="45.40593002512571" lon="9.208544516143384"><ele>103.0</ele><time>2026-05-03T15:01:44Z</time></trkpt><trkpt lat="45.406015339646714" lon="9.208522659760146"><ele>103.00000000000001</ele><time>2026-05-03T15:01:46Z</time></trkpt><trkpt lat="45.406098638131155" lon="9.20849958830986"><ele>103.0</ele><time>2026-05-03T15:01:48Z</time></trkpt><trkpt lat="45.40618424771619" lon="9.208481212926472"><ele>103.0</ele><time>2026-05-03T15:01:50Z</time></trkpt><trkpt lat="45.40626749218479" lon="9.208458275968162"><ele>103.0</ele><time>2026-05-03T15:01:52Z</time></trkpt><trkpt lat="45.40634969129567" lon="9.208438076207704"><ele>103.00000000000001</ele><time>2026-05-03T15:01:54Z</time></trkpt><trkpt lat="45.406429350040064" lon="9.208417211441233"><ele>103.0</ele><time>2026-05-03T15:01:56Z</time></trkpt><trkpt lat="45.40650594288425" lon="9.208402276209252"><ele>103.14285714285714</ele><time>2026-05-03T15:01:58Z</time></trkpt><trkpt lat="45.4065761768066" lon="9.208380857344865"><ele>103.28571428571428</ele><time>2026-05-03T15:02:00Z</time></trkpt><trkpt lat="45.40663850457255" lon="9.208364157535291"><ele>103.42857142857142</ele><time>2026-05-03T15:02:02Z</time></trkpt><trkpt lat="45.40672454785675" lon="9.208348319372867"><ele>103.57142857142857</ele><time>2026-05-03T15:02:05Z</time></trkpt><trkpt lat="45.406755321711486" lon="9.208260786842734"><ele>103.71428571428572</ele><time>2026-05-03T15:02:27Z</time></trkpt><trkpt lat="45.40674800741149" lon="9.20817157941316"><ele>103.85714285714285</ele><time>2026-05-03T15:02:31Z</time></trkpt><trkpt lat="45.406737486082875" lon="9.208065331839238"><ele>104.0</ele><time>2026-05-03T15:02:36Z</time></trkpt><trkpt lat="45.40672160095147" lon="9.20796493995835"><ele>104.0</ele><time>2026-05-03T15:02:40Z</time></trkpt><trkpt lat="45.406758303255565" lon="9.207891176588596"><ele>104.0</ele><time>2026-05-03T15:02:46Z</time></trkpt><trkpt lat="45.40681294535168" lon="9.207833925137306"><ele>104.0</ele><time>2026-05-03T15:02:49Z</time></trkpt><trkpt lat="45.40687898336646" lon="9.207764020325353"><ele>104.0</ele><time>2026-05-03T15:02:52Z</time></trkpt><trkpt lat="45.40694054551138" lon="9.207718623017707"><ele>104.0</ele><time>2026-05-03T15:02:54Z</time></trkpt><trkpt lat="45.407017941723986" lon="9.207708632074363"><ele>104.0</ele><time>2026-05-03T15:02:56Z</time></trkpt><trkpt lat="45.40709804141727" lon="9.207699451273996"><ele>104.0</ele><time>2026-05-03T15:02:58Z</time></trkpt><trkpt lat="45.40718157530076" lon="9.207684405042931"><ele>104.16666666666666</ele><time>2026-05-03T15:03:00Z</time></trkpt><trkpt lat="45.40726587687666" lon="9.207670749602737"><ele>104.33333333333333</ele><time>2026-05-03T15:03:02Z</time></trkpt><trkpt lat="45.40735124265123" lon="9.207652217304934"><ele>104.5</ele><time>2026-05-03T15:03:04Z</time></trkpt><trkpt lat="45.407438504958925" lon="9.207634704806951"><ele>104.66666666666666</ele><time>2026-05-03T15:03:06Z</time></trkpt><trkpt lat="45.40752875675636" lon="9.207612531896423"><ele>104.83333333333333</ele><time>2026-05-03T15:03:08Z</time></trkpt><trkpt lat="45.4076198481991" lon="9.207589659041318"><ele>105.0</ele><time>2026-05-03T15:03:10Z</time></trkpt><trkpt lat="45.40771249113174" lon="9.20757324054651"><ele>105.0</ele><time>2026-05-03T15:03:12Z</time></trkpt><trkpt lat="45.407804030981815" lon="9.207547928260233"><ele>105.0</ele><time>2026-05-03T15:03:14Z</time></trkpt><trkpt lat="45.40789615076841" lon="9.207523432157934"><ele>105.0</ele><time>2026-05-03T15:03:16Z</time></trkpt><trkpt lat="45.407989019811296" lon="9.20750426105416"><ele>105.0</ele><time>2026-05-03T15:03:18Z</time></trkpt><trkpt lat="45.408081434777166" lon="9.207485647088513"><ele>105.0</ele><time>2026-05-03T15:03:20Z</time></trkpt><trkpt lat="45.408173674589946" lon="9.207463910042357"><ele>105.2</ele><time>2026-05-03T15:03:22Z</time></trkpt><trkpt lat="45.40826473288822" lon="9.207437283504936"><ele>105.4</ele><time>2026-05-03T15:03:24Z</time></trkpt><trkpt lat="45.40835587466629" lon="9.207414783056944"><ele>105.6</ele><time>2026-05-03T15:03:26Z</time></trkpt><trkpt lat="45.40844898083407" lon="9.20739582557065"><ele>105.8</ele><time>2026-05-03T15:03:28Z</time></trkpt><trkpt lat="45.408540296238556" lon="9.207371726249512"><ele>106.0</ele><time>2026-05-03T15:03:30Z</time></trkpt><trkpt lat="45.408629714035364" lon="9.20734116736463"><ele>105.8</ele><time>2026-05-03T15:03:32Z</time></trkpt><trkpt lat="45.408720920183995" lon="9.207319875112628"><ele>105.6</ele><time>2026-05-03T15:03:34Z</time></trkpt><trkpt lat="45.40880838949905" lon="9.207298118064962"><ele>105.4</ele><time>2026-05-03T15:03:36Z</time></trkpt><trkpt lat="45.40889728455744" lon="9.207271788994216"><ele>105.2</ele><time>2026-05-03T15:03:38Z</time></trkpt><trkpt lat="45.4089851869763" lon="9.207242491182699"><ele>105.0</ele><time>2026-05-03T15:03:40Z</time></trkpt><trkpt lat="45.409077488124474" lon="9.207218531790756"><ele>105.0</ele><time>2026-05-03T15:03:42Z</time></trkpt><trkpt lat="45.409168505826614" lon="9.207191588538084"><ele>105.0</ele><time>2026-05-03T15:03:44Z</time></trkpt><trkpt lat="45.40925755604625" lon="9.20716234905066"><ele>105.0</ele><time>2026-05-03T15:03:46Z</time></trkpt><trkpt lat="45.40934865015708" lon="9.20714114866339"><ele>105.0</ele><time>2026-05-03T15:03:48Z</time></trkpt><trkpt lat="45.40944111302941" lon="9.207118554348886"><ele>105.0</ele><time>2026-05-03T15:03:50Z</time></trkpt><trkpt lat="45.409530978294505" lon="9.20709228988628"><ele>105.0</ele><time>2026-05-03T15:03:52Z</time></trkpt><trkpt lat="45.409622252045175" lon="9.207065923676057"><ele>105.0</ele><time>2026-05-03T15:03:54Z</time></trkpt><trkpt lat="45.40971389448937" lon="9.20703888952434"><ele>105.0</ele><time>2026-05-03T15:03:56Z</time></trkpt><trkpt lat="45.409802897589955" lon="9.207012165717739"><ele>105.0</ele><time>2026-05-03T15:03:58Z</time></trkpt><trkpt lat="45.40989501962368" lon="9.206998833714295"><ele>105.0</ele><time>2026-05-03T15:04:00Z</time></trkpt><trkpt lat="45.40998410809598" lon="9.206975420290746"><ele>105.0</ele><time>2026-05-03T15:04:02Z</time></trkpt><trkpt lat="45.410075133305035" lon="9.206950754643183"><ele>105.0</ele><time>2026-05-03T15:04:04Z</time></trkpt><trkpt lat="45.41016579477968" lon="9.206927223555866"><ele>105.0</ele><time>2026-05-03T15:04:06Z</time></trkpt><trkpt lat="45.41025683274992" lon="9.206902217923053"><ele>105.0</ele><time>2026-05-03T15:04:08Z</time></trkpt><trkpt lat="45.41034617596804" lon="9.206869291707285"><ele>105.0</ele><time>2026-05-03T15:04:10Z</time></trkpt><trkpt lat="45.41043415589886" lon="9.2068431764816"><ele>105.0</ele><time>2026-05-03T15:04:12Z</time></trkpt><trkpt lat="45.410519114852455" lon="9.206827419103698"><ele>105.0</ele><time>2026-05-03T15:04:14Z</time></trkpt><trkpt lat="45.410609478543805" lon="9.206806542354588"><ele>105.0</ele><time>2026-05-03T15:04:16Z</time></trkpt><trkpt lat="45.41070126125601" lon="9.206779292419798"><ele>105.0</ele><time>2026-05-03T15:04:18Z</time></trkpt><trkpt lat="45.41079314927941" lon="9.206754688093762"><ele>105.0</ele><time>2026-05-03T15:04:20Z</time></trkpt><trkpt lat="45.41088545190288" lon="9.20674004516885"><ele>105.0</ele><time>2026-05-03T15:04:22Z</time></trkpt><trkpt lat="45.41097823594279" lon="9.206720617884656"><ele>105.0</ele><time>2026-05-03T15:04:24Z</time></trkpt><trkpt lat="45.411071757193525" lon="9.206703154260135"><ele>105.0</ele><time>2026-05-03T15:04:25.999Z</time></trkpt><trkpt lat="45.41116330286515" lon="9.206680436578631"><ele>105.0</ele><time>2026-05-03T15:04:27.999Z</time></trkpt><trkpt lat="45.41125398196746" lon="9.206654021536215"><ele>105.0</ele><time>2026-05-03T15:04:29.999Z</time></trkpt><trkpt lat="45.41134462611484" lon="9.206632492603179"><ele>105.16666666666667</ele><time>2026-05-03T15:04:32Z</time></trkpt><trkpt lat="45.411434684307366" lon="9.206607989642507"><ele>105.33333333333334</ele><time>2026-05-03T15:04:34Z</time></trkpt><trkpt lat="45.41152237634188" lon="9.206579712115117"><ele>105.5</ele><time>2026-05-03T15:04:36Z</time></trkpt><trkpt lat="45.4116070286039" lon="9.206546123726563"><ele>105.66666666666667</ele><time>2026-05-03T15:04:38Z</time></trkpt><trkpt lat="45.41169217613692" lon="9.206521028242014"><ele>105.83333333333334</ele><time>2026-05-03T15:04:40Z</time></trkpt><trkpt lat="45.41178011005463" lon="9.206504620236505"><ele>106.0</ele><time>2026-05-03T15:04:42Z</time></trkpt><trkpt lat="45.41187113034515" lon="9.206485332559048"><ele>106.0</ele><time>2026-05-03T15:04:44Z</time></trkpt><trkpt lat="45.41196432417247" lon="9.206457234069955"><ele>106.0</ele><time>2026-05-03T15:04:46Z</time></trkpt><trkpt lat="45.41205430615595" lon="9.206436235979986"><ele>106.0</ele><time>2026-05-03T15:04:48Z</time></trkpt><trkpt lat="45.41214434697547" lon="9.20641810141908"><ele>106.0</ele><time>2026-05-03T15:04:50Z</time></trkpt><trkpt lat="45.41222966058452" lon="9.20639255255916"><ele>106.0</ele><time>2026-05-03T15:04:52Z</time></trkpt><trkpt lat="45.412320154206355" lon="9.206367878577558"><ele>105.83333333333334</ele><time>2026-05-03T15:04:54Z</time></trkpt><trkpt lat="45.4124085062475" lon="9.206338959141803"><ele>105.66666666666667</ele><time>2026-05-03T15:04:56Z</time></trkpt><trkpt lat="45.41249500640456" lon="9.206321695899852"><ele>105.5</ele><time>2026-05-03T15:04:58Z</time></trkpt><trkpt lat="45.41258231245002" lon="9.206301672922006"><ele>105.33333333333334</ele><time>2026-05-03T15:05:00Z</time></trkpt><trkpt lat="45.41266972970009" lon="9.20627681793953"><ele>105.16666666666667</ele><time>2026-05-03T15:05:02Z</time></trkpt><trkpt lat="45.41275743479273" lon="9.206254808719665"><ele>105.0</ele><time>2026-05-03T15:05:04Z</time></trkpt><trkpt lat="45.41284417756857" lon="9.206234977844035"><ele>105.0</ele><time>2026-05-03T15:05:06Z</time></trkpt><trkpt lat="45.412929541259814" lon="9.206211461186857"><ele>105.0</ele><time>2026-05-03T15:05:08Z</time></trkpt><trkpt lat="45.41300710554906" lon="9.206201962603803"><ele>105.0</ele><time>2026-05-03T15:05:10Z</time></trkpt><trkpt lat="45.41308296406647" lon="9.206228791908751"><ele>105.0</ele><time>2026-05-03T15:05:12Z</time></trkpt><trkpt lat="45.41316084621195" lon="9.20624081820717"><ele>105.0</ele><time>2026-05-03T15:05:14Z</time></trkpt><trkpt lat="45.41323500209621" lon="9.206194409515568"><ele>105.0</ele><time>2026-05-03T15:05:16Z</time></trkpt><trkpt lat="45.41331046792833" lon="9.206141851486546"><ele>105.33333333333333</ele><time>2026-05-03T15:05:18Z</time></trkpt><trkpt lat="45.41339478417037" lon="9.20613292342694"><ele>105.66666666666666</ele><time>2026-05-03T15:05:20Z</time></trkpt><trkpt lat="45.41347689826809" lon="9.206157255621815"><ele>106.0</ele><time>2026-05-03T15:05:22Z</time></trkpt><trkpt lat="45.41355613061681" lon="9.206194952111389"><ele>106.33333333333333</ele><time>2026-05-03T15:05:24Z</time></trkpt><trkpt lat="45.41363916247827" lon="9.206189028270822"><ele>106.66666666666666</ele><time>2026-05-03T15:05:26Z</time></trkpt><trkpt lat="45.41372194465322" lon="9.206162674947292"><ele>107.0</ele><time>2026-05-03T15:05:28Z</time></trkpt><trkpt lat="45.41379554824071" lon="9.206129406641242"><ele>106.85714285714286</ele><time>2026-05-03T15:05:30Z</time></trkpt><trkpt lat="45.413867399733675" lon="9.206114609619046"><ele>106.71428571428572</ele><time>2026-05-03T15:05:32Z</time></trkpt><trkpt lat="45.41393312880939" lon="9.206098231926457"><ele>106.57142857142858</ele><time>2026-05-03T15:05:34Z</time></trkpt><trkpt lat="45.413996568605825" lon="9.206081015051426"><ele>106.42857142857143</ele><time>2026-05-03T15:05:36Z</time></trkpt><trkpt lat="45.41406429412269" lon="9.20605916527484"><ele>106.28571428571428</ele><time>2026-05-03T15:05:38Z</time></trkpt><trkpt lat="45.4141399192593" lon="9.206047791021108"><ele>106.14285714285715</ele><time>2026-05-03T15:05:40Z</time></trkpt><trkpt lat="45.414214761708166" lon="9.20602722489209"><ele>106.0</ele><time>2026-05-03T15:05:42Z</time></trkpt><trkpt lat="45.41428897379849" lon="9.206005658816423"><ele>106.00000000000001</ele><time>2026-05-03T15:05:44Z</time></trkpt><trkpt lat="45.414364594137155" lon="9.205988433549544"><ele>106.0</ele><time>2026-05-03T15:05:46Z</time></trkpt><trkpt lat="45.41444185153285" lon="9.205965891916923"><ele>106.0</ele><time>2026-05-03T15:05:48Z</time></trkpt><trkpt lat="45.414519103649795" lon="9.205947737628499"><ele>106.0</ele><time>2026-05-03T15:05:50Z</time></trkpt><trkpt lat="45.414595995966266" lon="9.205931536112697"><ele>106.00000000000001</ele><time>2026-05-03T15:05:52Z</time></trkpt><trkpt lat="45.41467765452308" lon="9.20590657259237"><ele>106.0</ele><time>2026-05-03T15:05:54Z</time></trkpt><trkpt lat="45.414753380805955" lon="9.205888936895319"><ele>106.00000000000001</ele><time>2026-05-03T15:05:56Z</time></trkpt><trkpt lat="45.4148309541625" lon="9.205868663191495"><ele>106.0</ele><time>2026-05-03T15:05:58Z</time></trkpt><trkpt lat="45.41490612881667" lon="9.205835624957848"><ele>106.0</ele><time>2026-05-03T15:06:00Z</time></trkpt><trkpt lat="45.41497565702039" lon="9.205786144737848"><ele>106.0</ele><time>2026-05-03T15:06:02Z</time></trkpt><trkpt lat="45.415044227008764" lon="9.20573181228423"><ele>106.00000000000001</ele><time>2026-05-03T15:06:04Z</time></trkpt><trkpt lat="45.41511844008889" lon="9.205702399583721"><ele>106.0</ele><time>2026-05-03T15:06:06Z</time></trkpt><trkpt lat="45.41519655307016" lon="9.205688336849008"><ele>106.00000000000001</ele><time>2026-05-03T15:06:08Z</time></trkpt><trkpt lat="45.41527400696648" lon="9.20567107139628"><ele>106.0</ele><time>2026-05-03T15:06:10Z</time></trkpt><trkpt lat="45.4153530891779" lon="9.205649084578692"><ele>106.0</ele><time>2026-05-03T15:06:12Z</time></trkpt><trkpt lat="45.415430652128485" lon="9.205629725521066"><ele>106.0</ele><time>2026-05-03T15:06:14Z</time></trkpt><trkpt lat="45.41550917582411" lon="9.205610001793563"><ele>106.00000000000001</ele><time>2026-05-03T15:06:16Z</time></trkpt><trkpt lat="45.41558933221256" lon="9.205588451342024"><ele>106.0</ele><time>2026-05-03T15:06:18Z</time></trkpt><trkpt lat="45.41566970325117" lon="9.205567902791373"><ele>106.16666666666667</ele><time>2026-05-03T15:06:20Z</time></trkpt><trkpt lat="45.41575080311854" lon="9.205549478484512"><ele>106.33333333333334</ele><time>2026-05-03T15:06:22Z</time></trkpt><trkpt lat="45.41583343375964" lon="9.205531655952381"><ele>106.5</ele><time>2026-05-03T15:06:24Z</time></trkpt><trkpt lat="45.41591420653592" lon="9.205512117953397"><ele>106.66666666666666</ele><time>2026-05-03T15:06:26Z</time></trkpt><trkpt lat="45.415995063242846" lon="9.20548854745276"><ele>106.83333333333333</ele><time>2026-05-03T15:06:28Z</time></trkpt><trkpt lat="45.41607703363919" lon="9.205451878385896"><ele>107.0</ele><time>2026-05-03T15:06:30Z</time></trkpt><trkpt lat="45.41616264573768" lon="9.20546765549006"><ele>106.99999999999999</ele><time>2026-05-03T15:06:32Z</time></trkpt><trkpt lat="45.416238974997306" lon="9.205515016443295"><ele>107.0</ele><time>2026-05-03T15:06:34Z</time></trkpt><trkpt lat="45.41632052693165" lon="9.205524229933129"><ele>107.0</ele><time>2026-05-03T15:06:36Z</time></trkpt><trkpt lat="45.41640497607311" lon="9.205495638656677"><ele>107.0</ele><time>2026-05-03T15:06:38Z</time></trkpt><trkpt lat="45.41648817045531" lon="9.205467695499687"><ele>106.99999999999999</ele><time>2026-05-03T15:06:40Z</time></trkpt><trkpt lat="45.416569719167526" lon="9.205441487932717"><ele>107.0</ele><time>2026-05-03T15:06:42Z</time></trkpt><trkpt lat="45.41665258437074" lon="9.20542230950049"><ele>106.66666666666666</ele><time>2026-05-03T15:06:44Z</time></trkpt><trkpt lat="45.41672893793575" lon="9.20539772990213"><ele>106.33333333333333</ele><time>2026-05-03T15:06:46Z</time></trkpt><trkpt lat="45.41680728133758" lon="9.205379577272758"><ele>106.0</ele><time>2026-05-03T15:06:48Z</time></trkpt><trkpt lat="45.41688565267093" lon="9.205365144945251"><ele>105.66666666666666</ele><time>2026-05-03T15:06:50Z</time></trkpt><trkpt lat="45.41696483344466" lon="9.205349735112339"><ele>105.33333333333333</ele><time>2026-05-03T15:06:52Z</time></trkpt><trkpt lat="45.417044749562436" lon="9.205335923755404"><ele>105.0</ele><time>2026-05-03T15:06:54Z</time></trkpt><trkpt lat="45.41712018781673" lon="9.205312145350533"><ele>105.0</ele><time>2026-05-03T15:06:56Z</time></trkpt><trkpt lat="45.4171498509047" lon="9.205204414415778"><ele>105.0</ele><time>2026-05-03T15:06:58Z</time></trkpt><trkpt lat="45.41720916171501" lon="9.205146170920818"><ele>105.0</ele><time>2026-05-03T15:07:00Z</time></trkpt><trkpt lat="45.417290579554376" lon="9.205141579579736"><ele>105.0</ele><time>2026-05-03T15:07:02Z</time></trkpt><trkpt lat="45.41736635514742" lon="9.205123589949052"><ele>105.0</ele><time>2026-05-03T15:07:04Z</time></trkpt><trkpt lat="45.41744161980215" lon="9.20510570659473"><ele>105.0</ele><time>2026-05-03T15:07:06Z</time></trkpt><trkpt lat="45.417518282946055" lon="9.20509170174376"><ele>105.16666666666667</ele><time>2026-05-03T15:07:08Z</time></trkpt><trkpt lat="45.41759744078981" lon="9.20507172198427"><ele>105.33333333333334</ele><time>2026-05-03T15:07:10Z</time></trkpt><trkpt lat="45.417674075442626" lon="9.205047137434926"><ele>105.5</ele><time>2026-05-03T15:07:12Z</time></trkpt><trkpt lat="45.41773511457231" lon="9.204997225048253"><ele>105.66666666666667</ele><time>2026-05-03T15:07:14Z</time></trkpt><trkpt lat="45.41779789675707" lon="9.204927084914264"><ele>105.83333333333334</ele><time>2026-05-03T15:07:16Z</time></trkpt><trkpt lat="45.417873643249365" lon="9.20491209179714"><ele>106.0</ele><time>2026-05-03T15:07:18Z</time></trkpt><trkpt lat="45.41794338455574" lon="9.20489217027269"><ele>105.85714285714286</ele><time>2026-05-03T15:07:20Z</time></trkpt><trkpt lat="45.41800677023474" lon="9.204862958720973"><ele>105.71428571428571</ele><time>2026-05-03T15:07:22Z</time></trkpt><trkpt lat="45.41807191107447" lon="9.204846875347013"><ele>105.57142857142857</ele><time>2026-05-03T15:07:24Z</time></trkpt><trkpt lat="45.41813690679585" lon="9.20482488859543"><ele>105.42857142857143</ele><time>2026-05-03T15:07:26Z</time></trkpt><trkpt lat="45.41820196750572" lon="9.204814122614964"><ele>105.28571428571428</ele><time>2026-05-03T15:07:28Z</time></trkpt><trkpt lat="45.418286944128006" lon="9.20477888954715"><ele>105.14285714285714</ele><time>2026-05-03T15:07:31Z</time></trkpt><trkpt lat="45.418360766744485" lon="9.20474621205069"><ele>105.0</ele><time>2026-05-03T15:07:35Z</time></trkpt><trkpt lat="45.41843448447617" lon="9.20472459497499"><ele>105.0</ele><time>2026-05-03T15:08:55Z</time></trkpt><trkpt lat="45.41850213165554" lon="9.204695571940057"><ele>105.0</ele><time>2026-05-03T15:08:58Z</time></trkpt><trkpt lat="45.41857099303638" lon="9.204661091146024"><ele>105.0</ele><time>2026-05-03T15:09:01Z</time></trkpt><trkpt lat="45.418645290047316" lon="9.20463222897943"><ele>105.0</ele><time>2026-05-03T15:09:04Z</time></trkpt><trkpt lat="45.41873072704805" lon="9.20458790336491"><ele>105.0</ele><time>2026-05-03T15:09:07Z</time></trkpt><trkpt lat="45.41879346544973" lon="9.204562922694123"><ele>105.0</ele><time>2026-05-03T15:09:09Z</time></trkpt><trkpt lat="45.418857383201775" lon="9.20453418502876"><ele>105.0</ele><time>2026-05-03T15:09:11Z</time></trkpt><trkpt lat="45.41892392482919" lon="9.204502152734351"><ele>105.0</ele><time>2026-05-03T15:09:13Z</time></trkpt><trkpt lat="45.418989402518214" lon="9.204467282043991"><ele>105.0</ele><time>2026-05-03T15:09:15Z</time></trkpt><trkpt lat="45.419053611517555" lon="9.20441973865928"><ele>105.0</ele><time>2026-05-03T15:09:17Z</time></trkpt><trkpt lat="45.41912300889693" lon="9.204383049993865"><ele>105.0</ele><time>2026-05-03T15:09:19Z</time></trkpt><trkpt lat="45.419192394471324" lon="9.204340886254355"><ele>105.0</ele><time>2026-05-03T15:09:21.001Z</time></trkpt><trkpt lat="45.419261832594835" lon="9.204286656066754"><ele>105.0</ele><time>2026-05-03T15:09:23.001Z</time></trkpt><trkpt lat="45.419327731227874" lon="9.204234158272088"><ele>105.0</ele><time>2026-05-03T15:09:25.001Z</time></trkpt><trkpt lat="45.41939835019327" lon="9.204188548059234"><ele>105.0</ele><time>2026-05-03T15:09:27.001Z</time></trkpt><trkpt lat="45.419465778714034" lon="9.204132473883808"><ele>105.0</ele><time>2026-05-03T15:09:29.001Z</time></trkpt><trkpt lat="45.41953048044172" lon="9.204075232511842"><ele>105.0</ele><time>2026-05-03T15:09:31.001Z</time></trkpt><trkpt lat="45.41958712253263" lon="9.204014782340515"><ele>105.0</ele><time>2026-05-03T15:09:33.001Z</time></trkpt><trkpt lat="45.419638961615654" lon="9.203955911206474"><ele>105.0</ele><time>2026-05-03T15:09:35.001Z</time></trkpt><trkpt lat="45.419694171243826" lon="9.203894527155601"><ele>105.0</ele><time>2026-05-03T15:09:37.001Z</time></trkpt><trkpt lat="45.41975638200005" lon="9.203837990184203"><ele>105.0</ele><time>2026-05-03T15:09:39.001Z</time></trkpt><trkpt lat="45.4198139069119" lon="9.20376878969359"><ele>105.14285714285714</ele><time>2026-05-03T15:09:41.001Z</time></trkpt><trkpt lat="45.41986934093078" lon="9.203694037067793"><ele>105.28571428571428</ele><time>2026-05-03T15:09:43.001Z</time></trkpt><trkpt lat="45.41993210180443" lon="9.203624566207738"><ele>105.42857142857143</ele><time>2026-05-03T15:09:45.001Z</time></trkpt><trkpt lat="45.419987258133176" lon="9.203561032558406"><ele>105.57142857142857</ele><time>2026-05-03T15:09:47.001Z</time></trkpt><trkpt lat="45.42003771761899" lon="9.203503487938484"><ele>105.71428571428571</ele><time>2026-05-03T15:09:49.001Z</time></trkpt><trkpt lat="45.420099093757834" lon="9.203433172259256"><ele>105.85714285714286</ele><time>2026-05-03T15:09:52.001Z</time></trkpt><trkpt lat="45.42016402437149" lon="9.203372279226796"><ele>106.0</ele><time>2026-05-03T15:09:55.001Z</time></trkpt><trkpt lat="45.420221632276316" lon="9.20340960649406"><ele>106.00000000000001</ele><time>2026-05-03T15:10:00.001Z</time></trkpt><trkpt lat="45.42028877896095" lon="9.203474283673266"><ele>106.0</ele><time>2026-05-03T15:10:35.001Z</time></trkpt><trkpt lat="45.42035844658842" lon="9.203563079284507"><ele>106.0</ele><time>2026-05-03T15:10:38.001Z</time></trkpt><trkpt lat="45.420429900860455" lon="9.20361599555245"><ele>106.0</ele><time>2026-05-03T15:10:41.001Z</time></trkpt><trkpt lat="45.420404908481764" lon="9.203699491224572"><ele>106.00000000000001</ele><time>2026-05-03T15:10:44.001Z</time></trkpt><trkpt lat="45.420455091469876" lon="9.203619706855203"><ele>106.0</ele><time>2026-05-03T15:10:50.001Z</time></trkpt><trkpt lat="45.42042508619903" lon="9.203699421939927"><ele>106.0</ele><time>2026-05-03T15:14:18.001Z</time></trkpt><trkpt lat="45.42039404316073" lon="9.203795393765128"><ele>106.0</ele><time>2026-05-03T15:16:51.001Z</time></trkpt><trkpt lat="45.420357504242126" lon="9.203883975575616"><ele>106.0</ele><time>2026-05-03T15:16:57.001Z</time></trkpt><trkpt lat="45.42032146659535" lon="9.203980990365055"><ele>106.0</ele><time>2026-05-03T15:17:35.001Z</time></trkpt><trkpt lat="45.42027732816482" lon="9.204057239653745"><ele>106.0</ele><time>2026-05-03T15:17:39.001Z</time></trkpt><trkpt lat="45.42022267342586" lon="9.20413120320021"><ele>106.0</ele><time>2026-05-03T15:17:42.001Z</time></trkpt><trkpt lat="45.42016167356367" lon="9.204194079284417"><ele>106.0</ele><time>2026-05-03T15:17:45.001Z</time></trkpt><trkpt lat="45.420106500000614" lon="9.204258979447578"><ele>106.00000000000001</ele><time>2026-05-03T15:17:48.001Z</time></trkpt><trkpt lat="45.420046835623666" lon="9.204314423588707"><ele>106.0</ele><time>2026-05-03T15:17:51.001Z</time></trkpt><trkpt lat="45.419998348274305" lon="9.204379274432538"><ele>106.0</ele><time>2026-05-03T15:17:54.001Z</time></trkpt><trkpt lat="45.41994288918909" lon="9.20444749776565"><ele>106.0</ele><time>2026-05-03T15:17:57.001Z</time></trkpt><trkpt lat="45.419865146587554" lon="9.204517822713749"><ele>106.00000000000001</ele><time>2026-05-03T15:18:00.001Z</time></trkpt><trkpt lat="45.41980509659601" lon="9.204581982838318"><ele>106.0</ele><time>2026-05-03T15:18:02.001Z</time></trkpt><trkpt lat="45.419729802347725" lon="9.204607408958383"><ele>106.0</ele><time>2026-05-03T15:18:04.001Z</time></trkpt><trkpt lat="45.41965583501755" lon="9.204622038175675"><ele>106.0</ele><time>2026-05-03T15:18:06.001Z</time></trkpt><trkpt lat="45.41958436780513" lon="9.204639306594869"><ele>106.0</ele><time>2026-05-03T15:18:08.001Z</time></trkpt><trkpt lat="45.41951435440778" lon="9.204681034534905"><ele>106.0</ele><time>2026-05-03T15:18:10.001Z</time></trkpt><trkpt lat="45.41945104808152" lon="9.204738327262804"><ele>106.0</ele><time>2026-05-03T15:18:12.001Z</time></trkpt><trkpt lat="45.41938683242138" lon="9.204784646302874"><ele>106.0</ele><time>2026-05-03T15:18:14.001Z</time></trkpt><trkpt lat="45.419328737704916" lon="9.204840036609424"><ele>106.0</ele><time>2026-05-03T15:18:16.001Z</time></trkpt><trkpt lat="45.41930712927086" lon="9.20492849447549"><ele>106.16666666666667</ele><time>2026-05-03T15:18:18.001Z</time></trkpt><trkpt lat="45.419331258266816" lon="9.205014571304496"><ele>106.33333333333334</ele><time>2026-05-03T15:18:20.001Z</time></trkpt><trkpt lat="45.41936340727358" lon="9.205120706074451"><ele>106.5</ele><time>2026-05-03T15:18:23.001Z</time></trkpt><trkpt lat="45.41937980553805" lon="9.2052230481023"><ele>106.66666666666666</ele><time>2026-05-03T15:18:26.001Z</time></trkpt><trkpt lat="45.4193024264972" lon="9.205262392630496"><ele>106.83333333333333</ele><time>2026-05-03T15:18:29.001Z</time></trkpt><trkpt lat="45.4192261719762" lon="9.205277144423837"><ele>107.0</ele><time>2026-05-03T15:18:32.001Z</time></trkpt><trkpt lat="45.41913758257041" lon="9.205302471410617"><ele>106.99999999999999</ele><time>2026-05-03T15:18:35.001Z</time></trkpt><trkpt lat="45.41904426538588" lon="9.205326772925737"><ele>107.0</ele><time>2026-05-03T15:18:38.001Z</time></trkpt><trkpt lat="45.41898101303114" lon="9.205342868739542"><ele>107.0</ele><time>2026-05-03T15:18:40.001Z</time></trkpt><trkpt lat="45.41891759832629" lon="9.205356995539589"><ele>107.0</ele><time>2026-05-03T15:18:42.001Z</time></trkpt><trkpt lat="45.41882561475583" lon="9.205382327460372"><ele>106.99999999999999</ele><time>2026-05-03T15:18:45.001Z</time></trkpt><trkpt lat="45.41873455259481" lon="9.205402174526805"><ele>107.0</ele><time>2026-05-03T15:18:48.001Z</time></trkpt><trkpt lat="45.41867330834956" lon="9.205427834718957"><ele>106.66666666666666</ele><time>2026-05-03T15:18:52.001Z</time></trkpt><trkpt lat="45.41860787306779" lon="9.20547409177512"><ele>106.33333333333333</ele><time>2026-05-03T15:19:25.001Z</time></trkpt><trkpt lat="45.418513776539065" lon="9.205488021932926"><ele>106.0</ele><time>2026-05-03T15:19:28.001Z</time></trkpt><trkpt lat="45.418430411524454" lon="9.205486053248789"><ele>105.66666666666666</ele><time>2026-05-03T15:19:31.001Z</time></trkpt><trkpt lat="45.418363978493254" lon="9.205500065615224"><ele>105.33333333333333</ele><time>2026-05-03T15:19:33.001Z</time></trkpt><trkpt lat="45.41827184950041" lon="9.205516505260759"><ele>105.0</ele><time>2026-05-03T15:19:36.001Z</time></trkpt><trkpt lat="45.418156221583075" lon="9.20554731809175"><ele>105.0</ele><time>2026-05-03T15:19:40.001Z</time></trkpt><trkpt lat="45.418089073598466" lon="9.20556092013838"><ele>105.0</ele><time>2026-05-03T15:19:42.001Z</time></trkpt><trkpt lat="45.418002298059136" lon="9.205573755117156"><ele>105.0</ele><time>2026-05-03T15:19:44.001Z</time></trkpt><trkpt lat="45.41793910568509" lon="9.205593566966776"><ele>105.0</ele><time>2026-05-03T15:19:46.001Z</time></trkpt><trkpt lat="45.41787344056803" lon="9.20560838100186"><ele>105.0</ele><time>2026-05-03T15:19:48.001Z</time></trkpt><trkpt lat="45.417804906384376" lon="9.205624464308203"><ele>105.0</ele><time>2026-05-03T15:19:50.001Z</time></trkpt><trkpt lat="45.41773615960372" lon="9.205636700669606"><ele>105.0</ele><time>2026-05-03T15:19:52.001Z</time></trkpt><trkpt lat="45.41767039603279" lon="9.205654540923852"><ele>104.71428571428571</ele><time>2026-05-03T15:19:54.001Z</time></trkpt><trkpt lat="45.41760486409995" lon="9.205674416590165"><ele>104.42857142857143</ele><time>2026-05-03T15:19:56.001Z</time></trkpt><trkpt lat="45.41753144072991" lon="9.20569183297497"><ele>104.14285714285714</ele><time>2026-05-03T15:19:58.001Z</time></trkpt><trkpt lat="45.41746293897255" lon="9.205712225440237"><ele>103.85714285714286</ele><time>2026-05-03T15:20:00.001Z</time></trkpt><trkpt lat="45.417397869640546" lon="9.205727888144985"><ele>103.57142857142857</ele><time>2026-05-03T15:20:02.001Z</time></trkpt><trkpt lat="45.41732799438754" lon="9.205741171903615"><ele>103.28571428571428</ele><time>2026-05-03T15:20:04.001Z</time></trkpt><trkpt lat="45.41725844635158" lon="9.20575484830798"><ele>103.0</ele><time>2026-05-03T15:20:06.001Z</time></trkpt><trkpt lat="45.417192457093705" lon="9.2057753723928"><ele>103.14285714285714</ele><time>2026-05-03T15:20:08.001Z</time></trkpt><trkpt lat="45.41712260878859" lon="9.205791176851838"><ele>103.28571428571428</ele><time>2026-05-03T15:20:10.001Z</time></trkpt><trkpt lat="45.417048304274005" lon="9.20580913780612"><ele>103.42857142857142</ele><time>2026-05-03T15:20:12.001Z</time></trkpt><trkpt lat="45.41697064778778" lon="9.205827275488303"><ele>103.57142857142857</ele><time>2026-05-03T15:20:14.001Z</time></trkpt><trkpt lat="45.416896112443446" lon="9.205851123882196"><ele>103.71428571428572</ele><time>2026-05-03T15:20:16.001Z</time></trkpt><trkpt lat="45.41682239038335" lon="9.205870900095414"><ele>103.85714285714285</ele><time>2026-05-03T15:20:18.001Z</time></trkpt><trkpt lat="45.41675230335987" lon="9.205884408112194"><ele>104.0</ele><time>2026-05-03T15:20:20.001Z</time></trkpt><trkpt lat="45.41668010335074" lon="9.205904131500247"><ele>104.0</ele><time>2026-05-03T15:20:22.001Z</time></trkpt><trkpt lat="45.416609526264" lon="9.205919208701262"><ele>104.0</ele><time>2026-05-03T15:20:24.001Z</time></trkpt><trkpt lat="45.416539685705736" lon="9.20593977640569"><ele>104.0</ele><time>2026-05-03T15:20:26.001Z</time></trkpt><trkpt lat="45.41647344891635" lon="9.205959760852526"><ele>104.0</ele><time>2026-05-03T15:20:28.001Z</time></trkpt><trkpt lat="45.41641015276539" lon="9.205976901102115"><ele>104.0</ele><time>2026-05-03T15:20:30.001Z</time></trkpt><trkpt lat="45.41634370393216" lon="9.205990546229762"><ele>104.0</ele><time>2026-05-03T15:20:32.001Z</time></trkpt><trkpt lat="45.41627415845726" lon="9.206009604735716"><ele>104.0</ele><time>2026-05-03T15:20:34.001Z</time></trkpt><trkpt lat="45.416209204417946" lon="9.206048444647532"><ele>104.28571428571428</ele><time>2026-05-03T15:20:36.001Z</time></trkpt><trkpt lat="45.416145624118535" lon="9.206094079818548"><ele>104.57142857142858</ele><time>2026-05-03T15:20:38.001Z</time></trkpt><trkpt lat="45.416076507189466" lon="9.20609774680411"><ele>104.85714285714286</ele><time>2026-05-03T15:20:40.001Z</time></trkpt><trkpt lat="45.41600729250434" lon="9.206086967009632"><ele>105.14285714285714</ele><time>2026-05-03T15:20:42.001Z</time></trkpt><trkpt lat="45.415941179820834" lon="9.206068621818515"><ele>105.42857142857142</ele><time>2026-05-03T15:20:44.001Z</time></trkpt><trkpt lat="45.4158756707676" lon="9.206072460954354"><ele>105.71428571428572</ele><time>2026-05-03T15:20:46.001Z</time></trkpt><trkpt lat="45.41580976937409" lon="9.206090003696836"><ele>106.0</ele><time>2026-05-03T15:20:48.001Z</time></trkpt><trkpt lat="45.415741704748584" lon="9.206109436036458"><ele>106.0</ele><time>2026-05-03T15:20:50.001Z</time></trkpt><trkpt lat="45.41567158978319" lon="9.206126981978489"><ele>106.0</ele><time>2026-05-03T15:20:52.001Z</time></trkpt><trkpt lat="45.41559981340329" lon="9.206140020161882"><ele>106.0</ele><time>2026-05-03T15:20:54.001Z</time></trkpt><trkpt lat="45.41553109091251" lon="9.206159542176934"><ele>106.0</ele><time>2026-05-03T15:20:56.001Z</time></trkpt><trkpt lat="45.41546237371191" lon="9.206184754773842"><ele>106.0</ele><time>2026-05-03T15:20:58.001Z</time></trkpt><trkpt lat="45.41539005300288" lon="9.206197699952508"><ele>106.0</ele><time>2026-05-03T15:21:00.001Z</time></trkpt><trkpt lat="45.41532123887656" lon="9.206213016241694"><ele>106.0</ele><time>2026-05-03T15:21:02.001Z</time></trkpt><trkpt lat="45.41525153992376" lon="9.20622964050653"><ele>106.0</ele><time>2026-05-03T15:21:04.001Z</time></trkpt><trkpt lat="45.41517931135522" lon="9.206250506065365"><ele>106.0</ele><time>2026-05-03T15:21:06.001Z</time></trkpt><trkpt lat="45.41511024302719" lon="9.206271628990107"><ele>106.0</ele><time>2026-05-03T15:21:08.001Z</time></trkpt><trkpt lat="45.415042668956644" lon="9.20629044641268"><ele>106.0</ele><time>2026-05-03T15:21:10.001Z</time></trkpt><trkpt lat="45.414969724641416" lon="9.206311093554087"><ele>106.0</ele><time>2026-05-03T15:21:12.001Z</time></trkpt><trkpt lat="45.414901693322854" lon="9.206330287702237"><ele>106.0</ele><time>2026-05-03T15:21:14Z</time></trkpt><trkpt lat="45.41483417467839" lon="9.20635036756088"><ele>106.0</ele><time>2026-05-03T15:21:16Z</time></trkpt><trkpt lat="45.414763066984875" lon="9.206362289168423"><ele>106.0</ele><time>2026-05-03T15:21:18Z</time></trkpt><trkpt lat="45.4146914959133" lon="9.206383183248755"><ele>106.0</ele><time>2026-05-03T15:21:20Z</time></trkpt><trkpt lat="45.414624246855304" lon="9.20640284046103"><ele>106.0</ele><time>2026-05-03T15:21:22Z</time></trkpt><trkpt lat="45.41455353639299" lon="9.20642178826392"><ele>106.0</ele><time>2026-05-03T15:21:24Z</time></trkpt><trkpt lat="45.4144795186547" lon="9.206439002659483"><ele>106.0</ele><time>2026-05-03T15:21:26Z</time></trkpt><trkpt lat="45.4144054649291" lon="9.20646246619791"><ele>106.0</ele><time>2026-05-03T15:21:28Z</time></trkpt><trkpt lat="45.41433126439743" lon="9.206475447350357"><ele>106.0</ele><time>2026-05-03T15:21:30Z</time></trkpt><trkpt lat="45.414254548104125" lon="9.20648713364102"><ele>105.85714285714286</ele><time>2026-05-03T15:21:32Z</time></trkpt><trkpt lat="45.41417929413674" lon="9.206510413698204"><ele>105.71428571428571</ele><time>2026-05-03T15:21:34Z</time></trkpt><trkpt lat="45.41410652320329" lon="9.206525264498186"><ele>105.57142857142857</ele><time>2026-05-03T15:21:36Z</time></trkpt><trkpt lat="45.41403718190982" lon="9.206542529345649"><ele>105.42857142857143</ele><time>2026-05-03T15:21:38Z</time></trkpt><trkpt lat="45.4139695392798" lon="9.2065599676856"><ele>105.28571428571428</ele><time>2026-05-03T15:21:40Z</time></trkpt><trkpt lat="45.413904279004214" lon="9.206576855227102"><ele>105.14285714285714</ele><time>2026-05-03T15:21:42Z</time></trkpt><trkpt lat="45.41383697494274" lon="9.206589011604006"><ele>105.0</ele><time>2026-05-03T15:21:44Z</time></trkpt><trkpt lat="45.413764891257756" lon="9.206597494095606"><ele>105.0</ele><time>2026-05-03T15:21:46Z</time></trkpt><trkpt lat="45.41367975940407" lon="9.206622023217093"><ele>105.0</ele><time>2026-05-03T15:21:49Z</time></trkpt><trkpt lat="45.41362001138657" lon="9.20657811911995"><ele>105.0</ele><time>2026-05-03T15:21:58.001Z</time></trkpt><trkpt lat="45.413609915262406" lon="9.20648798813136"><ele>105.0</ele><time>2026-05-03T15:22:02.001Z</time></trkpt><trkpt lat="45.413602163052104" lon="9.206369366250481"><ele>105.0</ele><time>2026-05-03T15:22:07.001Z</time></trkpt><trkpt lat="45.41359012069136" lon="9.206270915282508"><ele>105.0</ele><time>2026-05-03T15:22:12.001Z</time></trkpt><trkpt lat="45.413548807313816" lon="9.206193274425715"><ele>105.0</ele><time>2026-05-03T15:22:17.001Z</time></trkpt><trkpt lat="45.413478324436866" lon="9.20617385159617"><ele>105.33333333333333</ele><time>2026-05-03T15:22:21.001Z</time></trkpt><trkpt lat="45.41340451530548" lon="9.206142663402598"><ele>105.66666666666666</ele><time>2026-05-03T15:22:24.001Z</time></trkpt><trkpt lat="45.413319782588786" lon="9.206170155603608"><ele>106.0</ele><time>2026-05-03T15:22:27.001Z</time></trkpt><trkpt lat="45.41323593560359" lon="9.206210704203063"><ele>106.33333333333333</ele><time>2026-05-03T15:22:30.001Z</time></trkpt><trkpt lat="45.41317687239158" lon="9.206246246124339"><ele>106.66666666666666</ele><time>2026-05-03T15:22:32.001Z</time></trkpt><trkpt lat="45.41308473615092" lon="9.206245712503431"><ele>107.0</ele><time>2026-05-03T15:22:35.001Z</time></trkpt><trkpt lat="45.41301823617024" lon="9.206225775164935"><ele>106.71428571428572</ele><time>2026-05-03T15:22:37.001Z</time></trkpt><trkpt lat="45.412949241665316" lon="9.206223196563961"><ele>106.42857142857143</ele><time>2026-05-03T15:22:39.001Z</time></trkpt><trkpt lat="45.41288424745762" lon="9.206242631908117"><ele>106.14285714285714</ele><time>2026-05-03T15:22:41.001Z</time></trkpt><trkpt lat="45.4128107421911" lon="9.206262720362691"><ele>105.85714285714286</ele><time>2026-05-03T15:22:43.001Z</time></trkpt><trkpt lat="45.41273305714271" lon="9.206274181590253"><ele>105.57142857142857</ele><time>2026-05-03T15:22:45.001Z</time></trkpt><trkpt lat="45.412656836506606" lon="9.206296317441325"><ele>105.28571428571429</ele><time>2026-05-03T15:22:47.001Z</time></trkpt><trkpt lat="45.4125791693273" lon="9.206318850322807"><ele>105.0</ele><time>2026-05-03T15:22:49.001Z</time></trkpt><trkpt lat="45.41250096248215" lon="9.206335379077576"><ele>105.0</ele><time>2026-05-03T15:22:51.001Z</time></trkpt><trkpt lat="45.41242251555672" lon="9.206353046803088"><ele>105.0</ele><time>2026-05-03T15:22:53.001Z</time></trkpt><trkpt lat="45.41234564483264" lon="9.206375940151084"><ele>105.0</ele><time>2026-05-03T15:22:55.001Z</time></trkpt><trkpt lat="45.41226903014389" lon="9.206396055991746"><ele>105.0</ele><time>2026-05-03T15:22:57.001Z</time></trkpt><trkpt lat="45.41218916629319" lon="9.206416985964507"><ele>105.0</ele><time>2026-05-03T15:22:59.001Z</time></trkpt><trkpt lat="45.41210876879468" lon="9.20643437511815"><ele>105.0</ele><time>2026-05-03T15:23:01.001Z</time></trkpt><trkpt lat="45.41202785946087" lon="9.206456585958367"><ele>105.16666666666667</ele><time>2026-05-03T15:23:03.001Z</time></trkpt><trkpt lat="45.411942721405154" lon="9.20647882771479"><ele>105.33333333333334</ele><time>2026-05-03T15:23:05.001Z</time></trkpt><trkpt lat="45.41185446944589" lon="9.206497828075419"><ele>105.5</ele><time>2026-05-03T15:23:07.001Z</time></trkpt><trkpt lat="45.41176622724391" lon="9.20652255599544"><ele>105.66666666666667</ele><time>2026-05-03T15:23:09.001Z</time></trkpt><trkpt lat="45.411684768187676" lon="9.20653994691911"><ele>105.83333333333334</ele><time>2026-05-03T15:23:11.001Z</time></trkpt><trkpt lat="45.411597677101035" lon="9.206560987894294"><ele>106.0</ele><time>2026-05-03T15:23:13.001Z</time></trkpt><trkpt lat="45.41150852674296" lon="9.20658431061055"><ele>106.16666666666667</ele><time>2026-05-03T15:23:15.001Z</time></trkpt><trkpt lat="45.411422079309894" lon="9.206607386263295"><ele>106.33333333333334</ele><time>2026-05-03T15:23:17.001Z</time></trkpt><trkpt lat="45.411333637418" lon="9.20662641083263"><ele>106.5</ele><time>2026-05-03T15:23:19Z</time></trkpt><trkpt lat="45.411247905517136" lon="9.206651781910649"><ele>106.66666666666666</ele><time>2026-05-03T15:23:21Z</time></trkpt><trkpt lat="45.41116179467825" lon="9.206670935247969"><ele>106.83333333333333</ele><time>2026-05-03T15:23:23Z</time></trkpt><trkpt lat="45.41107619205653" lon="9.206689569344062"><ele>107.0</ele><time>2026-05-03T15:23:25Z</time></trkpt><trkpt lat="45.410986161269435" lon="9.206709929032874"><ele>106.6</ele><time>2026-05-03T15:23:27Z</time></trkpt><trkpt lat="45.41089747919192" lon="9.206727080760983"><ele>106.19999999999999</ele><time>2026-05-03T15:23:29Z</time></trkpt><trkpt lat="45.410805619999536" lon="9.206752296541383"><ele>105.8</ele><time>2026-05-03T15:23:31Z</time></trkpt><trkpt lat="45.41070647724939" lon="9.206773667048372"><ele>105.4</ele><time>2026-05-03T15:23:33Z</time></trkpt><trkpt lat="45.41060606805267" lon="9.206805202500162"><ele>105.0</ele><time>2026-05-03T15:23:35Z</time></trkpt><trkpt lat="45.410510184008594" lon="9.206831462149065"><ele>105.0</ele><time>2026-05-03T15:23:37Z</time></trkpt><trkpt lat="45.41041397136206" lon="9.206854788655265"><ele>105.0</ele><time>2026-05-03T15:23:39Z</time></trkpt><trkpt lat="45.410319964519964" lon="9.206879671951139"><ele>105.0</ele><time>2026-05-03T15:23:41Z</time></trkpt><trkpt lat="45.410227393971425" lon="9.206904944995792"><ele>105.0</ele><time>2026-05-03T15:23:43Z</time></trkpt><trkpt lat="45.410134978716684" lon="9.206931808748946"><ele>105.0</ele><time>2026-05-03T15:23:45Z</time></trkpt><trkpt lat="45.41004404113131" lon="9.20695573286257"><ele>105.0</ele><time>2026-05-03T15:23:47Z</time></trkpt><trkpt lat="45.40995730823822" lon="9.206977422398584"><ele>105.0</ele><time>2026-05-03T15:23:49Z</time></trkpt><trkpt lat="45.4098776166461" lon="9.206996338806881"><ele>105.0</ele><time>2026-05-03T15:23:51Z</time></trkpt><trkpt lat="45.409799168365865" lon="9.207011271957859"><ele>105.0</ele><time>2026-05-03T15:23:53Z</time></trkpt><trkpt lat="45.40972823208287" lon="9.207030360144024"><ele>105.0</ele><time>2026-05-03T15:23:55.001Z</time></trkpt><trkpt lat="45.40965532173469" lon="9.207049561203767"><ele>105.0</ele><time>2026-05-03T15:23:57.001Z</time></trkpt><trkpt lat="45.40957497810997" lon="9.207063350548312"><ele>105.0</ele><time>2026-05-03T15:23:59.001Z</time></trkpt><trkpt lat="45.40949226639026" lon="9.207094534201739"><ele>105.0</ele><time>2026-05-03T15:24:01.001Z</time></trkpt><trkpt lat="45.40940277768389" lon="9.207118222961956"><ele>105.0</ele><time>2026-05-03T15:24:03.001Z</time></trkpt><trkpt lat="45.409309482572375" lon="9.207148750260338"><ele>105.0</ele><time>2026-05-03T15:24:05.001Z</time></trkpt><trkpt lat="45.40921961217103" lon="9.207173182853019"><ele>105.0</ele><time>2026-05-03T15:24:07.001Z</time></trkpt><trkpt lat="45.40912862445039" lon="9.207195423988479"><ele>105.0</ele><time>2026-05-03T15:24:09.001Z</time></trkpt><trkpt lat="45.409042135801535" lon="9.207215254484069"><ele>105.0</ele><time>2026-05-03T15:24:11.001Z</time></trkpt><trkpt lat="45.40895637478989" lon="9.207241540950553"><ele>105.0</ele><time>2026-05-03T15:24:13.001Z</time></trkpt><trkpt lat="45.40887144837526" lon="9.207270629821576"><ele>105.0</ele><time>2026-05-03T15:24:15.001Z</time></trkpt><trkpt lat="45.408786438954664" lon="9.20729412107255"><ele>105.0</ele><time>2026-05-03T15:24:17.001Z</time></trkpt><trkpt lat="45.408706650086486" lon="9.207321502307893"><ele>105.0</ele><time>2026-05-03T15:24:19.001Z</time></trkpt><trkpt lat="45.408630562417194" lon="9.207344647876514"><ele>105.16666666666667</ele><time>2026-05-03T15:24:21.001Z</time></trkpt><trkpt lat="45.408549124464784" lon="9.207361869631626"><ele>105.33333333333334</ele><time>2026-05-03T15:24:23.001Z</time></trkpt><trkpt lat="45.408470122001034" lon="9.207381691392346"><ele>105.5</ele><time>2026-05-03T15:24:25.001Z</time></trkpt><trkpt lat="45.40838991586075" lon="9.207406069562508"><ele>105.66666666666667</ele><time>2026-05-03T15:24:27.001Z</time></trkpt><trkpt lat="45.4083085194605" lon="9.20741835872436"><ele>105.83333333333334</ele><time>2026-05-03T15:24:29.001Z</time></trkpt><trkpt lat="45.40822960468193" lon="9.207439559265506"><ele>106.0</ele><time>2026-05-03T15:24:31.001Z</time></trkpt><trkpt lat="45.40815167176685" lon="9.207464099500433"><ele>106.00000000000001</ele><time>2026-05-03T15:24:33.001Z</time></trkpt><trkpt lat="45.408076316703976" lon="9.207478351246206"><ele>106.0</ele><time>2026-05-03T15:24:35.001Z</time></trkpt><trkpt lat="45.40800108735505" lon="9.207500435494898"><ele>106.0</ele><time>2026-05-03T15:24:37.001Z</time></trkpt><trkpt lat="45.407923052685064" lon="9.207516616449366"><ele>106.0</ele><time>2026-05-03T15:24:39.001Z</time></trkpt><trkpt lat="45.40784251968209" lon="9.207531002441693"><ele>106.00000000000001</ele><time>2026-05-03T15:24:41.001Z</time></trkpt><trkpt lat="45.4077643885025" lon="9.207555811991734"><ele>106.0</ele><time>2026-05-03T15:24:43.001Z</time></trkpt><trkpt lat="45.40768336404878" lon="9.207572190767857"><ele>105.83333333333334</ele><time>2026-05-03T15:24:45.001Z</time></trkpt><trkpt lat="45.4076008477703" lon="9.207591077422464"><ele>105.66666666666667</ele><time>2026-05-03T15:24:47.001Z</time></trkpt><trkpt lat="45.40751939914935" lon="9.20761261909226"><ele>105.5</ele><time>2026-05-03T15:24:49.001Z</time></trkpt><trkpt lat="45.407441792999094" lon="9.207626330373424"><ele>105.33333333333334</ele><time>2026-05-03T15:24:51.001Z</time></trkpt><trkpt lat="45.40736634991338" lon="9.2076413313302"><ele>105.16666666666667</ele><time>2026-05-03T15:24:53.001Z</time></trkpt><trkpt lat="45.40729604783285" lon="9.207657252916796"><ele>105.0</ele><time>2026-05-03T15:24:55.001Z</time></trkpt><trkpt lat="45.407227371699854" lon="9.207674378307797"><ele>104.85714285714286</ele><time>2026-05-03T15:24:57.001Z</time></trkpt><trkpt lat="45.40715895355912" lon="9.207689333840714"><ele>104.71428571428572</ele><time>2026-05-03T15:24:59.001Z</time></trkpt><trkpt lat="45.40708895844888" lon="9.20770078898852"><ele>104.57142857142857</ele><time>2026-05-03T15:25:01.001Z</time></trkpt><trkpt lat="45.40701919441791" lon="9.207712235529135"><ele>104.42857142857143</ele><time>2026-05-03T15:25:03.001Z</time></trkpt><trkpt lat="45.406955646182375" lon="9.207713591696153"><ele>104.28571428571429</ele><time>2026-05-03T15:25:05.001Z</time></trkpt><trkpt lat="45.40688281900746" lon="9.207762913577952"><ele>104.14285714285714</ele><time>2026-05-03T15:25:09.001Z</time></trkpt><trkpt lat="45.40681578169497" lon="9.207822892422831"><ele>104.0</ele><time>2026-05-03T15:25:12.001Z</time></trkpt><trkpt lat="45.406742850621654" lon="9.207902221286718"><ele>103.99999999999999</ele><time>2026-05-03T15:25:15.001Z</time></trkpt><trkpt lat="45.406658804064975" lon="9.207947164728772"><ele>104.0</ele><time>2026-05-03T15:25:18.001Z</time></trkpt><trkpt lat="45.40658951839696" lon="9.20795710745082"><ele>104.0</ele><time>2026-05-03T15:25:20.001Z</time></trkpt><trkpt lat="45.40651757473741" lon="9.207966214180884"><ele>104.0</ele><time>2026-05-03T15:25:22.001Z</time></trkpt><trkpt lat="45.40644343395065" lon="9.20795274313294"><ele>103.99999999999999</ele><time>2026-05-03T15:25:24.001Z</time></trkpt><trkpt lat="45.40636954296096" lon="9.20793199755742"><ele>104.0</ele><time>2026-05-03T15:25:26Z</time></trkpt><trkpt lat="45.40629596658913" lon="9.207929791423844"><ele>104.16666666666666</ele><time>2026-05-03T15:25:28Z</time></trkpt><trkpt lat="45.40621709046999" lon="9.207954988379742"><ele>104.33333333333333</ele><time>2026-05-03T15:25:30Z</time></trkpt><trkpt lat="45.40613939762945" lon="9.207974326748602"><ele>104.5</ele><time>2026-05-03T15:25:32Z</time></trkpt><trkpt lat="45.40606191999079" lon="9.207994042584092"><ele>104.66666666666666</ele><time>2026-05-03T15:25:34Z</time></trkpt><trkpt lat="45.4059831732324" lon="9.208015227338619"><ele>104.83333333333333</ele><time>2026-05-03T15:25:36Z</time></trkpt><trkpt lat="45.40590636788213" lon="9.20802836584742"><ele>105.0</ele><time>2026-05-03T15:25:38Z</time></trkpt><trkpt lat="45.40582965152964" lon="9.208045970781518"><ele>105.0</ele><time>2026-05-03T15:25:40Z</time></trkpt><trkpt lat="45.405754787378434" lon="9.20807326590182"><ele>105.0</ele><time>2026-05-03T15:25:42Z</time></trkpt><trkpt lat="45.40568317858051" lon="9.20809515415013"><ele>105.0</ele><time>2026-05-03T15:25:44Z</time></trkpt><trkpt lat="45.405587646596445" lon="9.208119018392534"><ele>105.0</ele><time>2026-05-03T15:25:47Z</time></trkpt><trkpt lat="45.40552485693218" lon="9.208134023970164"><ele>105.0</ele><time>2026-05-03T15:25:49Z</time></trkpt><trkpt lat="45.40545259992919" lon="9.20814401520581"><ele>105.0</ele><time>2026-05-03T15:25:51Z</time></trkpt><trkpt lat="45.40538151491954" lon="9.20816481885598"><ele>104.85714285714286</ele><time>2026-05-03T15:25:53Z</time></trkpt><trkpt lat="45.405309381261674" lon="9.208182484854243"><ele>104.71428571428572</ele><time>2026-05-03T15:25:55Z</time></trkpt><trkpt lat="45.40523624669202" lon="9.208202976640713"><ele>104.57142857142857</ele><time>2026-05-03T15:25:57Z</time></trkpt><trkpt lat="45.40516297310217" lon="9.208224706754498"><ele>104.42857142857143</ele><time>2026-05-03T15:25:59Z</time></trkpt><trkpt lat="45.40508753360396" lon="9.20824453896823"><ele>104.28571428571429</ele><time>2026-05-03T15:26:01Z</time></trkpt><trkpt lat="45.40501893507748" lon="9.208264251469338"><ele>104.14285714285714</ele><time>2026-05-03T15:26:03Z</time></trkpt><trkpt lat="45.4049557744769" lon="9.208279760342474"><ele>104.0</ele><time>2026-05-03T15:26:05Z</time></trkpt><trkpt lat="45.40488756071234" lon="9.208319779426027"><ele>103.99999999999999</ele><time>2026-05-03T15:26:07Z</time></trkpt><trkpt lat="45.40482317064495" lon="9.208391527611694"><ele>104.0</ele><time>2026-05-03T15:26:09Z</time></trkpt><trkpt lat="45.40474789164561" lon="9.20842727182068"><ele>104.0</ele><time>2026-05-03T15:26:11Z</time></trkpt><trkpt lat="45.40466766230014" lon="9.208443246666844"><ele>104.0</ele><time>2026-05-03T15:26:13Z</time></trkpt><trkpt lat="45.4045912664041" lon="9.208464807682143"><ele>103.99999999999999</ele><time>2026-05-03T15:26:15Z</time></trkpt><trkpt lat="45.404516699781624" lon="9.208483972909924"><ele>104.0</ele><time>2026-05-03T15:26:17.001Z</time></trkpt><trkpt lat="45.40444733187607" lon="9.208504806295558"><ele>104.0</ele><time>2026-05-03T15:26:19.001Z</time></trkpt><trkpt lat="45.404379056165375" lon="9.208520580794769"><ele>104.0</ele><time>2026-05-03T15:26:21.001Z</time></trkpt><trkpt lat="45.404305289140545" lon="9.208520116669161"><ele>104.0</ele><time>2026-05-03T15:26:23.001Z</time></trkpt><trkpt lat="45.404234669576034" lon="9.208507901737352"><ele>104.0</ele><time>2026-05-03T15:26:25.001Z</time></trkpt><trkpt lat="45.40416531335035" lon="9.208496479363458"><ele>104.0</ele><time>2026-05-03T15:26:27.001Z</time></trkpt><trkpt lat="45.40409758916284" lon="9.208498323644893"><ele>104.0</ele><time>2026-05-03T15:26:29.001Z</time></trkpt><trkpt lat="45.40402191351469" lon="9.208501431123038"><ele>104.0</ele><time>2026-05-03T15:26:31.001Z</time></trkpt><trkpt lat="45.403947753497" lon="9.208530715973179"><ele>103.99999999999999</ele><time>2026-05-03T15:26:33.001Z</time></trkpt><trkpt lat="45.40387305449609" lon="9.208554352834183"><ele>104.0</ele><time>2026-05-03T15:26:35.001Z</time></trkpt><trkpt lat="45.40380084843873" lon="9.208571030160435"><ele>104.0</ele><time>2026-05-03T15:26:37.001Z</time></trkpt><trkpt lat="45.40373714063678" lon="9.208578651964277"><ele>104.0</ele><time>2026-05-03T15:26:39.001Z</time></trkpt><trkpt lat="45.403671239265826" lon="9.208599285391834"><ele>103.99999999999999</ele><time>2026-05-03T15:26:41.001Z</time></trkpt><trkpt lat="45.403579709095396" lon="9.208616248837714"><ele>104.0</ele><time>2026-05-03T15:26:44.001Z</time></trkpt><trkpt lat="45.40349393196949" lon="9.208633767304784"><ele>103.83333333333333</ele><time>2026-05-03T15:26:47.001Z</time></trkpt><trkpt lat="45.4034249577122" lon="9.20865469041368"><ele>103.66666666666666</ele><time>2026-05-03T15:26:50.001Z</time></trkpt><trkpt lat="45.403344103240876" lon="9.20867382537596"><ele>103.5</ele><time>2026-05-03T15:26:53.001Z</time></trkpt><trkpt lat="45.40327581729188" lon="9.208701103147567"><ele>103.33333333333334</ele><time>2026-05-03T15:26:56.001Z</time></trkpt><trkpt lat="45.40318938189115" lon="9.208730197886128"><ele>103.16666666666667</ele><time>2026-05-03T15:26:59.001Z</time></trkpt><trkpt lat="45.40309600877068" lon="9.208742585739943"><ele>103.0</ele><time>2026-05-03T15:27:02.001Z</time></trkpt><trkpt lat="45.4030302688958" lon="9.208744685066772"><ele>102.85714285714285</ele><time>2026-05-03T15:27:04.001Z</time></trkpt><trkpt lat="45.40296362429079" lon="9.208738384312008"><ele>102.71428571428571</ele><time>2026-05-03T15:27:06.001Z</time></trkpt><trkpt lat="45.402897716051015" lon="9.208732371237915"><ele>102.57142857142857</ele><time>2026-05-03T15:27:08.001Z</time></trkpt><trkpt lat="45.40283272836056" lon="9.208731418304765"><ele>102.42857142857142</ele><time>2026-05-03T15:27:10.001Z</time></trkpt><trkpt lat="45.40276542418541" lon="9.208730298002013"><ele>102.28571428571429</ele><time>2026-05-03T15:27:12.001Z</time></trkpt><trkpt lat="45.40268993114698" lon="9.208732119830504"><ele>102.14285714285714</ele><time>2026-05-03T15:27:14.001Z</time></trkpt><trkpt lat="45.402610653616236" lon="9.208737495413425"><ele>102.0</ele><time>2026-05-03T15:27:16.001Z</time></trkpt><trkpt lat="45.40252393000038" lon="9.20874647178018"><ele>102.0</ele><time>2026-05-03T15:27:18.001Z</time></trkpt><trkpt lat="45.40243440407036" lon="9.20875161557612"><ele>102.0</ele><time>2026-05-03T15:27:20.001Z</time></trkpt><trkpt lat="45.402345415421436" lon="9.208762757223456"><ele>102.0</ele><time>2026-05-03T15:27:22.001Z</time></trkpt><trkpt lat="45.402256792171535" lon="9.208777688640627"><ele>102.0</ele><time>2026-05-03T15:27:24.001Z</time></trkpt><trkpt lat="45.40217090424594" lon="9.208791579730299"><ele>102.0</ele><time>2026-05-03T15:27:26.001Z</time></trkpt><trkpt lat="45.40208611987752" lon="9.20881088157936"><ele>102.0</ele><time>2026-05-03T15:27:28.001Z</time></trkpt><trkpt lat="45.401998975860636" lon="9.208826654432032"><ele>101.66666666666667</ele><time>2026-05-03T15:27:30.001Z</time></trkpt><trkpt lat="45.40191203708509" lon="9.208854082838306"><ele>101.33333333333334</ele><time>2026-05-03T15:27:32Z</time></trkpt><trkpt lat="45.40182390895865" lon="9.208872358944603"><ele>101.0</ele><time>2026-05-03T15:27:34Z</time></trkpt><trkpt lat="45.40173904850307" lon="9.208891490295677"><ele>100.66666666666667</ele><time>2026-05-03T15:27:36Z</time></trkpt><trkpt lat="45.40165781045398" lon="9.208912839556488"><ele>100.33333333333334</ele><time>2026-05-03T15:27:38Z</time></trkpt><trkpt lat="45.401574484437795" lon="9.208935667275158"><ele>100.0</ele><time>2026-05-03T15:27:40Z</time></trkpt><trkpt lat="45.40148976853117" lon="9.208960547588823"><ele>100.00000000000001</ele><time>2026-05-03T15:27:42Z</time></trkpt><trkpt lat="45.401406023297206" lon="9.20898205698357"><ele>100.0</ele><time>2026-05-03T15:27:44Z</time></trkpt><trkpt lat="45.40132568372362" lon="9.208995275259559"><ele>100.0</ele><time>2026-05-03T15:27:46Z</time></trkpt><trkpt lat="45.40124622874645" lon="9.20901581458212"><ele>100.0</ele><time>2026-05-03T15:27:48Z</time></trkpt><trkpt lat="45.40116345410003" lon="9.209039942254064"><ele>100.00000000000001</ele><time>2026-05-03T15:27:50Z</time></trkpt><trkpt lat="45.401087722746546" lon="9.20906017287398"><ele>100.0</ele><time>2026-05-03T15:27:52Z</time></trkpt><trkpt lat="45.401009898337534" lon="9.209081617879152"><ele>100.33333333333334</ele><time>2026-05-03T15:27:54Z</time></trkpt><trkpt lat="45.400930797895654" lon="9.20910118797153"><ele>100.66666666666667</ele><time>2026-05-03T15:27:56Z</time></trkpt><trkpt lat="45.40085540700937" lon="9.209117682411174"><ele>101.0</ele><time>2026-05-03T15:27:58Z</time></trkpt><trkpt lat="45.4007794455467" lon="9.20913753578556"><ele>101.33333333333334</ele><time>2026-05-03T15:28:00Z</time></trkpt><trkpt lat="45.40069448012206" lon="9.209145157447677"><ele>101.66666666666667</ele><time>2026-05-03T15:28:02Z</time></trkpt><trkpt lat="45.40062637799593" lon="9.209187069600663"><ele>102.0</ele><time>2026-05-03T15:28:04Z</time></trkpt><trkpt lat="45.40055165978342" lon="9.209212082863676"><ele>102.14285714285714</ele><time>2026-05-03T15:28:06Z</time></trkpt><trkpt lat="45.40047828060097" lon="9.209235207424408"><ele>102.28571428571429</ele><time>2026-05-03T15:28:08Z</time></trkpt><trkpt lat="45.400410256356" lon="9.209253740519733"><ele>102.42857142857142</ele><time>2026-05-03T15:28:10Z</time></trkpt><trkpt lat="45.4003456522348" lon="9.209259537193965"><ele>102.57142857142857</ele><time>2026-05-03T15:28:12Z</time></trkpt><trkpt lat="45.40028316790823" lon="9.209245178847192"><ele>102.71428571428571</ele><time>2026-05-03T15:28:14Z</time></trkpt><trkpt lat="45.40021649115184" lon="9.209220981193868"><ele>102.85714285714285</ele><time>2026-05-03T15:28:19Z</time></trkpt><trkpt lat="45.40014891258525" lon="9.209231031034392"><ele>103.0</ele><time>2026-05-03T15:28:24Z</time></trkpt><trkpt lat="45.400074591079466" lon="9.209267845174548"><ele>103.00000000000001</ele><time>2026-05-03T15:28:27.001Z</time></trkpt><trkpt lat="45.40000801760044" lon="9.209351827165271"><ele>103.0</ele><time>2026-05-03T15:28:30.001Z</time></trkpt><trkpt lat="45.39995631133959" lon="9.209405883347138"><ele>103.0</ele><time>2026-05-03T15:28:32.001Z</time></trkpt><trkpt lat="45.399891992708824" lon="9.209430753117813"><ele>103.0</ele><time>2026-05-03T15:28:34.001Z</time></trkpt><trkpt lat="45.3998267850933" lon="9.209458305068905"><ele>103.00000000000001</ele><time>2026-05-03T15:28:36.001Z</time></trkpt><trkpt lat="45.39975442201875" lon="9.209483441913639"><ele>103.0</ele><time>2026-05-03T15:28:38.001Z</time></trkpt><trkpt lat="45.39966212803975" lon="9.209514355332379"><ele>103.2</ele><time>2026-05-03T15:28:40.001Z</time></trkpt><trkpt lat="45.399558546365796" lon="9.209550843918628"><ele>103.4</ele><time>2026-05-03T15:28:42.001Z</time></trkpt><trkpt lat="45.399462676990524" lon="9.209590225939548"><ele>103.60000000000001</ele><time>2026-05-03T15:28:44.001Z</time></trkpt><trkpt lat="45.399378285373906" lon="9.209650454065455"><ele>103.80000000000001</ele><time>2026-05-03T15:28:46.001Z</time></trkpt><trkpt lat="45.39929138698935" lon="9.209686003895447"><ele>104.0</ele><time>2026-05-03T15:28:48.001Z</time></trkpt><trkpt lat="45.399208998124344" lon="9.209715743154124"><ele>103.99999999999999</ele><time>2026-05-03T15:28:50.001Z</time></trkpt><trkpt lat="45.399134588451375" lon="9.209747920080515"><ele>104.0</ele><time>2026-05-03T15:28:52.001Z</time></trkpt><trkpt lat="45.399055501055" lon="9.209768150129252"><ele>104.0</ele><time>2026-05-03T15:28:54.001Z</time></trkpt><trkpt lat="45.39898241019124" lon="9.20979566453933"><ele>104.0</ele><time>2026-05-03T15:28:56.001Z</time></trkpt><trkpt lat="45.3989067146007" lon="9.209818681478637"><ele>103.99999999999999</ele><time>2026-05-03T15:28:58.001Z</time></trkpt><trkpt lat="45.39882755474261" lon="9.209839835283335"><ele>104.0</ele><time>2026-05-03T15:29:00.001Z</time></trkpt><trkpt lat="45.3987493306788" lon="9.209856735842408"><ele>103.49999999999999</ele><time>2026-05-03T15:29:02.001Z</time></trkpt><trkpt lat="45.39867192029963" lon="9.209880375145762"><ele>103.0</ele><time>2026-05-03T15:29:04.001Z</time></trkpt><trkpt lat="45.39859449022613" lon="9.209900247942569"><ele>102.5</ele><time>2026-05-03T15:29:06.001Z</time></trkpt><trkpt lat="45.398516084548966" lon="9.20991826151947"><ele>102.0</ele><time>2026-05-03T15:29:08.001Z</time></trkpt><trkpt lat="45.39844350068735" lon="9.209942392653655"><ele>101.49999999999999</ele><time>2026-05-03T15:29:10.001Z</time></trkpt><trkpt lat="45.398369181770846" lon="9.209958926412401"><ele>101.0</ele><time>2026-05-03T15:29:12.001Z</time></trkpt><trkpt lat="45.39829542593462" lon="9.209978666160065"><ele>100.99999999999999</ele><time>2026-05-03T15:29:14.001Z</time></trkpt><trkpt lat="45.39822012467696" lon="9.209999937222966"><ele>101.0</ele><time>2026-05-03T15:29:16.001Z</time></trkpt><trkpt lat="45.39814328814632" lon="9.210026181348631"><ele>101.0</ele><time>2026-05-03T15:29:18.001Z</time></trkpt><trkpt lat="45.39806784913703" lon="9.210043349645538"><ele>101.0</ele><time>2026-05-03T15:29:20.001Z</time></trkpt><trkpt lat="45.3979912873945" lon="9.210063909608895"><ele>100.99999999999999</ele><time>2026-05-03T15:29:22.001Z</time></trkpt><trkpt lat="45.39791644006117" lon="9.21008097216129"><ele>101.0</ele><time>2026-05-03T15:29:24.001Z</time></trkpt><trkpt lat="45.39784733536086" lon="9.210102145174355"><ele>101.14285714285714</ele><time>2026-05-03T15:29:26.001Z</time></trkpt><trkpt lat="45.397776696613775" lon="9.210117544008078"><ele>101.28571428571428</ele><time>2026-05-03T15:29:28.001Z</time></trkpt><trkpt lat="45.39770457809173" lon="9.210135277663758"><ele>101.42857142857143</ele><time>2026-05-03T15:29:30.001Z</time></trkpt><trkpt lat="45.397631440324695" lon="9.210156031754895"><ele>101.57142857142857</ele><time>2026-05-03T15:29:32.001Z</time></trkpt><trkpt lat="45.39755756581428" lon="9.210191348342248"><ele>101.71428571428572</ele><time>2026-05-03T15:29:34.001Z</time></trkpt><trkpt lat="45.39748961032643" lon="9.210201170525163"><ele>101.85714285714286</ele><time>2026-05-03T15:29:36.001Z</time></trkpt><trkpt lat="45.39741661081607" lon="9.210220393119895"><ele>102.0</ele><time>2026-05-03T15:29:38Z</time></trkpt><trkpt lat="45.39734310482309" lon="9.210242367625366"><ele>102.0</ele><time>2026-05-03T15:29:40Z</time></trkpt><trkpt lat="45.397269329611554" lon="9.21026502218285"><ele>102.0</ele><time>2026-05-03T15:29:42Z</time></trkpt><trkpt lat="45.39719904562866" lon="9.210288846957882"><ele>102.0</ele><time>2026-05-03T15:29:44Z</time></trkpt><trkpt lat="45.39713382854037" lon="9.21031490947673"><ele>102.0</ele><time>2026-05-03T15:29:46Z</time></trkpt><trkpt lat="45.397053785102" lon="9.210384045516069"><ele>102.0</ele><time>2026-05-03T15:29:49Z</time></trkpt><trkpt lat="45.39697380604139" lon="9.21037064531798"><ele>102.0</ele><time>2026-05-03T15:30:08Z</time></trkpt><trkpt lat="45.39689705821312" lon="9.21038241263429"><ele>102.28571428571429</ele><time>2026-05-03T15:30:15Z</time></trkpt><trkpt lat="45.39683137485144" lon="9.210397537863983"><ele>102.57142857142858</ele><time>2026-05-03T15:30:28Z</time></trkpt><trkpt lat="45.396761417288765" lon="9.210415173986004"><ele>102.85714285714286</ele><time>2026-05-03T15:30:35.001Z</time></trkpt><trkpt lat="45.396699695327044" lon="9.210442022394124"><ele>103.14285714285714</ele><time>2026-05-03T15:30:53.001Z</time></trkpt><trkpt lat="45.396631156831944" lon="9.210449472452046"><ele>103.42857142857143</ele><time>2026-05-03T15:31:00.001Z</time></trkpt><trkpt lat="45.396561389929964" lon="9.210463459731692"><ele>103.71428571428571</ele><time>2026-05-03T15:31:06.001Z</time></trkpt><trkpt lat="45.3964968843542" lon="9.210479789841008"><ele>104.0</ele><time>2026-05-03T15:31:12.001Z</time></trkpt><trkpt lat="45.39642363228895" lon="9.21049947472925"><ele>104.0</ele><time>2026-05-03T15:31:18.001Z</time></trkpt><trkpt lat="45.39634988003545" lon="9.210515591968424"><ele>104.0</ele><time>2026-05-03T15:31:24.001Z</time></trkpt><trkpt lat="45.39631431369955" lon="9.210590566820024"><ele>104.0</ele><time>2026-05-03T15:31:40.001Z</time></trkpt><trkpt lat="45.3963226578278" lon="9.210690627877682"><ele>104.0</ele><time>2026-05-03T15:31:45Z</time></trkpt><trkpt lat="45.39632935338834" lon="9.210791243223918"><ele>104.0</ele><time>2026-05-03T15:31:52Z</time></trkpt><trkpt lat="45.39626183715075" lon="9.210830300678133"><ele>104.0</ele><time>2026-05-03T15:32:24Z</time></trkpt><trkpt lat="45.3961826303456" lon="9.210862681349516"><ele>104.0</ele><time>2026-05-03T15:32:28Z</time></trkpt><trkpt lat="45.39611069717632" lon="9.21089078251511"><ele>104.49999999999999</ele><time>2026-05-03T15:32:31Z</time></trkpt><trkpt lat="45.396027589992556" lon="9.210905809294239"><ele>105.0</ele><time>2026-05-03T15:32:34Z</time></trkpt><trkpt lat="45.39593939436023" lon="9.210926272926828"><ele>105.5</ele><time>2026-05-03T15:32:37Z</time></trkpt><trkpt lat="45.395874763681185" lon="9.210944597488764"><ele>106.0</ele><time>2026-05-03T15:32:39Z</time></trkpt><trkpt lat="45.39581256280072" lon="9.210967152689278"><ele>106.49999999999999</ele><time>2026-05-03T15:32:41Z</time></trkpt><trkpt lat="45.39572567796932" lon="9.210982704838115"><ele>107.0</ele><time>2026-05-03T15:32:44Z</time></trkpt><trkpt lat="45.39564482251262" lon="9.210998124144716"><ele>106.99999999999999</ele><time>2026-05-03T15:32:47Z</time></trkpt><trkpt lat="45.39557180678189" lon="9.211058092760034"><ele>107.0</ele><time>2026-05-03T15:32:50.001Z</time></trkpt><trkpt lat="45.39551629513317" lon="9.21114757754124"><ele>107.0</ele><time>2026-05-03T15:32:53.001Z</time></trkpt><trkpt lat="45.39552272085531" lon="9.21128284245826"><ele>107.0</ele><time>2026-05-03T15:32:56.001Z</time></trkpt><trkpt lat="45.395544442611374" lon="9.211367048051212"><ele>106.99999999999999</ele><time>2026-05-03T15:32:58.001Z</time></trkpt><trkpt lat="45.395560551030385" lon="9.211492682661719"><ele>107.0</ele><time>2026-05-03T15:33:01.001Z</time></trkpt><trkpt lat="45.39557765663069" lon="9.21160127503008"><ele>107.66666666666666</ele><time>2026-05-03T15:33:04.001Z</time></trkpt><trkpt lat="45.39554380625127" lon="9.211701015220312"><ele>108.33333333333333</ele><time>2026-05-03T15:33:07.001Z</time></trkpt><trkpt lat="45.39550030247661" lon="9.211804899368625"><ele>109.0</ele><time>2026-05-03T15:33:10.001Z</time></trkpt><trkpt lat="45.395494248821215" lon="9.211938468547926"><ele>109.66666666666666</ele><time>2026-05-03T15:33:13.001Z</time></trkpt><trkpt lat="45.395453389225835" lon="9.212017026134067"><ele>110.33333333333333</ele><time>2026-05-03T15:33:15.001Z</time></trkpt><trkpt lat="45.39539042941906" lon="9.212064085303087"><ele>111.0</ele><time>2026-05-03T15:33:17.001Z</time></trkpt><trkpt lat="45.39531727170654" lon="9.212072123009156"><ele>109.85714285714285</ele><time>2026-05-03T15:33:19.001Z</time></trkpt><trkpt lat="45.395249723746524" lon="9.212084638099444"><ele>108.71428571428572</ele><time>2026-05-03T15:33:21.001Z</time></trkpt><trkpt lat="45.39518075356954" lon="9.212088959852137"><ele>107.57142857142857</ele><time>2026-05-03T15:33:23.001Z</time></trkpt><trkpt lat="45.395115871105475" lon="9.21211598756348"><ele>106.42857142857142</ele><time>2026-05-03T15:33:25.001Z</time></trkpt><trkpt lat="45.39505202697379" lon="9.212133728261247"><ele>105.28571428571428</ele><time>2026-05-03T15:33:27.001Z</time></trkpt><trkpt lat="45.394959686012314" lon="9.212154906865353"><ele>104.14285714285714</ele><time>2026-05-03T15:33:30.001Z</time></trkpt><trkpt lat="45.39489495098506" lon="9.212174573335576"><ele>103.0</ele><time>2026-05-03T15:33:32.001Z</time></trkpt><trkpt lat="45.394831766683005" lon="9.212179501434974"><ele>102.99999999999999</ele><time>2026-05-03T15:33:34.001Z</time></trkpt><trkpt lat="45.394740748401325" lon="9.212207100322503"><ele>103.0</ele><time>2026-05-03T15:33:37.001Z</time></trkpt><trkpt lat="45.39467861498017" lon="9.212225038823513"><ele>103.0</ele><time>2026-05-03T15:33:39.001Z</time></trkpt><trkpt lat="45.394615201658326" lon="9.212239895015902"><ele>103.0</ele><time>2026-05-03T15:33:41.001Z</time></trkpt><trkpt lat="45.3945497956645" lon="9.212253472448689"><ele>103.0</ele><time>2026-05-03T15:33:43.001Z</time></trkpt><trkpt lat="45.39448139648773" lon="9.212267067522047"><ele>102.99999999999999</ele><time>2026-05-03T15:33:45.001Z</time></trkpt><trkpt lat="45.39441699632524" lon="9.212281305120431"><ele>103.0</ele><time>2026-05-03T15:33:47.001Z</time></trkpt><trkpt lat="45.39435212738262" lon="9.21229631634963"><ele>102.71428571428571</ele><time>2026-05-03T15:33:49Z</time></trkpt><trkpt lat="45.39428946869817" lon="9.212320236259245"><ele>102.42857142857143</ele><time>2026-05-03T15:33:51Z</time></trkpt><trkpt lat="45.39419689017501" lon="9.212346941743355"><ele>102.14285714285714</ele><time>2026-05-03T15:33:54Z</time></trkpt><trkpt lat="45.394133778226" lon="9.212363227420903"><ele>101.85714285714286</ele><time>2026-05-03T15:33:56Z</time></trkpt><trkpt lat="45.39407096906474" lon="9.212379839118823"><ele>101.57142857142857</ele><time>2026-05-03T15:33:58Z</time></trkpt><trkpt lat="45.39400510923796" lon="9.212386299596782"><ele>101.28571428571428</ele><time>2026-05-03T15:34:00Z</time></trkpt><trkpt lat="45.39393180886007" lon="9.2123279818988"><ele>101.0</ele><time>2026-05-03T15:34:03Z</time></trkpt><trkpt lat="45.3938813841586" lon="9.212270631371128"><ele>101.0</ele><time>2026-05-03T15:34:05Z</time></trkpt><trkpt lat="45.39386722775027" lon="9.212183058007344"><ele>101.0</ele><time>2026-05-03T15:34:07Z</time></trkpt><trkpt lat="45.393863545280546" lon="9.21208839005331"><ele>101.0</ele><time>2026-05-03T15:34:09Z</time></trkpt><trkpt lat="45.39385162979651" lon="9.211984953870989"><ele>101.0</ele><time>2026-05-03T15:34:11Z</time></trkpt><trkpt lat="45.39383495861379" lon="9.211888442374747"><ele>101.0</ele><time>2026-05-03T15:34:13Z</time></trkpt><trkpt lat="45.393823041636736" lon="9.211789158127996"><ele>101.0</ele><time>2026-05-03T15:34:15Z</time></trkpt><trkpt lat="45.39381411172768" lon="9.211695884932704"><ele>101.0</ele><time>2026-05-03T15:34:17Z</time></trkpt><trkpt lat="45.393783502453765" lon="9.211564942874375"><ele>101.28571428571428</ele><time>2026-05-03T15:34:20Z</time></trkpt><trkpt lat="45.39373490136887" lon="9.21149467736229"><ele>101.57142857142857</ele><time>2026-05-03T15:34:22Z</time></trkpt><trkpt lat="45.39366654825843" lon="9.211458843128742"><ele>101.85714285714286</ele><time>2026-05-03T15:34:24Z</time></trkpt><trkpt lat="45.39359938944633" lon="9.211452882895493"><ele>102.14285714285714</ele><time>2026-05-03T15:34:26Z</time></trkpt><trkpt lat="45.39352188571911" lon="9.211478509482763"><ele>102.42857142857143</ele><time>2026-05-03T15:34:28Z</time></trkpt><trkpt lat="45.393448584650685" lon="9.211495572106937"><ele>102.71428571428571</ele><time>2026-05-03T15:34:30Z</time></trkpt><trkpt lat="45.39337654686889" lon="9.211511506430451"><ele>103.0</ele><time>2026-05-03T15:34:32Z</time></trkpt><trkpt lat="45.393301404772615" lon="9.21153370470555"><ele>102.85714285714285</ele><time>2026-05-03T15:34:34Z</time></trkpt><trkpt lat="45.393233100673214" lon="9.21155896840519"><ele>102.71428571428571</ele><time>2026-05-03T15:34:36Z</time></trkpt><trkpt lat="45.39315554380995" lon="9.211573626761114"><ele>102.57142857142857</ele><time>2026-05-03T15:34:38Z</time></trkpt><trkpt lat="45.39308696676146" lon="9.211592345177007"><ele>102.42857142857142</ele><time>2026-05-03T15:34:40Z</time></trkpt><trkpt lat="45.39301624597069" lon="9.211612035986473"><ele>102.28571428571429</ele><time>2026-05-03T15:34:42Z</time></trkpt><trkpt lat="45.39294584639971" lon="9.211637312550454"><ele>102.14285714285714</ele><time>2026-05-03T15:34:44Z</time></trkpt><trkpt lat="45.39287365351869" lon="9.211659994376104"><ele>102.0</ele><time>2026-05-03T15:34:46Z</time></trkpt><trkpt lat="45.39280288357851" lon="9.211674938470871"><ele>102.0</ele><time>2026-05-03T15:34:48Z</time></trkpt><trkpt lat="45.3927316648131" lon="9.211694963037536"><ele>102.0</ele><time>2026-05-03T15:34:50Z</time></trkpt><trkpt lat="45.39266220247802" lon="9.211719292325318"><ele>102.0</ele><time>2026-05-03T15:34:52Z</time></trkpt><trkpt lat="45.39259709199283" lon="9.211733068916214"><ele>102.0</ele><time>2026-05-03T15:34:54Z</time></trkpt><trkpt lat="45.392519257592966" lon="9.21177821764804"><ele>102.0</ele><time>2026-05-03T15:34:57Z</time></trkpt><trkpt lat="45.392425870354266" lon="9.2118029525956"><ele>102.0</ele><time>2026-05-03T15:35:00Z</time></trkpt><trkpt lat="45.39235690999556" lon="9.211823058357052"><ele>102.0</ele><time>2026-05-03T15:35:02Z</time></trkpt><trkpt lat="45.39228073682274" lon="9.211847036614197"><ele>102.0</ele><time>2026-05-03T15:35:04Z</time></trkpt><trkpt lat="45.39220472066553" lon="9.211867527623133"><ele>102.0</ele><time>2026-05-03T15:35:06Z</time></trkpt><trkpt lat="45.392128099349094" lon="9.211887040573556"><ele>102.0</ele><time>2026-05-03T15:35:08.001Z</time></trkpt><trkpt lat="45.39205660096723" lon="9.211918870402657"><ele>102.0</ele><time>2026-05-03T15:35:10.001Z</time></trkpt><trkpt lat="45.391991737489306" lon="9.211951214452977"><ele>102.0</ele><time>2026-05-03T15:35:12.001Z</time></trkpt><trkpt lat="45.39192427169715" lon="9.211985236214492"><ele>102.0</ele><time>2026-05-03T15:35:14.001Z</time></trkpt><trkpt lat="45.39184968936419" lon="9.21202216312404"><ele>102.0</ele><time>2026-05-03T15:35:16.001Z</time></trkpt><trkpt lat="45.39177515318153" lon="9.212075384592772"><ele>102.0</ele><time>2026-05-03T15:35:18.001Z</time></trkpt><trkpt lat="45.39170236575655" lon="9.212133066172449"><ele>102.0</ele><time>2026-05-03T15:35:20.001Z</time></trkpt><trkpt lat="45.39163296314224" lon="9.212200267963778"><ele>102.0</ele><time>2026-05-03T15:35:22.001Z</time></trkpt><trkpt lat="45.391566139066" lon="9.212272173607875"><ele>102.0</ele><time>2026-05-03T15:35:24.001Z</time></trkpt><trkpt lat="45.39150103314631" lon="9.212344658405184"><ele>102.0</ele><time>2026-05-03T15:35:26.001Z</time></trkpt><trkpt lat="45.391438417637445" lon="9.212425165522687"><ele>101.83333333333333</ele><time>2026-05-03T15:35:28.001Z</time></trkpt><trkpt lat="45.391382330170885" lon="9.212512195269841"><ele>101.66666666666666</ele><time>2026-05-03T15:35:30.001Z</time></trkpt><trkpt lat="45.39133133588649" lon="9.212604183951994"><ele>101.5</ele><time>2026-05-03T15:35:32.001Z</time></trkpt><trkpt lat="45.39128336671871" lon="9.212700630125102"><ele>101.33333333333333</ele><time>2026-05-03T15:35:34.001Z</time></trkpt><trkpt lat="45.391234541144186" lon="9.21279535367287"><ele>101.16666666666666</ele><time>2026-05-03T15:35:36.001Z</time></trkpt><trkpt lat="45.391188693974435" lon="9.212896486495918"><ele>101.0</ele><time>2026-05-03T15:35:38.001Z</time></trkpt><trkpt lat="45.391141331785526" lon="9.212998585836887"><ele>101.66666666666666</ele><time>2026-05-03T15:35:40.001Z</time></trkpt><trkpt lat="45.39109433349416" lon="9.213099032800436"><ele>102.33333333333333</ele><time>2026-05-03T15:35:42.001Z</time></trkpt><trkpt lat="45.39104612962393" lon="9.213197512124443"><ele>103.0</ele><time>2026-05-03T15:35:44.001Z</time></trkpt><trkpt lat="45.39099599088326" lon="9.213294791104905"><ele>103.66666666666666</ele><time>2026-05-03T15:35:46.001Z</time></trkpt><trkpt lat="45.39095285891162" lon="9.213398749360099"><ele>104.33333333333333</ele><time>2026-05-03T15:35:48.001Z</time></trkpt><trkpt lat="45.39090543113584" lon="9.213501720086864"><ele>105.0</ele><time>2026-05-03T15:35:50.001Z</time></trkpt><trkpt lat="45.39086465834877" lon="9.213614136268534"><ele>105.16666666666667</ele><time>2026-05-03T15:35:52.001Z</time></trkpt><trkpt lat="45.39082978233607" lon="9.213731839272318"><ele>105.33333333333334</ele><time>2026-05-03T15:35:54.001Z</time></trkpt><trkpt lat="45.39080089692623" lon="9.213851423924723"><ele>105.5</ele><time>2026-05-03T15:35:56Z</time></trkpt><trkpt lat="45.39076574848887" lon="9.213967877317133"><ele>105.66666666666667</ele><time>2026-05-03T15:35:58Z</time></trkpt><trkpt lat="45.39072568519075" lon="9.214079071448772"><ele>105.83333333333334</ele><time>2026-05-03T15:36:00Z</time></trkpt><trkpt lat="45.39067301991299" lon="9.21417676923755"><ele>106.0</ele><time>2026-05-03T15:36:02Z</time></trkpt><trkpt lat="45.39061467486568" lon="9.214273786481167"><ele>106.00000000000001</ele><time>2026-05-03T15:36:04Z</time></trkpt><trkpt lat="45.39056724827378" lon="9.214377803691276"><ele>106.0</ele><time>2026-05-03T15:36:06Z</time></trkpt><trkpt lat="45.39051148351931" lon="9.21446912411447"><ele>106.0</ele><time>2026-05-03T15:36:08Z</time></trkpt><trkpt lat="45.39046081320299" lon="9.214565882075217"><ele>106.0</ele><time>2026-05-03T15:36:10Z</time></trkpt><trkpt lat="45.390399964469786" lon="9.214657168218709"><ele>106.00000000000001</ele><time>2026-05-03T15:36:12Z</time></trkpt><trkpt lat="45.39034408931114" lon="9.214763926301442"><ele>106.0</ele><time>2026-05-03T15:36:14Z</time></trkpt><trkpt lat="45.39031083487821" lon="9.214894263227022"><ele>105.50000000000001</ele><time>2026-05-03T15:36:16Z</time></trkpt><trkpt lat="45.39028741376562" lon="9.21501874273796"><ele>105.0</ele><time>2026-05-03T15:36:18Z</time></trkpt><trkpt lat="45.390264325013085" lon="9.215137417530327"><ele>104.5</ele><time>2026-05-03T15:36:20Z</time></trkpt><trkpt lat="45.39024239496152" lon="9.215254698103392"><ele>104.0</ele><time>2026-05-03T15:36:22Z</time></trkpt><trkpt lat="45.390216147356334" lon="9.215360476187568"><ele>103.50000000000001</ele><time>2026-05-03T15:36:24Z</time></trkpt><trkpt lat="45.39019148468406" lon="9.2154502172792"><ele>103.0</ele><time>2026-05-03T15:36:26Z</time></trkpt><trkpt lat="45.39016291405108" lon="9.215541904841183"><ele>103.00000000000001</ele><time>2026-05-03T15:36:28Z</time></trkpt><trkpt lat="45.39012378383665" lon="9.215630297562386"><ele>103.0</ele><time>2026-05-03T15:36:30Z</time></trkpt><trkpt lat="45.39008255765831" lon="9.21570545465788"><ele>103.0</ele><time>2026-05-03T15:36:32Z</time></trkpt><trkpt lat="45.39001221613323" lon="9.215747449060759"><ele>103.0</ele><time>2026-05-03T15:36:34Z</time></trkpt><trkpt lat="45.389938745041825" lon="9.21574568727594"><ele>103.00000000000001</ele><time>2026-05-03T15:36:36Z</time></trkpt><trkpt lat="45.389864205574554" lon="9.215706794278697"><ele>103.0</ele><time>2026-05-03T15:36:38Z</time></trkpt><trkpt lat="45.3897834714995" lon="9.215679618815999"><ele>103.00000000000001</ele><time>2026-05-03T15:36:40Z</time></trkpt><trkpt lat="45.38971190551088" lon="9.215651626043982"><ele>103.0</ele><time>2026-05-03T15:36:42Z</time></trkpt><trkpt lat="45.38963006524195" lon="9.215634258965608"><ele>103.0</ele><time>2026-05-03T15:36:44Z</time></trkpt><trkpt lat="45.38957018720516" lon="9.215567476204683"><ele>103.0</ele><time>2026-05-03T15:36:46Z</time></trkpt><trkpt lat="45.38948483681258" lon="9.215556034351708"><ele>103.00000000000001</ele><time>2026-05-03T15:36:48Z</time></trkpt><trkpt lat="45.38941420614505" lon="9.215539997353345"><ele>103.0</ele><time>2026-05-03T15:36:51Z</time></trkpt><trkpt lat="45.389376724094774" lon="9.215424949474714"><ele>103.00000000000001</ele><time>2026-05-03T15:36:54Z</time></trkpt><trkpt lat="45.38939796194582" lon="9.215332413185902"><ele>103.0</ele><time>2026-05-03T15:36:56Z</time></trkpt><trkpt lat="45.389424023417526" lon="9.215205846793573"><ele>103.0</ele><time>2026-05-03T15:36:59Z</time></trkpt><trkpt lat="45.38944623433578" lon="9.215081623287007"><ele>103.0</ele><time>2026-05-03T15:37:02Z</time></trkpt><trkpt lat="45.38946526029001" lon="9.214955414571348"><ele>103.00000000000001</ele><time>2026-05-03T15:37:05Z</time></trkpt><trkpt lat="45.389482028955626" lon="9.214835497939069"><ele>103.0</ele><time>2026-05-03T15:37:08Z</time></trkpt><trkpt lat="45.389494605217735" lon="9.214743120036463"><ele>102.99999999999999</ele><time>2026-05-03T15:37:10Z</time></trkpt><trkpt lat="45.38949746513747" lon="9.214644342585885"><ele>103.0</ele><time>2026-05-03T15:37:12Z</time></trkpt><trkpt lat="45.38948808908651" lon="9.21454520394807"><ele>103.0</ele><time>2026-05-03T15:37:14Z</time></trkpt><trkpt lat="45.38947425247311" lon="9.21445218842678"><ele>103.0</ele><time>2026-05-03T15:37:16Z</time></trkpt><trkpt lat="45.389461666079036" lon="9.214325452597766"><ele>103.0</ele><time>2026-05-03T15:37:19.001Z</time></trkpt><trkpt lat="45.389441804347065" lon="9.214237461242528"><ele>102.99999999999999</ele><time>2026-05-03T15:37:21.001Z</time></trkpt><trkpt lat="45.38942820539436" lon="9.214147149522152"><ele>103.0</ele><time>2026-05-03T15:37:23.001Z</time></trkpt><trkpt lat="45.38940425981377" lon="9.214058105162586"><ele>102.85714285714285</ele><time>2026-05-03T15:37:25.001Z</time></trkpt><trkpt lat="45.389382164315215" lon="9.213962297549575"><ele>102.71428571428571</ele><time>2026-05-03T15:37:27.001Z</time></trkpt><trkpt lat="45.389364378297785" lon="9.213871416194095"><ele>102.57142857142857</ele><time>2026-05-03T15:37:29.001Z</time></trkpt><trkpt lat="45.389343913196285" lon="9.213772311866746"><ele>102.42857142857142</ele><time>2026-05-03T15:37:31.001Z</time></trkpt><trkpt lat="45.38932050781028" lon="9.213680579205395"><ele>102.28571428571429</ele><time>2026-05-03T15:37:33.001Z</time></trkpt><trkpt lat="45.38930133964546" lon="9.213584442321547"><ele>102.14285714285714</ele><time>2026-05-03T15:37:35.001Z</time></trkpt><trkpt lat="45.38927937895906" lon="9.213489776038866"><ele>102.0</ele><time>2026-05-03T15:37:37.001Z</time></trkpt><trkpt lat="45.3892526659284" lon="9.21339404093412"><ele>102.0</ele><time>2026-05-03T15:37:39.001Z</time></trkpt><trkpt lat="45.38924219948407" lon="9.213304123842931"><ele>102.0</ele><time>2026-05-03T15:37:41.001Z</time></trkpt><trkpt lat="45.38922292417732" lon="9.213212578710348"><ele>102.0</ele><time>2026-05-03T15:37:43.001Z</time></trkpt><trkpt lat="45.38918593270887" lon="9.213099986552308"><ele>102.0</ele><time>2026-05-03T15:37:46.001Z</time></trkpt><trkpt lat="45.38917228783521" lon="9.212989923066734"><ele>102.0</ele><time>2026-05-03T15:37:49.001Z</time></trkpt><trkpt lat="45.38914076644793" lon="9.212889463848056"><ele>102.0</ele><time>2026-05-03T15:37:52.001Z</time></trkpt><trkpt lat="45.38909888118734" lon="9.212789826522785"><ele>102.0</ele><time>2026-05-03T15:37:55.001Z</time></trkpt><trkpt lat="45.38903830586838" lon="9.21274728592886"><ele>102.0</ele><time>2026-05-03T15:37:57.001Z</time></trkpt><trkpt lat="45.3889739670033" lon="9.212725233411593"><ele>102.0</ele><time>2026-05-03T15:37:59.001Z</time></trkpt><trkpt lat="45.38890850426773" lon="9.212720583002394"><ele>102.0</ele><time>2026-05-03T15:38:01Z</time></trkpt><trkpt lat="45.3888424122483" lon="9.212723404150582"><ele>102.0</ele><time>2026-05-03T15:38:03Z</time></trkpt><trkpt lat="45.38877571385968" lon="9.212733098565012"><ele>102.0</ele><time>2026-05-03T15:38:05Z</time></trkpt><trkpt lat="45.388682613509424" lon="9.21276129533403"><ele>102.0</ele><time>2026-05-03T15:38:08Z</time></trkpt><trkpt lat="45.38861809669096" lon="9.212791457316658"><ele>102.0</ele><time>2026-05-03T15:38:10Z</time></trkpt><trkpt lat="45.38855586319073" lon="9.21281061695789"><ele>102.0</ele><time>2026-05-03T15:38:12Z</time></trkpt><trkpt lat="45.38846724556819" lon="9.212840989903146"><ele>102.0</ele><time>2026-05-03T15:38:15Z</time></trkpt><trkpt lat="45.38837948230163" lon="9.21286054853293"><ele>102.0</ele><time>2026-05-03T15:38:18Z</time></trkpt><trkpt lat="45.38829566334095" lon="9.212902650377467"><ele>102.0</ele><time>2026-05-03T15:38:21Z</time></trkpt><trkpt lat="45.388217688684975" lon="9.212968258852179"><ele>102.0</ele><time>2026-05-03T15:38:24Z</time></trkpt><trkpt lat="45.38814381885619" lon="9.213044139091998"><ele>102.0</ele><time>2026-05-03T15:38:27Z</time></trkpt><trkpt lat="45.38807093538338" lon="9.213125241340743"><ele>102.0</ele><time>2026-05-03T15:38:30Z</time></trkpt><trkpt lat="45.38800844366858" lon="9.213138925438473"><ele>102.0</ele><time>2026-05-03T15:38:32Z</time></trkpt><trkpt lat="45.38792071664007" lon="9.21311976887816"><ele>102.0</ele><time>2026-05-03T15:38:35Z</time></trkpt><trkpt lat="45.387854541964245" lon="9.213110220510645"><ele>102.0</ele><time>2026-05-03T15:38:38Z</time></trkpt><trkpt lat="45.38777076517496" lon="9.213090828010815"><ele>102.0</ele><time>2026-05-03T15:38:42Z</time></trkpt><trkpt lat="45.38770469707868" lon="9.213099192527164"><ele>101.85714285714286</ele><time>2026-05-03T15:38:45Z</time></trkpt><trkpt lat="45.387636219208304" lon="9.213093437496351"><ele>101.71428571428572</ele><time>2026-05-03T15:38:48Z</time></trkpt><trkpt lat="45.38756623216748" lon="9.213092057948685"><ele>101.57142857142857</ele><time>2026-05-03T15:38:51Z</time></trkpt><trkpt lat="45.38749404250459" lon="9.21309279999616"><ele>101.42857142857143</ele><time>2026-05-03T15:38:54Z</time></trkpt><trkpt lat="45.387432753231735" lon="9.213118919789594"><ele>101.28571428571428</ele><time>2026-05-03T15:38:59Z</time></trkpt><trkpt lat="45.38736931695988" lon="9.213131032387116"><ele>101.14285714285714</ele><time>2026-05-03T15:39:19Z</time></trkpt><trkpt lat="45.38729821678676" lon="9.213146275428626"><ele>101.0</ele><time>2026-05-03T15:39:24.001Z</time></trkpt><trkpt lat="45.3872279849966" lon="9.213164248118034"><ele>100.99999999999999</ele><time>2026-05-03T15:39:29.001Z</time></trkpt><trkpt lat="45.387156227807196" lon="9.213194521242315"><ele>101.0</ele><time>2026-05-03T15:39:34.001Z</time></trkpt><trkpt lat="45.38708072633801" lon="9.21321762516512"><ele>101.0</ele><time>2026-05-03T15:39:40.001Z</time></trkpt><trkpt lat="45.38705603624043" lon="9.213132754971634"><ele>101.0</ele><time>2026-05-03T15:40:00.001Z</time></trkpt><trkpt lat="45.38702580975237" lon="9.212961681546568"><ele>100.99999999999999</ele><time>2026-05-03T15:40:06.001Z</time></trkpt><trkpt lat="45.38701179281225" lon="9.21285691676485"><ele>101.0</ele><time>2026-05-03T15:40:25Z</time></trkpt><trkpt lat="45.38698788413599" lon="9.212756516654496"><ele>100.49999999999999</ele><time>2026-05-03T15:40:28Z</time></trkpt><trkpt lat="45.386908654313466" lon="9.21278610922937"><ele>100.0</ele><time>2026-05-03T15:40:32Z</time></trkpt><trkpt lat="45.38683730926614" lon="9.212818633288263"><ele>99.5</ele><time>2026-05-03T15:40:34Z</time></trkpt><trkpt lat="45.38676096779348" lon="9.212848336119423"><ele>99.0</ele><time>2026-05-03T15:40:36Z</time></trkpt><trkpt lat="45.38667527184919" lon="9.21288573932951"><ele>98.49999999999999</ele><time>2026-05-03T15:40:38Z</time></trkpt><trkpt lat="45.38657475730276" lon="9.212917974977923"><ele>98.0</ele><time>2026-05-03T15:40:40Z</time></trkpt><trkpt lat="45.38646924473594" lon="9.212962766097116"><ele>98.0</ele><time>2026-05-03T15:40:42Z</time></trkpt><trkpt lat="45.38635828179425" lon="9.212994138370966"><ele>98.0</ele><time>2026-05-03T15:40:44Z</time></trkpt><trkpt lat="45.386271482694305" lon="9.213013997961196"><ele>98.0</ele><time>2026-05-03T15:40:46Z</time></trkpt><trkpt lat="45.386179656771375" lon="9.213034750920277"><ele>98.0</ele><time>2026-05-03T15:40:48Z</time></trkpt><trkpt lat="45.386073969269816" lon="9.21305830532213"><ele>98.0</ele><time>2026-05-03T15:40:50Z</time></trkpt><trkpt lat="45.38596296292479" lon="9.213081469400962"><ele>97.80000000000001</ele><time>2026-05-03T15:40:52Z</time></trkpt><trkpt lat="45.38584260093585" lon="9.213104877047229"><ele>97.6</ele><time>2026-05-03T15:40:54Z</time></trkpt><trkpt lat="45.385717158630335" lon="9.213085812214914"><ele>97.4</ele><time>2026-05-03T15:40:56Z</time></trkpt><trkpt lat="45.38565769027353" lon="9.21303422204214"><ele>97.19999999999999</ele><time>2026-05-03T15:40:57Z</time></trkpt><trkpt lat="45.38558890360452" lon="9.213001522123133"><ele>97.0</ele><time>2026-05-03T15:40:58Z</time></trkpt><trkpt lat="45.38546394725298" lon="9.212991730401372"><ele>97.00000000000001</ele><time>2026-05-03T15:41:00Z</time></trkpt><trkpt lat="45.38540203832598" lon="9.213008094489124"><ele>97.0</ele><time>2026-05-03T15:41:01Z</time></trkpt><trkpt lat="45.38529067496017" lon="9.213007822664586"><ele>97.0</ele><time>2026-05-03T15:41:03Z</time></trkpt><trkpt lat="45.38522663132051" lon="9.213020033179982"><ele>97.0</ele><time>2026-05-03T15:41:04Z</time></trkpt><trkpt lat="45.38512949750036" lon="9.213012687610972"><ele>97.00000000000001</ele><time>2026-05-03T15:41:06Z</time></trkpt><trkpt lat="45.385035797938215" lon="9.213011521818112"><ele>97.0</ele><time>2026-05-03T15:41:08Z</time></trkpt><trkpt lat="45.38495165852431" lon="9.213012160040151"><ele>97.0</ele><time>2026-05-03T15:41:10Z</time></trkpt><trkpt lat="45.3848725801001" lon="9.21300780433952"><ele>97.0</ele><time>2026-05-03T15:41:12Z</time></trkpt><trkpt lat="45.38479969695556" lon="9.213013751646935"><ele>97.0</ele><time>2026-05-03T15:41:14Z</time></trkpt><trkpt lat="45.38473356797089" lon="9.21300961399431"><ele>97.0</ele><time>2026-05-03T15:41:16Z</time></trkpt><trkpt lat="45.38466545009923" lon="9.213006547916843"><ele>97.0</ele><time>2026-05-03T15:41:18Z</time></trkpt><trkpt lat="45.384591499874524" lon="9.21300258641532"><ele>97.0</ele><time>2026-05-03T15:41:20Z</time></trkpt><trkpt lat="45.384517278881425" lon="9.213000420292142"><ele>97.0</ele><time>2026-05-03T15:41:22Z</time></trkpt><trkpt lat="45.38444203828065" lon="9.212999880213088"><ele>97.28571428571428</ele><time>2026-05-03T15:41:24Z</time></trkpt><trkpt lat="45.384370628877086" lon="9.212997977009511"><ele>97.57142857142858</ele><time>2026-05-03T15:41:26.001Z</time></trkpt><trkpt lat="45.384293926234584" lon="9.213003672204264"><ele>97.85714285714286</ele><time>2026-05-03T15:41:28.001Z</time></trkpt><trkpt lat="45.3842246371484" lon="9.2130025342791"><ele>98.14285714285714</ele><time>2026-05-03T15:41:30.001Z</time></trkpt><trkpt lat="45.384155566142034" lon="9.212997466340527"><ele>98.42857142857142</ele><time>2026-05-03T15:41:32.001Z</time></trkpt><trkpt lat="45.38408659752346" lon="9.212997620466794"><ele>98.71428571428572</ele><time>2026-05-03T15:41:34.001Z</time></trkpt><trkpt lat="45.38401678072697" lon="9.212999077779044"><ele>99.0</ele><time>2026-05-03T15:41:36.001Z</time></trkpt><trkpt lat="45.383945867416024" lon="9.212996370720719"><ele>99.0</ele><time>2026-05-03T15:41:38.001Z</time></trkpt><trkpt lat="45.38387718561398" lon="9.212992020856017"><ele>99.0</ele><time>2026-05-03T15:41:40.001Z</time></trkpt><trkpt lat="45.38380302547952" lon="9.21302546409406"><ele>99.0</ele><time>2026-05-03T15:41:43.001Z</time></trkpt><trkpt lat="45.38372008155662" lon="9.213016771153029"><ele>99.0</ele><time>2026-05-03T15:44:18.001Z</time></trkpt><trkpt lat="45.3836354545602" lon="9.213017536573258"><ele>99.0</ele><time>2026-05-03T15:44:21Z</time></trkpt><trkpt lat="45.38356519939227" lon="9.2130210406929"><ele>99.0</ele><time>2026-05-03T15:44:23Z</time></trkpt><trkpt lat="45.38349802606135" lon="9.21302236386066"><ele>99.33333333333333</ele><time>2026-05-03T15:44:25Z</time></trkpt><trkpt lat="45.38342410091906" lon="9.21301554730322"><ele>99.66666666666666</ele><time>2026-05-03T15:44:27Z</time></trkpt><trkpt lat="45.38332981655996" lon="9.213015856393751"><ele>100.0</ele><time>2026-05-03T15:44:30Z</time></trkpt><trkpt lat="45.38325761813593" lon="9.213010086203571"><ele>100.33333333333333</ele><time>2026-05-03T15:44:32Z</time></trkpt><trkpt lat="45.38318436835805" lon="9.213009173660438"><ele>100.66666666666666</ele><time>2026-05-03T15:44:34Z</time></trkpt><trkpt lat="45.383114517446046" lon="9.213008340200728"><ele>101.0</ele><time>2026-05-03T15:44:36Z</time></trkpt><trkpt lat="45.38304802296104" lon="9.213009928163064"><ele>101.14285714285714</ele><time>2026-05-03T15:44:38Z</time></trkpt><trkpt lat="45.382980116847264" lon="9.213012786050443"><ele>101.28571428571428</ele><time>2026-05-03T15:44:40Z</time></trkpt><trkpt lat="45.382915097641366" lon="9.213001564294348"><ele>101.42857142857143</ele><time>2026-05-03T15:44:42Z</time></trkpt><trkpt lat="45.38285513275805" lon="9.212960269773543"><ele>101.57142857142857</ele><time>2026-05-03T15:44:44Z</time></trkpt><trkpt lat="45.38282178339434" lon="9.212875396498596"><ele>101.71428571428572</ele><time>2026-05-03T15:44:46Z</time></trkpt><trkpt lat="45.382813515580864" lon="9.212778647886125"><ele>101.85714285714286</ele><time>2026-05-03T15:44:48Z</time></trkpt><trkpt lat="45.382808270520414" lon="9.212687375656795"><ele>102.0</ele><time>2026-05-03T15:44:50Z</time></trkpt><trkpt lat="45.38280030955034" lon="9.21259138544554"><ele>102.0</ele><time>2026-05-03T15:44:52Z</time></trkpt><trkpt lat="45.3827941890621" lon="9.212461922270581"><ele>102.0</ele><time>2026-05-03T15:44:55Z</time></trkpt><trkpt lat="45.38278906782778" lon="9.212371524934772"><ele>102.0</ele><time>2026-05-03T15:44:57Z</time></trkpt><trkpt lat="45.382782471364415" lon="9.212259752289096"><ele>102.0</ele><time>2026-05-03T15:45:00Z</time></trkpt><trkpt lat="45.382712071629705" lon="9.212226424279615"><ele>102.0</ele><time>2026-05-03T15:45:12Z</time></trkpt><trkpt lat="45.38264773415061" lon="9.212259198879654"><ele>102.0</ele><time>2026-05-03T15:45:26Z</time></trkpt><trkpt lat="45.38263135771525" lon="9.212346128128459"><ele>102.0</ele><time>2026-05-03T15:45:33Z</time></trkpt><trkpt lat="45.38262116777105" lon="9.212446736120919"><ele>102.0</ele><time>2026-05-03T15:45:38Z</time></trkpt><trkpt lat="45.38261244058123" lon="9.212555085587022"><ele>102.0</ele><time>2026-05-03T15:45:42Z</time></trkpt><trkpt lat="45.38259571757327" lon="9.212663807833618"><ele>102.0</ele><time>2026-05-03T15:45:45Z</time></trkpt><trkpt lat="45.38256414006867" lon="9.212772681829609"><ele>102.0</ele><time>2026-05-03T15:45:48Z</time></trkpt><trkpt lat="45.38250360820926" lon="9.21285300307385"><ele>102.0</ele><time>2026-05-03T15:45:51Z</time></trkpt><trkpt lat="45.38242307491085" lon="9.212919118524086"><ele>102.0</ele><time>2026-05-03T15:45:54Z</time></trkpt><trkpt lat="45.38233774803904" lon="9.212929514146191"><ele>102.0</ele><time>2026-05-03T15:45:57Z</time></trkpt><trkpt lat="45.382249836937575" lon="9.21293697059917"><ele>102.0</ele><time>2026-05-03T15:46:00Z</time></trkpt><trkpt lat="45.38215586073024" lon="9.212929441027926"><ele>102.0</ele><time>2026-05-03T15:46:03.001Z</time></trkpt><trkpt lat="45.3820927028762" lon="9.21292836838112"><ele>102.0</ele><time>2026-05-03T15:46:05.001Z</time></trkpt><trkpt lat="45.38202434195166" lon="9.212928963748212"><ele>102.0</ele><time>2026-05-03T15:46:07.001Z</time></trkpt><trkpt lat="45.381950443002026" lon="9.212925818636485"><ele>102.0</ele><time>2026-05-03T15:46:09.001Z</time></trkpt><trkpt lat="45.38188110029241" lon="9.212926742157846"><ele>101.57142857142857</ele><time>2026-05-03T15:46:11.001Z</time></trkpt><trkpt lat="45.3818176141676" lon="9.21292750081847"><ele>101.14285714285714</ele><time>2026-05-03T15:46:13.001Z</time></trkpt><trkpt lat="45.38175434712456" lon="9.21292944247768"><ele>100.71428571428572</ele><time>2026-05-03T15:46:15.001Z</time></trkpt><trkpt lat="45.38168389039199" lon="9.212928379661202"><ele>100.28571428571428</ele><time>2026-05-03T15:46:17.001Z</time></trkpt><trkpt lat="45.38161781605819" lon="9.212925803690078"><ele>99.85714285714285</ele><time>2026-05-03T15:46:19.001Z</time></trkpt><trkpt lat="45.38152495731032" lon="9.212925360903311"><ele>99.42857142857143</ele><time>2026-05-03T15:46:22.001Z</time></trkpt><trkpt lat="45.381441903434755" lon="9.2129266849623"><ele>99.0</ele><time>2026-05-03T15:46:25Z</time></trkpt><trkpt lat="45.381364866481306" lon="9.212920364245063"><ele>99.0</ele><time>2026-05-03T15:46:28Z</time></trkpt><trkpt lat="45.38129842891718" lon="9.212907276832325"><ele>99.0</ele><time>2026-05-03T15:46:31Z</time></trkpt><trkpt lat="45.381232439235816" lon="9.212875858045981"><ele>99.0</ele><time>2026-05-03T15:46:34Z</time></trkpt><trkpt lat="45.38116791282327" lon="9.21287125157495"><ele>99.0</ele><time>2026-05-03T15:46:36Z</time></trkpt><trkpt lat="45.3810914732394" lon="9.212862021099468"><ele>99.0</ele><time>2026-05-03T15:46:38Z</time></trkpt><trkpt lat="45.38102112821417" lon="9.212854896491352"><ele>99.0</ele><time>2026-05-03T15:46:40Z</time></trkpt><trkpt lat="45.38094782922973" lon="9.212845509614814"><ele>99.0</ele><time>2026-05-03T15:46:42Z</time></trkpt><trkpt lat="45.380876425423516" lon="9.212834651025188"><ele>99.0</ele><time>2026-05-03T15:46:44Z</time></trkpt><trkpt lat="45.38079437592149" lon="9.212816065816138"><ele>99.0</ele><time>2026-05-03T15:46:46Z</time></trkpt><trkpt lat="45.38071540015083" lon="9.212807118165136"><ele>99.0</ele><time>2026-05-03T15:46:48Z</time></trkpt><trkpt lat="45.380641510794895" lon="9.212805212396567"><ele>99.0</ele><time>2026-05-03T15:46:50Z</time></trkpt><trkpt lat="45.38056249426013" lon="9.212791513229867"><ele>99.0</ele><time>2026-05-03T15:46:52Z</time></trkpt><trkpt lat="45.380490216976895" lon="9.212770938429804"><ele>99.0</ele><time>2026-05-03T15:46:54Z</time></trkpt><trkpt lat="45.38041854851143" lon="9.21274792530162"><ele>99.0</ele><time>2026-05-03T15:46:56Z</time></trkpt><trkpt lat="45.380339723053225" lon="9.212723761908853"><ele>99.0</ele><time>2026-05-03T15:46:58Z</time></trkpt><trkpt lat="45.380268919096316" lon="9.212700424295694"><ele>99.0</ele><time>2026-05-03T15:47:00Z</time></trkpt><trkpt lat="45.380202849843" lon="9.21267838145642"><ele>99.0</ele><time>2026-05-03T15:47:02Z</time></trkpt><trkpt lat="45.38014063758194" lon="9.21265828259766"><ele>99.0</ele><time>2026-05-03T15:47:04Z</time></trkpt><trkpt lat="45.38005563213397" lon="9.212632765112735"><ele>99.0</ele><time>2026-05-03T15:47:07Z</time></trkpt><trkpt lat="45.37999307140076" lon="9.212617898488823"><ele>99.0</ele><time>2026-05-03T15:47:09Z</time></trkpt><trkpt lat="45.37990113652322" lon="9.21259508276364"><ele>99.0</ele><time>2026-05-03T15:47:12Z</time></trkpt><trkpt lat="45.379814483099494" lon="9.2125764851654"><ele>99.0</ele><time>2026-05-03T15:47:15Z</time></trkpt><trkpt lat="45.379761189114504" lon="9.212519198999383"><ele>99.0</ele><time>2026-05-03T15:47:19Z</time></trkpt><trkpt lat="45.379693086170846" lon="9.212472740996018"><ele>99.0</ele><time>2026-05-03T15:47:24.001Z</time></trkpt><trkpt lat="45.37962614259462" lon="9.212459104955087"><ele>99.0</ele><time>2026-05-03T15:47:28.001Z</time></trkpt><trkpt lat="45.379584692795795" lon="9.212543851161115"><ele>99.0</ele><time>2026-05-03T15:47:32.001Z</time></trkpt><trkpt lat="45.379534903329265" lon="9.21260186584035"><ele>99.0</ele><time>2026-05-03T15:47:35.001Z</time></trkpt><trkpt lat="45.37945064885402" lon="9.212613663881815"><ele>99.0</ele><time>2026-05-03T15:47:39.001Z</time></trkpt><trkpt lat="45.37941829643938" lon="9.212703352406956"><ele>99.0</ele><time>2026-05-03T15:47:44.001Z</time></trkpt><trkpt lat="45.379401201056766" lon="9.212803219367274"><ele>99.0</ele><time>2026-05-03T15:47:50.001Z</time></trkpt><trkpt lat="45.37941443601462" lon="9.212891103671822"><ele>99.0</ele><time>2026-05-03T15:47:53.001Z</time></trkpt><trkpt lat="45.37943125912092" lon="9.213012417013621"><ele>99.0</ele><time>2026-05-03T15:47:57.001Z</time></trkpt><trkpt lat="45.3794362353954" lon="9.213104384305021"><ele>99.0</ele><time>2026-05-03T15:48:00.001Z</time></trkpt><trkpt lat="45.37942809679461" lon="9.213196352865973"><ele>99.0</ele><time>2026-05-03T15:48:03.001Z</time></trkpt><trkpt lat="45.379418662148176" lon="9.213291507692755"><ele>99.0</ele><time>2026-05-03T15:48:06.001Z</time></trkpt><trkpt lat="45.37940604208357" lon="9.213388585242942"><ele>99.0</ele><time>2026-05-03T15:48:10.001Z</time></trkpt><trkpt lat="45.37934836175537" lon="9.213437430135103"><ele>99.0</ele><time>2026-05-03T15:48:14.001Z</time></trkpt><trkpt lat="45.37930070970374" lon="9.213543368214626"><ele>99.0</ele><time>2026-05-03T15:48:17.001Z</time></trkpt><trkpt lat="45.37926850174798" lon="9.213640984386227"><ele>99.0</ele><time>2026-05-03T15:48:20.001Z</time></trkpt><trkpt lat="45.37927045829584" lon="9.213739495673854"><ele>99.0</ele><time>2026-05-03T15:48:23.001Z</time></trkpt><trkpt lat="45.379234794264555" lon="9.213822583520418"><ele>99.0</ele><time>2026-05-03T15:48:26.001Z</time></trkpt><trkpt lat="45.37922187652446" lon="9.213938830180993"><ele>99.0</ele><time>2026-05-03T15:48:30.001Z</time></trkpt><trkpt lat="45.37924702347791" lon="9.214048646705505"><ele>99.0</ele><time>2026-05-03T15:48:33Z</time></trkpt><trkpt lat="45.379211153625" lon="9.21413965106604"><ele>99.0</ele><time>2026-05-03T15:48:37Z</time></trkpt><trkpt lat="45.37913435743265" lon="9.214148444764383"><ele>99.0</ele><time>2026-05-03T15:48:40Z</time></trkpt><trkpt lat="45.37904589082731" lon="9.214146776179254"><ele>99.0</ele><time>2026-05-03T15:48:43Z</time></trkpt><trkpt lat="45.37897787414458" lon="9.214190299145798"><ele>99.0</ele><time>2026-05-03T15:48:46Z</time></trkpt><trkpt lat="45.378916865465236" lon="9.214107166314795"><ele>99.0</ele><time>2026-05-03T15:48:50Z</time></trkpt><trkpt lat="45.378854662853634" lon="9.214068529915986"><ele>99.0</ele><time>2026-05-03T15:48:54Z</time></trkpt><trkpt lat="45.378840179878374" lon="9.213956818208494"><ele>99.0</ele><time>2026-05-03T15:53:30Z</time></trkpt><trkpt lat="45.3787826208313" lon="9.213880941687497"><ele>99.0</ele><time>2026-05-03T15:53:36Z</time></trkpt><trkpt lat="45.37871090431689" lon="9.213889630655293"><ele>99.0</ele><time>2026-05-03T15:53:56Z</time></trkpt><trkpt lat="45.378639498722805" lon="9.213868865417306"><ele>99.0</ele><time>2026-05-03T15:54:02.001Z</time></trkpt><trkpt lat="45.37856348531094" lon="9.213867078449402"><ele>99.0</ele><time>2026-05-03T15:54:08.001Z</time></trkpt><trkpt lat="45.37848251230608" lon="9.213872368393757"><ele>99.0</ele><time>2026-05-03T15:54:13.001Z</time></trkpt><trkpt lat="45.37841821299308" lon="9.213869204322975"><ele>99.0</ele><time>2026-05-03T15:54:18.001Z</time></trkpt><trkpt lat="45.37837874783472" lon="9.213778387239"><ele>99.0</ele><time>2026-05-03T15:54:23.001Z</time></trkpt><trkpt lat="45.3783737926497" lon="9.213665279197146"><ele>99.0</ele><time>2026-05-03T15:54:27.001Z</time></trkpt><trkpt lat="45.37838423579932" lon="9.213560362474782"><ele>99.0</ele><time>2026-05-03T15:54:30.001Z</time></trkpt><trkpt lat="45.37832107394959" lon="9.213516125781808"><ele>99.0</ele><time>2026-05-03T15:54:33.001Z</time></trkpt><trkpt lat="45.37826060341214" lon="9.21346815811581"><ele>99.0</ele><time>2026-05-03T15:54:37.001Z</time></trkpt><trkpt lat="45.378179664323305" lon="9.213458022635033"><ele>99.0</ele><time>2026-05-03T15:54:41.001Z</time></trkpt><trkpt lat="45.37810118453312" lon="9.213448267243967"><ele>99.0</ele><time>2026-05-03T15:54:45.001Z</time></trkpt><trkpt lat="45.37801747225858" lon="9.213431627655828"><ele>99.0</ele><time>2026-05-03T15:54:49Z</time></trkpt><trkpt lat="45.3779433274269" lon="9.213421761794297"><ele>99.0</ele><time>2026-05-03T15:54:52Z</time></trkpt><trkpt lat="45.3778800807754" lon="9.213404563093357"><ele>99.0</ele><time>2026-05-03T15:54:55Z</time></trkpt><trkpt lat="45.377817047776986" lon="9.21339791986756"><ele>99.0</ele><time>2026-05-03T15:54:58Z</time></trkpt><trkpt lat="45.37774435876964" lon="9.213375533435192"><ele>99.0</ele><time>2026-05-03T15:55:01Z</time></trkpt><trkpt lat="45.3776767794254" lon="9.213358741962294"><ele>99.42857142857143</ele><time>2026-05-03T15:55:05Z</time></trkpt><trkpt lat="45.37761367065168" lon="9.213361280659658"><ele>99.85714285714285</ele><time>2026-05-03T15:55:12Z</time></trkpt><trkpt lat="45.377543424691886" lon="9.213353803525973"><ele>100.28571428571428</ele><time>2026-05-03T15:55:17Z</time></trkpt><trkpt lat="45.37745845376321" lon="9.213341033211902"><ele>100.71428571428572</ele><time>2026-05-03T15:55:31Z</time></trkpt><trkpt lat="45.37739323905327" lon="9.213328580531554"><ele>101.14285714285714</ele><time>2026-05-03T15:55:34Z</time></trkpt><trkpt lat="45.37730554091295" lon="9.21329381633633"><ele>101.57142857142857</ele><time>2026-05-03T15:55:39Z</time></trkpt><trkpt lat="45.37723893949853" lon="9.213252291396214"><ele>102.0</ele><time>2026-05-03T15:55:42Z</time></trkpt><trkpt lat="45.37717072596054" lon="9.213252681449912"><ele>102.0</ele><time>2026-05-03T15:55:45Z</time></trkpt><trkpt lat="45.37708998402521" lon="9.213249784215638"><ele>102.0</ele><time>2026-05-03T15:55:48Z</time></trkpt><trkpt lat="45.37702590942437" lon="9.213238274776659"><ele>102.0</ele><time>2026-05-03T15:55:50Z</time></trkpt><trkpt lat="45.376952235456606" lon="9.213231255372055"><ele>102.0</ele><time>2026-05-03T15:55:52Z</time></trkpt><trkpt lat="45.37688125420041" lon="9.213207064246143"><ele>102.0</ele><time>2026-05-03T15:55:54Z</time></trkpt><trkpt lat="45.37681115461034" lon="9.21319610064832"><ele>102.0</ele><time>2026-05-03T15:55:56Z</time></trkpt><trkpt lat="45.376736572141226" lon="9.213193970321008"><ele>102.0</ele><time>2026-05-03T15:55:58Z</time></trkpt><trkpt lat="45.3766643465268" lon="9.213185119861578"><ele>102.0</ele><time>2026-05-03T15:56:00Z</time></trkpt><trkpt lat="45.376589362816716" lon="9.213171703085061"><ele>102.0</ele><time>2026-05-03T15:56:02Z</time></trkpt><trkpt lat="45.376508024283275" lon="9.213151065388598"><ele>102.0</ele><time>2026-05-03T15:56:04Z</time></trkpt><trkpt lat="45.37643114255883" lon="9.213122388035428"><ele>102.0</ele><time>2026-05-03T15:56:06.001Z</time></trkpt><trkpt lat="45.376368169542616" lon="9.213117323705394"><ele>102.0</ele><time>2026-05-03T15:56:08.001Z</time></trkpt><trkpt lat="45.37629568987435" lon="9.213113402494177"><ele>102.0</ele><time>2026-05-03T15:56:10.001Z</time></trkpt><trkpt lat="45.376220082414534" lon="9.213106244286186"><ele>102.0</ele><time>2026-05-03T15:56:12.001Z</time></trkpt><trkpt lat="45.376145500707246" lon="9.213097612562601"><ele>102.0</ele><time>2026-05-03T15:56:14.001Z</time></trkpt><trkpt lat="45.376071598227874" lon="9.213085751383076"><ele>102.0</ele><time>2026-05-03T15:56:16.001Z</time></trkpt><trkpt lat="45.37599449031331" lon="9.213071416966391"><ele>102.0</ele><time>2026-05-03T15:56:18.001Z</time></trkpt><trkpt lat="45.37591576420193" lon="9.213058460739655"><ele>102.0</ele><time>2026-05-03T15:56:20.001Z</time></trkpt><trkpt lat="45.37583906093779" lon="9.213045536057134"><ele>102.0</ele><time>2026-05-03T15:56:22.001Z</time></trkpt><trkpt lat="45.375760644988695" lon="9.213029201956441"><ele>102.0</ele><time>2026-05-03T15:56:24.001Z</time></trkpt><trkpt lat="45.37568074618691" lon="9.213014282171589"><ele>102.0</ele><time>2026-05-03T15:56:26.001Z</time></trkpt><trkpt lat="45.375601258690125" lon="9.213005184163375"><ele>102.0</ele><time>2026-05-03T15:56:28.001Z</time></trkpt><trkpt lat="45.375521775024325" lon="9.21299132071163"><ele>102.0</ele><time>2026-05-03T15:56:30.001Z</time></trkpt><trkpt lat="45.37544471212809" lon="9.212978568967078"><ele>102.0</ele><time>2026-05-03T15:56:32.001Z</time></trkpt><trkpt lat="45.37536793987587" lon="9.212967096912502"><ele>102.0</ele><time>2026-05-03T15:56:34.001Z</time></trkpt><trkpt lat="45.37529387543262" lon="9.21295898734117"><ele>102.0</ele><time>2026-05-03T15:56:36.001Z</time></trkpt><trkpt lat="45.37521656011704" lon="9.212950183785871"><ele>101.5</ele><time>2026-05-03T15:56:39.001Z</time></trkpt><trkpt lat="45.37515132125802" lon="9.212941284557584"><ele>101.0</ele><time>2026-05-03T15:56:42.001Z</time></trkpt><trkpt lat="45.37506986922236" lon="9.212939241746472"><ele>100.5</ele><time>2026-05-03T15:56:46.001Z</time></trkpt><trkpt lat="45.374990556833026" lon="9.212900983962577"><ele>100.0</ele><time>2026-05-03T15:56:49.001Z</time></trkpt><trkpt lat="45.37495719702907" lon="9.21279453979544"><ele>99.5</ele><time>2026-05-03T15:56:52.001Z</time></trkpt><trkpt lat="45.37494557522282" lon="9.21270620734931"><ele>99.0</ele><time>2026-05-03T15:56:54.001Z</time></trkpt><trkpt lat="45.374927475042064" lon="9.212583858148191"><ele>99.0</ele><time>2026-05-03T15:56:57Z</time></trkpt><trkpt lat="45.37490439637844" lon="9.212491623760162"><ele>99.0</ele><time>2026-05-03T15:56:59Z</time></trkpt><trkpt lat="45.37486849323263" lon="9.21240314510769"><ele>99.0</ele><time>2026-05-03T15:57:01Z</time></trkpt><trkpt lat="45.37481501879104" lon="9.21233238894069"><ele>99.0</ele><time>2026-05-03T15:57:03Z</time></trkpt><trkpt lat="45.37474458947666" lon="9.212245817891578"><ele>99.0</ele><time>2026-05-03T15:57:06Z</time></trkpt><trkpt lat="45.374655999356115" lon="9.2122352631235"><ele>99.0</ele><time>2026-05-03T15:57:09Z</time></trkpt><trkpt lat="45.37459239115321" lon="9.212230282853216"><ele>99.14285714285715</ele><time>2026-05-03T15:57:11Z</time></trkpt><trkpt lat="45.37452364368077" lon="9.212243091261255"><ele>99.28571428571428</ele><time>2026-05-03T15:57:13Z</time></trkpt><trkpt lat="45.37445790259686" lon="9.212260115465872"><ele>99.42857142857143</ele><time>2026-05-03T15:57:15Z</time></trkpt><trkpt lat="45.374395109524215" lon="9.212281981344976"><ele>99.57142857142858</ele><time>2026-05-03T15:57:17Z</time></trkpt><trkpt lat="45.374321487087926" lon="9.212265907332656"><ele>99.71428571428572</ele><time>2026-05-03T15:57:19Z</time></trkpt><trkpt lat="45.37424699504668" lon="9.21229280203251"><ele>99.85714285714286</ele><time>2026-05-03T15:57:21Z</time></trkpt><trkpt lat="45.374175768782564" lon="9.212320496134994"><ele>100.0</ele><time>2026-05-03T15:57:23Z</time></trkpt><trkpt lat="45.374108393623935" lon="9.212348657019653"><ele>100.00000000000001</ele><time>2026-05-03T15:57:25Z</time></trkpt><trkpt lat="45.374025533417914" lon="9.212373000491269"><ele>100.0</ele><time>2026-05-03T15:57:28Z</time></trkpt><trkpt lat="45.37394103044647" lon="9.21240742143095"><ele>100.0</ele><time>2026-05-03T15:57:32Z</time></trkpt><trkpt lat="45.37386209241929" lon="9.212452542535173"><ele>100.0</ele><time>2026-05-03T15:57:35Z</time></trkpt><trkpt lat="45.37378148932436" lon="9.212482073244875"><ele>100.00000000000001</ele><time>2026-05-03T15:57:38Z</time></trkpt><trkpt lat="45.373695959461465" lon="9.212512919696525"><ele>100.0</ele><time>2026-05-03T15:57:41Z</time></trkpt><trkpt lat="45.373609923054254" lon="9.212545246972256"><ele>100.16666666666667</ele><time>2026-05-03T15:57:44Z</time></trkpt><trkpt lat="45.37352097596077" lon="9.212579949955867"><ele>100.33333333333334</ele><time>2026-05-03T15:57:47Z</time></trkpt><trkpt lat="45.37347923110825" lon="9.212682155949569"><ele>100.5</ele><time>2026-05-03T15:57:50Z</time></trkpt><trkpt lat="45.373501815216805" lon="9.212769503047051"><ele>100.66666666666666</ele><time>2026-05-03T15:57:52Z</time></trkpt><trkpt lat="45.37352321241645" lon="9.212889788610358"><ele>100.83333333333333</ele><time>2026-05-03T15:57:55Z</time></trkpt><trkpt lat="45.37354431294786" lon="9.212986913927137"><ele>101.0</ele><time>2026-05-03T15:57:58Z</time></trkpt><trkpt lat="45.373505213171875" lon="9.213058267625753"><ele>101.0</ele><time>2026-05-03T15:58:09.001Z</time></trkpt><trkpt lat="45.373450375040605" lon="9.21310251858161"><ele>101.0</ele><time>2026-05-03T15:58:13.001Z</time></trkpt><trkpt lat="45.37350586558644" lon="9.213037572790139"><ele>101.0</ele><time>2026-05-03T16:17:46.002Z</time></trkpt><trkpt lat="45.37356713343286" lon="9.213103147009138"><ele>101.0</ele><time>2026-05-03T16:17:57.001Z</time></trkpt><trkpt lat="45.37357670326304" lon="9.213216875896222"><ele>101.0</ele><time>2026-05-03T16:18:02.001Z</time></trkpt><trkpt lat="45.373598608299986" lon="9.21330680525734"><ele>101.0</ele><time>2026-05-03T16:18:06.001Z</time></trkpt><trkpt lat="45.37361906706149" lon="9.21342737551646"><ele>101.0</ele><time>2026-05-03T16:18:10.001Z</time></trkpt><trkpt lat="45.37367609683484" lon="9.213490146154456"><ele>101.14285714285714</ele><time>2026-05-03T16:18:14.001Z</time></trkpt><trkpt lat="45.373742079128064" lon="9.213515709730215"><ele>101.28571428571428</ele><time>2026-05-03T16:18:17.001Z</time></trkpt><trkpt lat="45.37380326827559" lon="9.213483863401182"><ele>101.42857142857143</ele><time>2026-05-03T16:18:20.001Z</time></trkpt><trkpt lat="45.373876658946216" lon="9.213455747151887"><ele>101.57142857142857</ele><time>2026-05-03T16:18:24.001Z</time></trkpt><trkpt lat="45.37395643024955" lon="9.213435939113642"><ele>101.71428571428572</ele><time>2026-05-03T16:18:28.001Z</time></trkpt><trkpt lat="45.3740340039743" lon="9.213425264691425"><ele>101.85714285714286</ele><time>2026-05-03T16:18:32.001Z</time></trkpt><trkpt lat="45.37410290546659" lon="9.21343354323869"><ele>102.0</ele><time>2026-05-03T16:18:36.001Z</time></trkpt><trkpt lat="45.374165848290254" lon="9.213473948339582"><ele>101.71428571428572</ele><time>2026-05-03T16:18:39.001Z</time></trkpt><trkpt lat="45.374196956437004" lon="9.213556738478761"><ele>101.42857142857143</ele><time>2026-05-03T16:18:43.001Z</time></trkpt><trkpt lat="45.37423257993131" lon="9.21365988241625"><ele>101.14285714285714</ele><time>2026-05-03T16:18:48.001Z</time></trkpt><trkpt lat="45.374264191396584" lon="9.213755686202935"><ele>100.85714285714286</ele><time>2026-05-03T16:18:52.001Z</time></trkpt><trkpt lat="45.37427805690779" lon="9.213845521673518"><ele>100.57142857142857</ele><time>2026-05-03T16:18:56.001Z</time></trkpt><trkpt lat="45.37430357991288" lon="9.213937654998448"><ele>100.28571428571429</ele><time>2026-05-03T16:18:58.001Z</time></trkpt><trkpt lat="45.374332288758275" lon="9.214050743287094"><ele>100.0</ele><time>2026-05-03T16:19:01.001Z</time></trkpt><trkpt lat="45.37436086102841" lon="9.214167499241857"><ele>100.00000000000001</ele><time>2026-05-03T16:19:04.001Z</time></trkpt><trkpt lat="45.374386865052685" lon="9.214281524270813"><ele>100.0</ele><time>2026-05-03T16:19:07.001Z</time></trkpt><trkpt lat="45.37443085902725" lon="9.21434813594112"><ele>100.0</ele><time>2026-05-03T16:19:10.001Z</time></trkpt><trkpt lat="45.3744964228539" lon="9.214379159172667"><ele>100.0</ele><time>2026-05-03T16:19:15.001Z</time></trkpt><trkpt lat="45.37457145561422" lon="9.214360303848286"><ele>100.00000000000001</ele><time>2026-05-03T16:19:18.001Z</time></trkpt><trkpt lat="45.37465225035257" lon="9.214336663092688"><ele>100.0</ele><time>2026-05-03T16:19:22.001Z</time></trkpt><trkpt lat="45.37473235590373" lon="9.21431335324305"><ele>100.00000000000001</ele><time>2026-05-03T16:19:25.001Z</time></trkpt><trkpt lat="45.374791837705416" lon="9.214283747368263"><ele>100.0</ele><time>2026-05-03T16:19:27.001Z</time></trkpt><trkpt lat="45.374883109077466" lon="9.214263676600439"><ele>100.0</ele><time>2026-05-03T16:19:30.001Z</time></trkpt><trkpt lat="45.37496729965847" lon="9.214246600052121"><ele>100.0</ele><time>2026-05-03T16:19:33.001Z</time></trkpt><trkpt lat="45.3750181063475" lon="9.214314683577106"><ele>100.00000000000001</ele><time>2026-05-03T16:19:36.002Z</time></trkpt><trkpt lat="45.37508852133129" lon="9.21435831410921"><ele>100.0</ele><time>2026-05-03T16:19:39.002Z</time></trkpt><trkpt lat="45.37515843077812" lon="9.21441819948358"><ele>100.00000000000001</ele><time>2026-05-03T16:19:42.002Z</time></trkpt><trkpt lat="45.37521638731325" lon="9.214478615042774"><ele>100.0</ele><time>2026-05-03T16:19:44.002Z</time></trkpt><trkpt lat="45.37520337282642" lon="9.214588039444964"><ele>100.0</ele><time>2026-05-03T16:19:47.002Z</time></trkpt><trkpt lat="45.37525560114162" lon="9.21466565831371"><ele>100.0</ele><time>2026-05-03T16:19:49.002Z</time></trkpt><trkpt lat="45.37528497244047" lon="9.214770044063245"><ele>100.00000000000001</ele><time>2026-05-03T16:19:52.002Z</time></trkpt><trkpt lat="45.37533619950887" lon="9.214826783319113"><ele>100.0</ele><time>2026-05-03T16:19:55.002Z</time></trkpt><trkpt lat="45.37540930409089" lon="9.214892019304164"><ele>100.16666666666667</ele><time>2026-05-03T16:19:58.001Z</time></trkpt><trkpt lat="45.375447341234214" lon="9.215004174057656"><ele>100.33333333333334</ele><time>2026-05-03T16:20:01.001Z</time></trkpt><trkpt lat="45.37546852836655" lon="9.215124304936523"><ele>100.5</ele><time>2026-05-03T16:20:04.001Z</time></trkpt><trkpt lat="45.37549195217977" lon="9.215251809377142"><ele>100.66666666666666</ele><time>2026-05-03T16:20:07.001Z</time></trkpt><trkpt lat="45.37550951777306" lon="9.21535588847582"><ele>100.83333333333333</ele><time>2026-05-03T16:20:09.001Z</time></trkpt><trkpt lat="45.375525442050844" lon="9.215450303483907"><ele>101.0</ele><time>2026-05-03T16:20:11.001Z</time></trkpt><trkpt lat="45.37555475802253" lon="9.215548681849167"><ele>100.85714285714286</ele><time>2026-05-03T16:20:13.001Z</time></trkpt><trkpt lat="45.375573482569905" lon="9.215658585033083"><ele>100.71428571428571</ele><time>2026-05-03T16:20:15.001Z</time></trkpt><trkpt lat="45.375592096048" lon="9.215755391327958"><ele>100.57142857142858</ele><time>2026-05-03T16:20:17.001Z</time></trkpt><trkpt lat="45.37560428894409" lon="9.215847071881338"><ele>100.42857142857143</ele><time>2026-05-03T16:20:19.001Z</time></trkpt><trkpt lat="45.3756297628806" lon="9.215933693220046"><ele>100.28571428571429</ele><time>2026-05-03T16:20:21.001Z</time></trkpt><trkpt lat="45.37564467755293" lon="9.21606325047249"><ele>100.14285714285715</ele><time>2026-05-03T16:20:24.001Z</time></trkpt><trkpt lat="45.37565760695268" lon="9.21615614561204"><ele>100.0</ele><time>2026-05-03T16:20:26.001Z</time></trkpt><trkpt lat="45.37567611230697" lon="9.216284246933387"><ele>100.00000000000001</ele><time>2026-05-03T16:20:29.001Z</time></trkpt><trkpt lat="45.37569814302545" lon="9.216408605187178"><ele>100.0</ele><time>2026-05-03T16:20:32.001Z</time></trkpt><trkpt lat="45.37571336286056" lon="9.216505761416993"><ele>100.0</ele><time>2026-05-03T16:20:34.001Z</time></trkpt><trkpt lat="45.375724179946246" lon="9.21661900317343"><ele>100.0</ele><time>2026-05-03T16:20:37.001Z</time></trkpt><trkpt lat="45.37572227543978" lon="9.216735816341902"><ele>100.00000000000001</ele><time>2026-05-03T16:20:42.001Z</time></trkpt><trkpt lat="45.375734732101854" lon="9.216840117300384"><ele>100.0</ele><time>2026-05-03T16:20:46.001Z</time></trkpt><trkpt lat="45.3757500361843" lon="9.216977498768681"><ele>100.14285714285715</ele><time>2026-05-03T16:20:49.001Z</time></trkpt><trkpt lat="45.37576306931719" lon="9.217072734140865"><ele>100.28571428571429</ele><time>2026-05-03T16:20:51.001Z</time></trkpt><trkpt lat="45.375776457502916" lon="9.217163887433205"><ele>100.42857142857143</ele><time>2026-05-03T16:20:53.001Z</time></trkpt><trkpt lat="45.37579010422472" lon="9.217253490071258"><ele>100.57142857142858</ele><time>2026-05-03T16:20:55.001Z</time></trkpt><trkpt lat="45.37579988350881" lon="9.217366957793722"><ele>100.71428571428571</ele><time>2026-05-03T16:20:58.001Z</time></trkpt><trkpt lat="45.37582202498557" lon="9.217457665719504"><ele>100.85714285714286</ele><time>2026-05-03T16:21:05.001Z</time></trkpt><trkpt lat="45.375884323567725" lon="9.21749127805256"><ele>101.0</ele><time>2026-05-03T16:21:34.001Z</time></trkpt><trkpt lat="45.37588818604561" lon="9.217586032812592"><ele>101.0</ele><time>2026-05-03T16:21:39.001Z</time></trkpt><trkpt lat="45.375878265643955" lon="9.217702466248278"><ele>101.0</ele><time>2026-05-03T16:21:42.002Z</time></trkpt><trkpt lat="45.37589852757997" lon="9.217821933913829"><ele>101.0</ele><time>2026-05-03T16:21:45.002Z</time></trkpt><trkpt lat="45.37590309874819" lon="9.217934938914027"><ele>101.0</ele><time>2026-05-03T16:21:48.002Z</time></trkpt><trkpt lat="45.375918838060265" lon="9.218072609605693"><ele>101.0</ele><time>2026-05-03T16:21:51.002Z</time></trkpt><trkpt lat="45.375940147606364" lon="9.21821653527264"><ele>100.66666666666666</ele><time>2026-05-03T16:21:53.002Z</time></trkpt><trkpt lat="45.375956073160445" lon="9.218349045576032"><ele>100.33333333333333</ele><time>2026-05-03T16:21:55.002Z</time></trkpt><trkpt lat="45.37598009483089" lon="9.218464016266426"><ele>100.0</ele><time>2026-05-03T16:21:57.002Z</time></trkpt><trkpt lat="45.37599737748227" lon="9.218574940576158"><ele>99.66666666666666</ele><time>2026-05-03T16:21:59.002Z</time></trkpt><trkpt lat="45.37599931352297" lon="9.21868187113578"><ele>99.33333333333333</ele><time>2026-05-03T16:22:01.002Z</time></trkpt><trkpt lat="45.376019296189604" lon="9.218779053146395"><ele>99.0</ele><time>2026-05-03T16:22:03.001Z</time></trkpt><trkpt lat="45.376016858211415" lon="9.218874666349759"><ele>99.0</ele><time>2026-05-03T16:22:05.001Z</time></trkpt><trkpt lat="45.37603647041218" lon="9.218975660020666"><ele>99.0</ele><time>2026-05-03T16:22:07.001Z</time></trkpt><trkpt lat="45.37604890254416" lon="9.219071646750843"><ele>99.0</ele><time>2026-05-03T16:22:09.001Z</time></trkpt><trkpt lat="45.376056142083534" lon="9.21918739929167"><ele>99.0</ele><time>2026-05-03T16:22:12.001Z</time></trkpt><trkpt lat="45.37606764377928" lon="9.219295396260529"><ele>99.0</ele><time>2026-05-03T16:22:15.001Z</time></trkpt><trkpt lat="45.37612386599058" lon="9.219337972700593"><ele>99.0</ele><time>2026-05-03T16:22:18.001Z</time></trkpt><trkpt lat="45.376207386559464" lon="9.219306584627988"><ele>98.66666666666667</ele><time>2026-05-03T16:22:21.001Z</time></trkpt><trkpt lat="45.37627443722958" lon="9.219289954326916"><ele>98.33333333333334</ele><time>2026-05-03T16:22:23.001Z</time></trkpt><trkpt lat="45.37636093773896" lon="9.219252695174948"><ele>98.0</ele><time>2026-05-03T16:22:26.001Z</time></trkpt><trkpt lat="45.376428240469096" lon="9.219233418360977"><ele>97.66666666666667</ele><time>2026-05-03T16:22:28.001Z</time></trkpt><trkpt lat="45.376510989380165" lon="9.219240857193459"><ele>97.33333333333334</ele><time>2026-05-03T16:22:30.001Z</time></trkpt><trkpt lat="45.376611031255784" lon="9.21926184615149"><ele>97.0</ele><time>2026-05-03T16:22:32.001Z</time></trkpt><trkpt lat="45.376724065279284" lon="9.219344003258307"><ele>97.0</ele><time>2026-05-03T16:22:34.001Z</time></trkpt><trkpt lat="45.37682134777141" lon="9.21942176157528"><ele>97.0</ele><time>2026-05-03T16:22:36.001Z</time></trkpt><trkpt lat="45.376915716058974" lon="9.219492239901466"><ele>97.0</ele><time>2026-05-03T16:22:38.001Z</time></trkpt><trkpt lat="45.37701882759941" lon="9.219536830006815"><ele>97.0</ele><time>2026-05-03T16:22:40.001Z</time></trkpt><trkpt lat="45.37711355268381" lon="9.219565601786869"><ele>97.0</ele><time>2026-05-03T16:22:42.001Z</time></trkpt><trkpt lat="45.37719441393182" lon="9.219590439389153"><ele>97.33333333333334</ele><time>2026-05-03T16:22:44.001Z</time></trkpt><trkpt lat="45.377289927661025" lon="9.219601315327422"><ele>97.66666666666667</ele><time>2026-05-03T16:22:47.001Z</time></trkpt><trkpt lat="45.37735997210314" lon="9.219604848132237"><ele>98.0</ele><time>2026-05-03T16:22:49.001Z</time></trkpt><trkpt lat="45.37742533311346" lon="9.219620282313933"><ele>98.33333333333334</ele><time>2026-05-03T16:22:51.001Z</time></trkpt><trkpt lat="45.377496313467084" lon="9.219639107223665"><ele>98.66666666666667</ele><time>2026-05-03T16:22:53.001Z</time></trkpt><trkpt lat="45.377575315966986" lon="9.219645165908743"><ele>99.0</ele><time>2026-05-03T16:22:55.001Z</time></trkpt><trkpt lat="45.37765743085638" lon="9.219630650179505"><ele>99.0</ele><time>2026-05-03T16:22:57.001Z</time></trkpt><trkpt lat="45.37773300504881" lon="9.219598696290424"><ele>99.0</ele><time>2026-05-03T16:22:59.001Z</time></trkpt><trkpt lat="45.3778085629585" lon="9.219570860356502"><ele>99.0</ele><time>2026-05-03T16:23:01.001Z</time></trkpt><trkpt lat="45.377886882179624" lon="9.219523988486237"><ele>99.0</ele><time>2026-05-03T16:23:03.001Z</time></trkpt><trkpt lat="45.37794469555984" lon="9.219459732674794"><ele>99.0</ele><time>2026-05-03T16:23:05.001Z</time></trkpt><trkpt lat="45.3780296826702" lon="9.219394034213005"><ele>99.0</ele><time>2026-05-03T16:23:07.001Z</time></trkpt><trkpt lat="45.378107519585754" lon="9.219326327942648"><ele>99.0</ele><time>2026-05-03T16:23:09.001Z</time></trkpt><trkpt lat="45.378173902978325" lon="9.219259892846903"><ele>99.0</ele><time>2026-05-03T16:23:11.001Z</time></trkpt><trkpt lat="45.37823433731435" lon="9.219189801161686"><ele>99.0</ele><time>2026-05-03T16:23:13.001Z</time></trkpt><trkpt lat="45.378300454002854" lon="9.21912116080907"><ele>99.0</ele><time>2026-05-03T16:23:15.001Z</time></trkpt><trkpt lat="45.378369011669776" lon="9.219039700896849"><ele>99.0</ele><time>2026-05-03T16:23:17.001Z</time></trkpt><trkpt lat="45.37846103506282" lon="9.218961410301082"><ele>99.0</ele><time>2026-05-03T16:23:19.001Z</time></trkpt><trkpt lat="45.37855415276197" lon="9.218874227298636"><ele>99.0</ele><time>2026-05-03T16:23:21.001Z</time></trkpt><trkpt lat="45.3786447108246" lon="9.218801395164835"><ele>99.0</ele><time>2026-05-03T16:23:23.001Z</time></trkpt><trkpt lat="45.378728534618205" lon="9.218756312439085"><ele>99.0</ele><time>2026-05-03T16:23:25.001Z</time></trkpt><trkpt lat="45.37881919358607" lon="9.218736191030011"><ele>99.0</ele><time>2026-05-03T16:23:27.001Z</time></trkpt><trkpt lat="45.378905100825286" lon="9.218737560256605"><ele>99.0</ele><time>2026-05-03T16:23:29.001Z</time></trkpt><trkpt lat="45.37898448494091" lon="9.218762934135485"><ele>99.0</ele><time>2026-05-03T16:23:31.001Z</time></trkpt><trkpt lat="45.37908920174513" lon="9.21880236152194"><ele>99.0</ele><time>2026-05-03T16:23:34.001Z</time></trkpt><trkpt lat="45.37915515869137" lon="9.218851117973736"><ele>99.0</ele><time>2026-05-03T16:23:37.001Z</time></trkpt><trkpt lat="45.37918628592815" lon="9.218935721572226"><ele>99.0</ele><time>2026-05-03T16:23:40.001Z</time></trkpt><trkpt lat="45.37924138667664" lon="9.21898713855696"><ele>99.0</ele><time>2026-05-03T16:23:47.001Z</time></trkpt><trkpt lat="45.379290368759705" lon="9.219078372590007"><ele>99.0</ele><time>2026-05-03T16:23:50.001Z</time></trkpt><trkpt lat="45.37931503549201" lon="9.21916442606568"><ele>99.0</ele><time>2026-05-03T16:23:52.001Z</time></trkpt><trkpt lat="45.37940241041658" lon="9.219151267585094"><ele>99.0</ele><time>2026-05-03T16:23:55.002Z</time></trkpt><trkpt lat="45.37946911288298" lon="9.219151385388551"><ele>99.0</ele><time>2026-05-03T16:23:58.002Z</time></trkpt><trkpt lat="45.37955449212134" lon="9.219110951740587"><ele>99.0</ele><time>2026-05-03T16:24:01.002Z</time></trkpt><trkpt lat="45.379622723458915" lon="9.219100497614729"><ele>99.0</ele><time>2026-05-03T16:24:03.002Z</time></trkpt><trkpt lat="45.37968872709689" lon="9.219084931393748"><ele>99.0</ele><time>2026-05-03T16:24:05.002Z</time></trkpt><trkpt lat="45.37978496517421" lon="9.219061774790596"><ele>99.16666666666667</ele><time>2026-05-03T16:24:08.002Z</time></trkpt><trkpt lat="45.379860798044724" lon="9.219047090442743"><ele>99.33333333333334</ele><time>2026-05-03T16:24:10.001Z</time></trkpt><trkpt lat="45.37993490382759" lon="9.219024999610374"><ele>99.5</ele><time>2026-05-03T16:24:12.001Z</time></trkpt><trkpt lat="45.3800063316731" lon="9.219015447543462"><ele>99.66666666666667</ele><time>2026-05-03T16:24:14.001Z</time></trkpt><trkpt lat="45.38007713632139" lon="9.218999808036733"><ele>99.83333333333334</ele><time>2026-05-03T16:24:16.001Z</time></trkpt><trkpt lat="45.38015690756994" lon="9.218981447743065"><ele>100.0</ele><time>2026-05-03T16:24:18.001Z</time></trkpt><trkpt lat="45.38023237391792" lon="9.218963813997464"><ele>100.00000000000001</ele><time>2026-05-03T16:24:20.001Z</time></trkpt><trkpt lat="45.38030719735545" lon="9.218951756148682"><ele>100.0</ele><time>2026-05-03T16:24:22.001Z</time></trkpt><trkpt lat="45.38038730240444" lon="9.218927493829085"><ele>100.0</ele><time>2026-05-03T16:24:24.001Z</time></trkpt><trkpt lat="45.38046729800783" lon="9.218908289763784"><ele>100.0</ele><time>2026-05-03T16:24:26.001Z</time></trkpt><trkpt lat="45.38054959583558" lon="9.218886171497584"><ele>100.00000000000001</ele><time>2026-05-03T16:24:28.001Z</time></trkpt><trkpt lat="45.38062694648981" lon="9.218875682228944"><ele>100.0</ele><time>2026-05-03T16:24:30.001Z</time></trkpt><trkpt lat="45.380700271711156" lon="9.218855303440819"><ele>100.66666666666667</ele><time>2026-05-03T16:24:32.001Z</time></trkpt><trkpt lat="45.38077683842226" lon="9.21883442718148"><ele>101.33333333333334</ele><time>2026-05-03T16:24:34.001Z</time></trkpt><trkpt lat="45.380857020950074" lon="9.218821121106444"><ele>102.0</ele><time>2026-05-03T16:24:36.001Z</time></trkpt><trkpt lat="45.38093684638438" lon="9.218801989317743"><ele>102.66666666666666</ele><time>2026-05-03T16:24:38.001Z</time></trkpt><trkpt lat="45.38101727531905" lon="9.218784258269983"><ele>103.33333333333333</ele><time>2026-05-03T16:24:40.001Z</time></trkpt><trkpt lat="45.38109068647549" lon="9.21876316214325"><ele>104.0</ele><time>2026-05-03T16:24:42.001Z</time></trkpt><trkpt lat="45.38116349277811" lon="9.218748460260763"><ele>103.99999999999999</ele><time>2026-05-03T16:24:44.001Z</time></trkpt><trkpt lat="45.3812353793751" lon="9.218735001046394"><ele>104.0</ele><time>2026-05-03T16:24:46.001Z</time></trkpt><trkpt lat="45.381311235468026" lon="9.218720431735377"><ele>104.0</ele><time>2026-05-03T16:24:48.001Z</time></trkpt><trkpt lat="45.381387411705184" lon="9.218697387255357"><ele>104.0</ele><time>2026-05-03T16:24:50.001Z</time></trkpt><trkpt lat="45.381459549977045" lon="9.21868461059698"><ele>103.99999999999999</ele><time>2026-05-03T16:24:52.001Z</time></trkpt><trkpt lat="45.38152759994904" lon="9.218672758030657"><ele>104.0</ele><time>2026-05-03T16:24:54.001Z</time></trkpt><trkpt lat="45.38162711244874" lon="9.218650094496146"><ele>103.85714285714285</ele><time>2026-05-03T16:24:57.001Z</time></trkpt><trkpt lat="45.38169637844599" lon="9.218632617439779"><ele>103.71428571428572</ele><time>2026-05-03T16:24:59.001Z</time></trkpt><trkpt lat="45.38176203436494" lon="9.218613074629788"><ele>103.57142857142857</ele><time>2026-05-03T16:25:01.001Z</time></trkpt><trkpt lat="45.381825752515745" lon="9.218597324355265"><ele>103.42857142857142</ele><time>2026-05-03T16:25:03.001Z</time></trkpt><trkpt lat="45.3819065138639" lon="9.218541185016495"><ele>103.28571428571428</ele><time>2026-05-03T16:25:06.001Z</time></trkpt><trkpt lat="45.38193833654066" lon="9.218431854344697"><ele>103.14285714285714</ele><time>2026-05-03T16:25:09.001Z</time></trkpt><trkpt lat="45.38192504306553" lon="9.218335845364088"><ele>103.0</ele><time>2026-05-03T16:25:11.001Z</time></trkpt><trkpt lat="45.38192097682351" lon="9.218199224910427"><ele>102.71428571428571</ele><time>2026-05-03T16:25:14.001Z</time></trkpt><trkpt lat="45.38189641838134" lon="9.21810771100359"><ele>102.42857142857143</ele><time>2026-05-03T16:25:16.001Z</time></trkpt><trkpt lat="45.381866388559935" lon="9.218026664035543"><ele>102.14285714285714</ele><time>2026-05-03T16:25:18.001Z</time></trkpt><trkpt lat="45.38184382807385" lon="9.21792327492689"><ele>101.85714285714286</ele><time>2026-05-03T16:25:21.001Z</time></trkpt><trkpt lat="45.381903033901175" lon="9.217865789500868"><ele>101.57142857142857</ele><time>2026-05-03T16:26:47.001Z</time></trkpt><trkpt lat="45.38187158925467" lon="9.217958507463036"><ele>101.28571428571428</ele><time>2026-05-03T16:27:08.001Z</time></trkpt><trkpt lat="45.38187866529585" lon="9.218048729609379"><ele>101.0</ele><time>2026-05-03T16:27:14.001Z</time></trkpt><trkpt lat="45.38189421987866" lon="9.218142470842011"><ele>101.0</ele><time>2026-05-03T16:27:22.001Z</time></trkpt></trkseg></trk></gpx>